<?xml version="1.0" encoding="UTF-8" standalone="no" ?>
<gpx xmlns="http://www.topografix.com/GPX/1/1" xmlns:xsi="http://www.w3.org/2001/XMLSchema-instance" xsi:schemaLocation="http://www.topografix.com/GPX/1/1 http://www.topografix.com/GPX/1/1/gpx.xsd" version="1.1" creator="VisuGPX - https://www.visugpx.com">
  <metadata>
    <name>Charavines n°6</name>
  </metadata>
  <trk>
    <name><![CDATA[n_6_25615,221129]]></name>
    <trkseg>
      <trkpt lat="45.43312" lon="5.51709">
        <ele>496.2</ele>
        <time>2020-12-20T12:30:49.000Z</time>
      </trkpt>
      <trkpt lat="45.43312" lon="5.51709">
        <ele>496.2</ele>
        <time>2020-12-20T12:30:49.000Z</time>
      </trkpt>
      <trkpt lat="45.43279" lon="5.51716">
        <ele>495.8</ele>
        <time>2020-12-20T12:30:54.499Z</time>
      </trkpt>
      <trkpt lat="45.43261" lon="5.51714">
        <ele>495.6</ele>
        <time>2020-12-20T12:30:57.511Z</time>
      </trkpt>
      <trkpt lat="45.43236" lon="5.51706">
        <ele>495.9</ele>
        <time>2020-12-20T12:31:04.547Z</time>
      </trkpt>
      <trkpt lat="45.43211" lon="5.51697">
        <ele>496.4</ele>
        <time>2020-12-20T12:31:12.233Z</time>
      </trkpt>
      <trkpt lat="45.43165" lon="5.5168">
        <ele>497.2</ele>
        <time>2020-12-20T12:31:26.007Z</time>
      </trkpt>
      <trkpt lat="45.43124" lon="5.51665">
        <ele>497</ele>
        <time>2020-12-20T12:31:35.684Z</time>
      </trkpt>
      <trkpt lat="45.43103" lon="5.51657">
        <ele>497</ele>
        <time>2020-12-20T12:31:41.013Z</time>
      </trkpt>
      <trkpt lat="45.4307" lon="5.51645">
        <ele>496.8</ele>
        <time>2020-12-20T12:31:48.673Z</time>
      </trkpt>
      <trkpt lat="45.43041" lon="5.51633">
        <ele>496.5</ele>
        <time>2020-12-20T12:31:53.787Z</time>
      </trkpt>
      <trkpt lat="45.43019" lon="5.51626">
        <ele>496.2</ele>
        <time>2020-12-20T12:31:57.440Z</time>
      </trkpt>
      <trkpt lat="45.43001" lon="5.51621">
        <ele>496</ele>
        <time>2020-12-20T12:32:00.505Z</time>
      </trkpt>
      <trkpt lat="45.42981" lon="5.51618">
        <ele>495.8</ele>
        <time>2020-12-20T12:32:03.910Z</time>
      </trkpt>
      <trkpt lat="45.42972" lon="5.51618">
        <ele>495.7</ele>
        <time>2020-12-20T12:32:05.410Z</time>
      </trkpt>
      <trkpt lat="45.42964" lon="5.51619">
        <ele>495.6</ele>
        <time>2020-12-20T12:32:06.726Z</time>
      </trkpt>
      <trkpt lat="45.4295" lon="5.51623">
        <ele>495.4</ele>
        <time>2020-12-20T12:32:09.020Z</time>
      </trkpt>
      <trkpt lat="45.4293" lon="5.5163">
        <ele>495.1</ele>
        <time>2020-12-20T12:32:12.305Z</time>
      </trkpt>
      <trkpt lat="45.42913" lon="5.51637">
        <ele>494.8</ele>
        <time>2020-12-20T12:32:15.045Z</time>
      </trkpt>
      <trkpt lat="45.42906" lon="5.51641">
        <ele>494.8</ele>
        <time>2020-12-20T12:32:16.894Z</time>
      </trkpt>
      <trkpt lat="45.42894" lon="5.51652">
        <ele>494.7</ele>
        <time>2020-12-20T12:32:20.053Z</time>
      </trkpt>
      <trkpt lat="45.42881" lon="5.51667">
        <ele>494.4</ele>
        <time>2020-12-20T12:32:22.613Z</time>
      </trkpt>
      <trkpt lat="45.42867" lon="5.51686">
        <ele>494.6</ele>
        <time>2020-12-20T12:32:27.849Z</time>
      </trkpt>
      <trkpt lat="45.4285" lon="5.51711">
        <ele>494.6</ele>
        <time>2020-12-20T12:32:33.838Z</time>
      </trkpt>
      <trkpt lat="45.42845" lon="5.5172">
        <ele>494.5</ele>
        <time>2020-12-20T12:32:35.159Z</time>
      </trkpt>
      <trkpt lat="45.42832" lon="5.51753">
        <ele>494.1</ele>
        <time>2020-12-20T12:32:39.369Z</time>
      </trkpt>
      <trkpt lat="45.42823" lon="5.51785">
        <ele>494.6</ele>
        <time>2020-12-20T12:32:46.685Z</time>
      </trkpt>
      <trkpt lat="45.42808" lon="5.51843">
        <ele>495.3</ele>
        <time>2020-12-20T12:32:59.164Z</time>
      </trkpt>
      <trkpt lat="45.42802" lon="5.51861">
        <ele>495.5</ele>
        <time>2020-12-20T12:33:03.109Z</time>
      </trkpt>
      <trkpt lat="45.42792" lon="5.51882">
        <ele>495.4</ele>
        <time>2020-12-20T12:33:07.130Z</time>
      </trkpt>
      <trkpt lat="45.42785" lon="5.51895">
        <ele>495.1</ele>
        <time>2020-12-20T12:33:08.733Z</time>
      </trkpt>
      <trkpt lat="45.42772" lon="5.51913">
        <ele>494.2</ele>
        <time>2020-12-20T12:33:10.741Z</time>
      </trkpt>
      <trkpt lat="45.42756" lon="5.51929">
        <ele>493.8</ele>
        <time>2020-12-20T12:33:13.645Z</time>
      </trkpt>
      <trkpt lat="45.42737" lon="5.51942">
        <ele>493.9</ele>
        <time>2020-12-20T12:33:19.047Z</time>
      </trkpt>
      <trkpt lat="45.42716" lon="5.51949">
        <ele>494</ele>
        <time>2020-12-20T12:33:24.568Z</time>
      </trkpt>
      <trkpt lat="45.427" lon="5.51952">
        <ele>494</ele>
        <time>2020-12-20T12:33:28.525Z</time>
      </trkpt>
      <trkpt lat="45.42682" lon="5.51951">
        <ele>493.9</ele>
        <time>2020-12-20T12:33:32.594Z</time>
      </trkpt>
      <trkpt lat="45.42667" lon="5.51946">
        <ele>493.7</ele>
        <time>2020-12-20T12:33:35.101Z</time>
      </trkpt>
      <trkpt lat="45.42635" lon="5.51924">
        <ele>492.5</ele>
        <time>2020-12-20T12:33:39.669Z</time>
      </trkpt>
      <trkpt lat="45.4263" lon="5.5195">
        <ele>493.4</ele>
        <time>2020-12-20T12:33:47.653Z</time>
      </trkpt>
      <trkpt lat="45.42626" lon="5.51978">
        <ele>494.6</ele>
        <time>2020-12-20T12:33:56.841Z</time>
      </trkpt>
      <trkpt lat="45.42624" lon="5.51994">
        <ele>495.3</ele>
        <time>2020-12-20T12:34:02.124Z</time>
      </trkpt>
      <trkpt lat="45.42617" lon="5.52012">
        <ele>496.7</ele>
        <time>2020-12-20T12:34:11.065Z</time>
      </trkpt>
      <trkpt lat="45.42612" lon="5.52022">
        <ele>497.6</ele>
        <time>2020-12-20T12:34:16.807Z</time>
      </trkpt>
      <trkpt lat="45.42598" lon="5.52043">
        <ele>499.5</ele>
        <time>2020-12-20T12:34:28.991Z</time>
      </trkpt>
      <trkpt lat="45.42583" lon="5.52068">
        <ele>501.7</ele>
        <time>2020-12-20T12:34:43.064Z</time>
      </trkpt>
      <trkpt lat="45.42567" lon="5.52094">
        <ele>504.6</ele>
        <time>2020-12-20T12:35:02.164Z</time>
      </trkpt>
      <trkpt lat="45.42555" lon="5.52113">
        <ele>506.7</ele>
        <time>2020-12-20T12:35:15.881Z</time>
      </trkpt>
      <trkpt lat="45.42549" lon="5.52119">
        <ele>507.6</ele>
        <time>2020-12-20T12:35:21.888Z</time>
      </trkpt>
      <trkpt lat="45.42541" lon="5.52125">
        <ele>508.5</ele>
        <time>2020-12-20T12:35:27.626Z</time>
      </trkpt>
      <trkpt lat="45.42531" lon="5.52128">
        <ele>509.4</ele>
        <time>2020-12-20T12:35:33.462Z</time>
      </trkpt>
      <trkpt lat="45.42515" lon="5.52132">
        <ele>510.7</ele>
        <time>2020-12-20T12:35:42.131Z</time>
      </trkpt>
      <trkpt lat="45.425" lon="5.52138">
        <ele>512.2</ele>
        <time>2020-12-20T12:35:51.716Z</time>
      </trkpt>
      <trkpt lat="45.42481" lon="5.52145">
        <ele>512.6</ele>
        <time>2020-12-20T12:35:57.632Z</time>
      </trkpt>
      <trkpt lat="45.42473" lon="5.52153">
        <ele>513.4</ele>
        <time>2020-12-20T12:36:02.926Z</time>
      </trkpt>
      <trkpt lat="45.42466" lon="5.52161">
        <ele>514.3</ele>
        <time>2020-12-20T12:36:08.664Z</time>
      </trkpt>
      <trkpt lat="45.42452" lon="5.52175">
        <ele>515.6</ele>
        <time>2020-12-20T12:36:17.502Z</time>
      </trkpt>
      <trkpt lat="45.42431" lon="5.52199">
        <ele>517.3</ele>
        <time>2020-12-20T12:36:30.129Z</time>
      </trkpt>
      <trkpt lat="45.42411" lon="5.52223">
        <ele>518.8</ele>
        <time>2020-12-20T12:36:41.907Z</time>
      </trkpt>
      <trkpt lat="45.42398" lon="5.52241">
        <ele>519.5</ele>
        <time>2020-12-20T12:36:48.783Z</time>
      </trkpt>
      <trkpt lat="45.42384" lon="5.52263">
        <ele>519.8</ele>
        <time>2020-12-20T12:36:54.668Z</time>
      </trkpt>
      <trkpt lat="45.42372" lon="5.52284">
        <ele>519.9</ele>
        <time>2020-12-20T12:36:59.564Z</time>
      </trkpt>
      <trkpt lat="45.42365" lon="5.52298">
        <ele>520</ele>
        <time>2020-12-20T12:37:02.764Z</time>
      </trkpt>
      <trkpt lat="45.42361" lon="5.52312">
        <ele>520.3</ele>
        <time>2020-12-20T12:37:06.274Z</time>
      </trkpt>
      <trkpt lat="45.42336" lon="5.52299">
        <ele>518.9</ele>
        <time>2020-12-20T12:37:09.149Z</time>
      </trkpt>
      <trkpt lat="45.42309" lon="5.5229">
        <ele>516.7</ele>
        <time>2020-12-20T12:37:12.071Z</time>
      </trkpt>
      <trkpt lat="45.42299" lon="5.52296">
        <ele>516.2</ele>
        <time>2020-12-20T12:37:13.312Z</time>
      </trkpt>
      <trkpt lat="45.42292" lon="5.52301">
        <ele>515.9</ele>
        <time>2020-12-20T12:37:14.274Z</time>
      </trkpt>
      <trkpt lat="45.42276" lon="5.52315">
        <ele>515.2</ele>
        <time>2020-12-20T12:37:16.606Z</time>
      </trkpt>
      <trkpt lat="45.4226" lon="5.5233">
        <ele>514.6</ele>
        <time>2020-12-20T12:37:19.131Z</time>
      </trkpt>
      <trkpt lat="45.42246" lon="5.52344">
        <ele>514.2</ele>
        <time>2020-12-20T12:37:21.587Z</time>
      </trkpt>
      <trkpt lat="45.42234" lon="5.52356">
        <ele>514.1</ele>
        <time>2020-12-20T12:37:24.841Z</time>
      </trkpt>
      <trkpt lat="45.4222" lon="5.52369">
        <ele>514</ele>
        <time>2020-12-20T12:37:28.594Z</time>
      </trkpt>
      <trkpt lat="45.42207" lon="5.52379">
        <ele>513.8</ele>
        <time>2020-12-20T12:37:30.981Z</time>
      </trkpt>
      <trkpt lat="45.42183" lon="5.52403">
        <ele>513.4</ele>
        <time>2020-12-20T12:37:35.713Z</time>
      </trkpt>
      <trkpt lat="45.42167" lon="5.52419">
        <ele>513.1</ele>
        <time>2020-12-20T12:37:38.801Z</time>
      </trkpt>
      <trkpt lat="45.42151" lon="5.52437">
        <ele>513.1</ele>
        <time>2020-12-20T12:37:43.799Z</time>
      </trkpt>
      <trkpt lat="45.42135" lon="5.52455">
        <ele>513</ele>
        <time>2020-12-20T12:37:48.447Z</time>
      </trkpt>
      <trkpt lat="45.42117" lon="5.52472">
        <ele>512.7</ele>
        <time>2020-12-20T12:37:51.921Z</time>
      </trkpt>
      <trkpt lat="45.42103" lon="5.52487">
        <ele>512.5</ele>
        <time>2020-12-20T12:37:54.830Z</time>
      </trkpt>
      <trkpt lat="45.42086" lon="5.52502">
        <ele>512.1</ele>
        <time>2020-12-20T12:37:57.816Z</time>
      </trkpt>
      <trkpt lat="45.42072" lon="5.52507">
        <ele>511.4</ele>
        <time>2020-12-20T12:37:59.431Z</time>
      </trkpt>
      <trkpt lat="45.42067" lon="5.52521">
        <ele>511.2</ele>
        <time>2020-12-20T12:38:01.115Z</time>
      </trkpt>
      <trkpt lat="45.42053" lon="5.52535">
        <ele>510.4</ele>
        <time>2020-12-20T12:38:03.059Z</time>
      </trkpt>
      <trkpt lat="45.42039" lon="5.52552">
        <ele>509.5</ele>
        <time>2020-12-20T12:38:05.110Z</time>
      </trkpt>
      <trkpt lat="45.42027" lon="5.52565">
        <ele>508.8</ele>
        <time>2020-12-20T12:38:06.828Z</time>
      </trkpt>
      <trkpt lat="45.42002" lon="5.52589">
        <ele>507.1</ele>
        <time>2020-12-20T12:38:09.984Z</time>
      </trkpt>
      <trkpt lat="45.41982" lon="5.52608">
        <ele>506.8</ele>
        <time>2020-12-20T12:38:13.921Z</time>
      </trkpt>
      <trkpt lat="45.41955" lon="5.5263">
        <ele>506.5</ele>
        <time>2020-12-20T12:38:19.208Z</time>
      </trkpt>
      <trkpt lat="45.41929" lon="5.5265">
        <ele>506.1</ele>
        <time>2020-12-20T12:38:23.982Z</time>
      </trkpt>
      <trkpt lat="45.41905" lon="5.52665">
        <ele>505.6</ele>
        <time>2020-12-20T12:38:27.939Z</time>
      </trkpt>
      <trkpt lat="45.41885" lon="5.52679">
        <ele>505.1</ele>
        <time>2020-12-20T12:38:31.174Z</time>
      </trkpt>
      <trkpt lat="45.41866" lon="5.52692">
        <ele>504.7</ele>
        <time>2020-12-20T12:38:34.360Z</time>
      </trkpt>
      <trkpt lat="45.41855" lon="5.52704">
        <ele>504.6</ele>
        <time>2020-12-20T12:38:37.419Z</time>
      </trkpt>
      <trkpt lat="45.41838" lon="5.52721">
        <ele>504.4</ele>
        <time>2020-12-20T12:38:40.950Z</time>
      </trkpt>
      <trkpt lat="45.41827" lon="5.52736">
        <ele>504.1</ele>
        <time>2020-12-20T12:38:43.232Z</time>
      </trkpt>
      <trkpt lat="45.41813" lon="5.52754">
        <ele>503.4</ele>
        <time>2020-12-20T12:38:45.577Z</time>
      </trkpt>
      <trkpt lat="45.41798" lon="5.52775">
        <ele>502.8</ele>
        <time>2020-12-20T12:38:48.432Z</time>
      </trkpt>
      <trkpt lat="45.41781" lon="5.528">
        <ele>502.7</ele>
        <time>2020-12-20T12:38:54.068Z</time>
      </trkpt>
      <trkpt lat="45.41764" lon="5.52825">
        <ele>503.1</ele>
        <time>2020-12-20T12:39:01.115Z</time>
      </trkpt>
      <trkpt lat="45.41739" lon="5.52858">
        <ele>502.4</ele>
        <time>2020-12-20T12:39:06.173Z</time>
      </trkpt>
      <trkpt lat="45.41713" lon="5.52896">
        <ele>500.9</ele>
        <time>2020-12-20T12:39:10.667Z</time>
      </trkpt>
      <trkpt lat="45.41693" lon="5.52927">
        <ele>500.2</ele>
        <time>2020-12-20T12:39:14.898Z</time>
      </trkpt>
      <trkpt lat="45.41692" lon="5.52944">
        <ele>500.6</ele>
        <time>2020-12-20T12:39:19.128Z</time>
      </trkpt>
      <trkpt lat="45.41706" lon="5.52952">
        <ele>502.1</ele>
        <time>2020-12-20T12:39:28.692Z</time>
      </trkpt>
      <trkpt lat="45.41719" lon="5.52962">
        <ele>503.5</ele>
        <time>2020-12-20T12:39:37.653Z</time>
      </trkpt>
      <trkpt lat="45.41727" lon="5.52972">
        <ele>504.2</ele>
        <time>2020-12-20T12:39:42.741Z</time>
      </trkpt>
      <trkpt lat="45.41731" lon="5.52979">
        <ele>504.6</ele>
        <time>2020-12-20T12:39:45.713Z</time>
      </trkpt>
      <trkpt lat="45.41738" lon="5.52999">
        <ele>505.3</ele>
        <time>2020-12-20T12:39:52.209Z</time>
      </trkpt>
      <trkpt lat="45.41742" lon="5.53017">
        <ele>506.5</ele>
        <time>2020-12-20T12:39:59.945Z</time>
      </trkpt>
      <trkpt lat="45.41753" lon="5.53051">
        <ele>509.4</ele>
        <time>2020-12-20T12:40:18.579Z</time>
      </trkpt>
      <trkpt lat="45.41768" lon="5.53096">
        <ele>514.2</ele>
        <time>2020-12-20T12:40:51.644Z</time>
      </trkpt>
      <trkpt lat="45.41775" lon="5.53121">
        <ele>516.6</ele>
        <time>2020-12-20T12:41:07.996Z</time>
      </trkpt>
      <trkpt lat="45.41782" lon="5.53142">
        <ele>518.6</ele>
        <time>2020-12-20T12:41:21.331Z</time>
      </trkpt>
      <trkpt lat="45.41789" lon="5.53158">
        <ele>520.3</ele>
        <time>2020-12-20T12:41:33.005Z</time>
      </trkpt>
      <trkpt lat="45.41796" lon="5.53167">
        <ele>521.4</ele>
        <time>2020-12-20T12:41:40.181Z</time>
      </trkpt>
      <trkpt lat="45.41798" lon="5.5317">
        <ele>521.6</ele>
        <time>2020-12-20T12:41:41.602Z</time>
      </trkpt>
      <trkpt lat="45.41807" lon="5.53175">
        <ele>522.4</ele>
        <time>2020-12-20T12:41:46.877Z</time>
      </trkpt>
      <trkpt lat="45.41819" lon="5.53182">
        <ele>523.5</ele>
        <time>2020-12-20T12:41:54.079Z</time>
      </trkpt>
      <trkpt lat="45.41824" lon="5.53185">
        <ele>524</ele>
        <time>2020-12-20T12:41:57.292Z</time>
      </trkpt>
      <trkpt lat="45.4183" lon="5.53192">
        <ele>524.6</ele>
        <time>2020-12-20T12:42:01.343Z</time>
      </trkpt>
      <trkpt lat="45.41841" lon="5.53203">
        <ele>526.1</ele>
        <time>2020-12-20T12:42:11.004Z</time>
      </trkpt>
      <trkpt lat="45.41853" lon="5.53214">
        <ele>528.1</ele>
        <time>2020-12-20T12:42:24.497Z</time>
      </trkpt>
      <trkpt lat="45.4186" lon="5.53218">
        <ele>529.3</ele>
        <time>2020-12-20T12:42:31.629Z</time>
      </trkpt>
      <trkpt lat="45.41867" lon="5.53221">
        <ele>530.5</ele>
        <time>2020-12-20T12:42:38.541Z</time>
      </trkpt>
      <trkpt lat="45.4187" lon="5.53221">
        <ele>531</ele>
        <time>2020-12-20T12:42:41.378Z</time>
      </trkpt>
      <trkpt lat="45.41874" lon="5.5322">
        <ele>531.6</ele>
        <time>2020-12-20T12:42:45.218Z</time>
      </trkpt>
      <trkpt lat="45.41889" lon="5.53213">
        <ele>533.6</ele>
        <time>2020-12-20T12:42:58.821Z</time>
      </trkpt>
      <trkpt lat="45.41906" lon="5.53211">
        <ele>536.1</ele>
        <time>2020-12-20T12:43:14.951Z</time>
      </trkpt>
      <trkpt lat="45.41918" lon="5.53212">
        <ele>537.8</ele>
        <time>2020-12-20T12:43:26.318Z</time>
      </trkpt>
      <trkpt lat="45.41928" lon="5.53216">
        <ele>538.5</ele>
        <time>2020-12-20T12:43:31.343Z</time>
      </trkpt>
      <trkpt lat="45.41939" lon="5.53224">
        <ele>539.4</ele>
        <time>2020-12-20T12:43:37.570Z</time>
      </trkpt>
      <trkpt lat="45.41953" lon="5.53237">
        <ele>540.8</ele>
        <time>2020-12-20T12:43:46.769Z</time>
      </trkpt>
      <trkpt lat="45.41965" lon="5.53246">
        <ele>541.9</ele>
        <time>2020-12-20T12:43:54.071Z</time>
      </trkpt>
      <trkpt lat="45.41973" lon="5.53251">
        <ele>542.4</ele>
        <time>2020-12-20T12:43:58.002Z</time>
      </trkpt>
      <trkpt lat="45.41986" lon="5.53258">
        <ele>543.1</ele>
        <time>2020-12-20T12:44:03.974Z</time>
      </trkpt>
      <trkpt lat="45.42003" lon="5.53267">
        <ele>544.3</ele>
        <time>2020-12-20T12:44:12.669Z</time>
      </trkpt>
      <trkpt lat="45.42021" lon="5.53276">
        <ele>545.6</ele>
        <time>2020-12-20T12:44:21.950Z</time>
      </trkpt>
      <trkpt lat="45.42032" lon="5.53283">
        <ele>546.5</ele>
        <time>2020-12-20T12:44:28.112Z</time>
      </trkpt>
      <trkpt lat="45.42039" lon="5.53298">
        <ele>547.9</ele>
        <time>2020-12-20T12:44:37.114Z</time>
      </trkpt>
      <trkpt lat="45.42043" lon="5.53323">
        <ele>549.8</ele>
        <time>2020-12-20T12:44:49.246Z</time>
      </trkpt>
      <trkpt lat="45.42041" lon="5.53334">
        <ele>550.5</ele>
        <time>2020-12-20T12:44:53.789Z</time>
      </trkpt>
      <trkpt lat="45.42038" lon="5.53346">
        <ele>550.6</ele>
        <time>2020-12-20T12:44:56.231Z</time>
      </trkpt>
      <trkpt lat="45.42033" lon="5.53373">
        <ele>550.7</ele>
        <time>2020-12-20T12:45:01.272Z</time>
      </trkpt>
      <trkpt lat="45.42034" lon="5.53388">
        <ele>550.9</ele>
        <time>2020-12-20T12:45:04.408Z</time>
      </trkpt>
      <trkpt lat="45.42037" lon="5.53398">
        <ele>551.3</ele>
        <time>2020-12-20T12:45:07.732Z</time>
      </trkpt>
      <trkpt lat="45.42043" lon="5.53412">
        <ele>552</ele>
        <time>2020-12-20T12:45:13.043Z</time>
      </trkpt>
      <trkpt lat="45.4205" lon="5.53426">
        <ele>552.6</ele>
        <time>2020-12-20T12:45:18.206Z</time>
      </trkpt>
      <trkpt lat="45.42057" lon="5.53437">
        <ele>553.1</ele>
        <time>2020-12-20T12:45:22.615Z</time>
      </trkpt>
      <trkpt lat="45.42066" lon="5.53444">
        <ele>553.9</ele>
        <time>2020-12-20T12:45:27.999Z</time>
      </trkpt>
      <trkpt lat="45.42084" lon="5.53464">
        <ele>555.5</ele>
        <time>2020-12-20T12:45:39.267Z</time>
      </trkpt>
      <trkpt lat="45.4209" lon="5.53474">
        <ele>555.6</ele>
        <time>2020-12-20T12:45:41.780Z</time>
      </trkpt>
      <trkpt lat="45.42097" lon="5.53482">
        <ele>555.8</ele>
        <time>2020-12-20T12:45:44.545Z</time>
      </trkpt>
      <trkpt lat="45.42111" lon="5.53493">
        <ele>556.4</ele>
        <time>2020-12-20T12:45:50.517Z</time>
      </trkpt>
      <trkpt lat="45.4212" lon="5.53495">
        <ele>556.8</ele>
        <time>2020-12-20T12:45:54.253Z</time>
      </trkpt>
      <trkpt lat="45.42127" lon="5.53498">
        <ele>557.1</ele>
        <time>2020-12-20T12:45:57.124Z</time>
      </trkpt>
      <trkpt lat="45.42134" lon="5.53503">
        <ele>557.5</ele>
        <time>2020-12-20T12:46:00.505Z</time>
      </trkpt>
      <trkpt lat="45.42149" lon="5.53509">
        <ele>558.5</ele>
        <time>2020-12-20T12:46:07.868Z</time>
      </trkpt>
      <trkpt lat="45.4216" lon="5.53511">
        <ele>559.2</ele>
        <time>2020-12-20T12:46:13.069Z</time>
      </trkpt>
      <trkpt lat="45.42168" lon="5.53513">
        <ele>559.8</ele>
        <time>2020-12-20T12:46:17.196Z</time>
      </trkpt>
      <trkpt lat="45.42168" lon="5.53524">
        <ele>560.3</ele>
        <time>2020-12-20T12:46:20.860Z</time>
      </trkpt>
      <trkpt lat="45.42167" lon="5.53542">
        <ele>561.1</ele>
        <time>2020-12-20T12:46:26.804Z</time>
      </trkpt>
      <trkpt lat="45.42167" lon="5.5356">
        <ele>561.9</ele>
        <time>2020-12-20T12:46:32.737Z</time>
      </trkpt>
      <trkpt lat="45.42168" lon="5.53579">
        <ele>563</ele>
        <time>2020-12-20T12:46:40.006Z</time>
      </trkpt>
      <trkpt lat="45.42169" lon="5.53591">
        <ele>563.1</ele>
        <time>2020-12-20T12:46:42.337Z</time>
      </trkpt>
      <trkpt lat="45.42171" lon="5.53599">
        <ele>563.2</ele>
        <time>2020-12-20T12:46:44.064Z</time>
      </trkpt>
      <trkpt lat="45.42183" lon="5.53639">
        <ele>563.9</ele>
        <time>2020-12-20T12:46:53.538Z</time>
      </trkpt>
      <trkpt lat="45.42189" lon="5.53658">
        <ele>564.4</ele>
        <time>2020-12-20T12:46:58.758Z</time>
      </trkpt>
      <trkpt lat="45.42201" lon="5.5369">
        <ele>564.8</ele>
        <time>2020-12-20T12:47:06.050Z</time>
      </trkpt>
      <trkpt lat="45.42206" lon="5.5371">
        <ele>564.4</ele>
        <time>2020-12-20T12:47:08.110Z</time>
      </trkpt>
      <trkpt lat="45.42222" lon="5.53756">
        <ele>564</ele>
        <time>2020-12-20T12:47:14.118Z</time>
      </trkpt>
      <trkpt lat="45.42201" lon="5.53837">
        <ele>563.9</ele>
        <time>2020-12-20T12:47:28.610Z</time>
      </trkpt>
      <trkpt lat="45.42189" lon="5.53877">
        <ele>566.3</ele>
        <time>2020-12-20T12:47:44.717Z</time>
      </trkpt>
      <trkpt lat="45.42187" lon="5.5389">
        <ele>567.3</ele>
        <time>2020-12-20T12:47:51.112Z</time>
      </trkpt>
      <trkpt lat="45.42187" lon="5.53899">
        <ele>567.9</ele>
        <time>2020-12-20T12:47:54.951Z</time>
      </trkpt>
      <trkpt lat="45.42185" lon="5.53922">
        <ele>569.5</ele>
        <time>2020-12-20T12:48:05.158Z</time>
      </trkpt>
      <trkpt lat="45.42181" lon="5.53967">
        <ele>570.6</ele>
        <time>2020-12-20T12:48:16.577Z</time>
      </trkpt>
      <trkpt lat="45.42202" lon="5.53964">
        <ele>570.5</ele>
        <time>2020-12-20T12:48:21.401Z</time>
      </trkpt>
      <trkpt lat="45.42222" lon="5.53951">
        <ele>569.8</ele>
        <time>2020-12-20T12:48:24.284Z</time>
      </trkpt>
      <trkpt lat="45.42232" lon="5.53945">
        <ele>569.3</ele>
        <time>2020-12-20T12:48:25.524Z</time>
      </trkpt>
      <trkpt lat="45.42235" lon="5.53945">
        <ele>569.3</ele>
        <time>2020-12-20T12:48:26.260Z</time>
      </trkpt>
      <trkpt lat="45.42239" lon="5.53946">
        <ele>569.3</ele>
        <time>2020-12-20T12:48:27.256Z</time>
      </trkpt>
      <trkpt lat="45.42243" lon="5.53947">
        <ele>569.3</ele>
        <time>2020-12-20T12:48:28.251Z</time>
      </trkpt>
      <trkpt lat="45.42248" lon="5.53954">
        <ele>569.7</ele>
        <time>2020-12-20T12:48:31.402Z</time>
      </trkpt>
      <trkpt lat="45.42255" lon="5.53972">
        <ele>571.6</ele>
        <time>2020-12-20T12:48:44.697Z</time>
      </trkpt>
      <trkpt lat="45.42264" lon="5.53994">
        <ele>573.6</ele>
        <time>2020-12-20T12:48:57.586Z</time>
      </trkpt>
      <trkpt lat="45.4228" lon="5.54029">
        <ele>576.2</ele>
        <time>2020-12-20T12:49:14.420Z</time>
      </trkpt>
      <trkpt lat="45.42299" lon="5.54067">
        <ele>577.2</ele>
        <time>2020-12-20T12:49:25.566Z</time>
      </trkpt>
      <trkpt lat="45.42319" lon="5.54107">
        <ele>578.3</ele>
        <time>2020-12-20T12:49:37.507Z</time>
      </trkpt>
      <trkpt lat="45.42328" lon="5.54123">
        <ele>579.2</ele>
        <time>2020-12-20T12:49:44.228Z</time>
      </trkpt>
      <trkpt lat="45.42342" lon="5.54144">
        <ele>580.7</ele>
        <time>2020-12-20T12:49:54.551Z</time>
      </trkpt>
      <trkpt lat="45.42362" lon="5.54171">
        <ele>582.8</ele>
        <time>2020-12-20T12:50:08.811Z</time>
      </trkpt>
      <trkpt lat="45.42373" lon="5.54188">
        <ele>585.3</ele>
        <time>2020-12-20T12:50:24.157Z</time>
      </trkpt>
      <trkpt lat="45.42381" lon="5.54198">
        <ele>586.5</ele>
        <time>2020-12-20T12:50:31.905Z</time>
      </trkpt>
      <trkpt lat="45.42391" lon="5.54211">
        <ele>587.9</ele>
        <time>2020-12-20T12:50:40.832Z</time>
      </trkpt>
      <trkpt lat="45.42401" lon="5.54224">
        <ele>589</ele>
        <time>2020-12-20T12:50:48.130Z</time>
      </trkpt>
      <trkpt lat="45.42413" lon="5.54234">
        <ele>589.3</ele>
        <time>2020-12-20T12:50:52.377Z</time>
      </trkpt>
      <trkpt lat="45.42433" lon="5.54249">
        <ele>589.5</ele>
        <time>2020-12-20T12:50:58.407Z</time>
      </trkpt>
      <trkpt lat="45.42443" lon="5.54255">
        <ele>590</ele>
        <time>2020-12-20T12:51:02.942Z</time>
      </trkpt>
      <trkpt lat="45.42449" lon="5.54259">
        <ele>590.3</ele>
        <time>2020-12-20T12:51:05.696Z</time>
      </trkpt>
      <trkpt lat="45.42459" lon="5.54268">
        <ele>591.1</ele>
        <time>2020-12-20T12:51:11.429Z</time>
      </trkpt>
      <trkpt lat="45.42476" lon="5.54285">
        <ele>591.9</ele>
        <time>2020-12-20T12:51:19.297Z</time>
      </trkpt>
      <trkpt lat="45.42497" lon="5.54307">
        <ele>591.4</ele>
        <time>2020-12-20T12:51:23.227Z</time>
      </trkpt>
      <trkpt lat="45.42501" lon="5.54307">
        <ele>590.8</ele>
        <time>2020-12-20T12:51:23.648Z</time>
      </trkpt>
      <trkpt lat="45.4252" lon="5.54326">
        <ele>592.6</ele>
        <time>2020-12-20T12:51:35.790Z</time>
      </trkpt>
      <trkpt lat="45.42531" lon="5.54331">
        <ele>592.7</ele>
        <time>2020-12-20T12:51:38.864Z</time>
      </trkpt>
      <trkpt lat="45.42547" lon="5.54334">
        <ele>592.3</ele>
        <time>2020-12-20T12:51:41.146Z</time>
      </trkpt>
      <trkpt lat="45.42554" lon="5.54334">
        <ele>592.1</ele>
        <time>2020-12-20T12:51:42.096Z</time>
      </trkpt>
      <trkpt lat="45.42569" lon="5.54335">
        <ele>591.6</ele>
        <time>2020-12-20T12:51:44.036Z</time>
      </trkpt>
      <trkpt lat="45.42578" lon="5.54337">
        <ele>591.3</ele>
        <time>2020-12-20T12:51:45.217Z</time>
      </trkpt>
      <trkpt lat="45.42585" lon="5.54339">
        <ele>591.4</ele>
        <time>2020-12-20T12:51:47.225Z</time>
      </trkpt>
      <trkpt lat="45.42595" lon="5.54343">
        <ele>592.7</ele>
        <time>2020-12-20T12:51:55.998Z</time>
      </trkpt>
      <trkpt lat="45.42607" lon="5.5435">
        <ele>594.3</ele>
        <time>2020-12-20T12:52:06.705Z</time>
      </trkpt>
      <trkpt lat="45.42619" lon="5.54357">
        <ele>595.9</ele>
        <time>2020-12-20T12:52:17.412Z</time>
      </trkpt>
      <trkpt lat="45.42632" lon="5.54363">
        <ele>597.5</ele>
        <time>2020-12-20T12:52:27.864Z</time>
      </trkpt>
      <trkpt lat="45.42648" lon="5.54371">
        <ele>599.4</ele>
        <time>2020-12-20T12:52:40.113Z</time>
      </trkpt>
      <trkpt lat="45.42657" lon="5.54375">
        <ele>600.5</ele>
        <time>2020-12-20T12:52:47.290Z</time>
      </trkpt>
      <trkpt lat="45.42674" lon="5.5438">
        <ele>602.3</ele>
        <time>2020-12-20T12:52:58.769Z</time>
      </trkpt>
      <trkpt lat="45.4269" lon="5.54385">
        <ele>604.1</ele>
        <time>2020-12-20T12:53:10.326Z</time>
      </trkpt>
      <trkpt lat="45.42703" lon="5.54389">
        <ele>605.6</ele>
        <time>2020-12-20T12:53:20.011Z</time>
      </trkpt>
      <trkpt lat="45.42718" lon="5.54394">
        <ele>607.4</ele>
        <time>2020-12-20T12:53:31.761Z</time>
      </trkpt>
      <trkpt lat="45.42732" lon="5.54396">
        <ele>609</ele>
        <time>2020-12-20T12:53:42.115Z</time>
      </trkpt>
      <trkpt lat="45.42747" lon="5.54397">
        <ele>610.7</ele>
        <time>2020-12-20T12:53:53.102Z</time>
      </trkpt>
      <trkpt lat="45.42758" lon="5.54399">
        <ele>611.8</ele>
        <time>2020-12-20T12:54:00.117Z</time>
      </trkpt>
      <trkpt lat="45.42792" lon="5.54404">
        <ele>614.8</ele>
        <time>2020-12-20T12:54:19.587Z</time>
      </trkpt>
      <trkpt lat="45.42806" lon="5.54407">
        <ele>616.2</ele>
        <time>2020-12-20T12:54:28.516Z</time>
      </trkpt>
      <trkpt lat="45.42818" lon="5.54411">
        <ele>617.4</ele>
        <time>2020-12-20T12:54:36.177Z</time>
      </trkpt>
      <trkpt lat="45.42839" lon="5.54416">
        <ele>619.8</ele>
        <time>2020-12-20T12:54:51.671Z</time>
      </trkpt>
      <trkpt lat="45.42848" lon="5.54417">
        <ele>621.4</ele>
        <time>2020-12-20T12:55:00.207Z</time>
      </trkpt>
      <trkpt lat="45.42854" lon="5.54416">
        <ele>622.2</ele>
        <time>2020-12-20T12:55:05.838Z</time>
      </trkpt>
      <trkpt lat="45.42887" lon="5.5439">
        <ele>624.9</ele>
        <time>2020-12-20T12:55:24.667Z</time>
      </trkpt>
      <trkpt lat="45.429" lon="5.54376">
        <ele>625.4</ele>
        <time>2020-12-20T12:55:30.224Z</time>
      </trkpt>
      <trkpt lat="45.42906" lon="5.54374">
        <ele>626</ele>
        <time>2020-12-20T12:55:34.054Z</time>
      </trkpt>
      <trkpt lat="45.4292" lon="5.54372">
        <ele>627.7</ele>
        <time>2020-12-20T12:55:45.308Z</time>
      </trkpt>
      <trkpt lat="45.42939" lon="5.54369">
        <ele>630.4</ele>
        <time>2020-12-20T12:56:03.384Z</time>
      </trkpt>
      <trkpt lat="45.42955" lon="5.54368">
        <ele>632.8</ele>
        <time>2020-12-20T12:56:18.528Z</time>
      </trkpt>
      <trkpt lat="45.42967" lon="5.54367">
        <ele>634.5</ele>
        <time>2020-12-20T12:56:29.894Z</time>
      </trkpt>
      <trkpt lat="45.42994" lon="5.54363">
        <ele>637.9</ele>
        <time>2020-12-20T12:56:52.848Z</time>
      </trkpt>
      <trkpt lat="45.43006" lon="5.5436">
        <ele>639.3</ele>
        <time>2020-12-20T12:57:01.936Z</time>
      </trkpt>
      <trkpt lat="45.43024" lon="5.54353">
        <ele>641.1</ele>
        <time>2020-12-20T12:57:13.435Z</time>
      </trkpt>
      <trkpt lat="45.43055" lon="5.54339">
        <ele>643.4</ele>
        <time>2020-12-20T12:57:29.566Z</time>
      </trkpt>
      <trkpt lat="45.43071" lon="5.5433">
        <ele>644.7</ele>
        <time>2020-12-20T12:57:38.424Z</time>
      </trkpt>
      <trkpt lat="45.43084" lon="5.54323">
        <ele>647</ele>
        <time>2020-12-20T12:57:51.565Z</time>
      </trkpt>
      <trkpt lat="45.43106" lon="5.54309">
        <ele>651.4</ele>
        <time>2020-12-20T12:58:14.348Z</time>
      </trkpt>
      <trkpt lat="45.43131" lon="5.54287">
        <ele>654.3</ele>
        <time>2020-12-20T12:58:32.846Z</time>
      </trkpt>
      <trkpt lat="45.43146" lon="5.54275">
        <ele>655.2</ele>
        <time>2020-12-20T12:58:40.333Z</time>
      </trkpt>
      <trkpt lat="45.43159" lon="5.54264">
        <ele>655.4</ele>
        <time>2020-12-20T12:58:44.551Z</time>
      </trkpt>
      <trkpt lat="45.43174" lon="5.54253">
        <ele>656.2</ele>
        <time>2020-12-20T12:58:51.662Z</time>
      </trkpt>
      <trkpt lat="45.43185" lon="5.54246">
        <ele>659.2</ele>
        <time>2020-12-20T12:59:03.054Z</time>
      </trkpt>
      <trkpt lat="45.43201" lon="5.54232">
        <ele>665.4</ele>
        <time>2020-12-20T12:59:20.808Z</time>
      </trkpt>
      <trkpt lat="45.43213" lon="5.5422">
        <ele>669.3</ele>
        <time>2020-12-20T12:59:34.670Z</time>
      </trkpt>
      <trkpt lat="45.43226" lon="5.54204">
        <ele>672.6</ele>
        <time>2020-12-20T12:59:50.913Z</time>
      </trkpt>
      <trkpt lat="45.43241" lon="5.54189">
        <ele>674.4</ele>
        <time>2020-12-20T13:00:02.397Z</time>
      </trkpt>
      <trkpt lat="45.43253" lon="5.54175">
        <ele>675</ele>
        <time>2020-12-20T13:00:08.286Z</time>
      </trkpt>
      <trkpt lat="45.43265" lon="5.54164">
        <ele>676.2</ele>
        <time>2020-12-20T13:00:16.162Z</time>
      </trkpt>
      <trkpt lat="45.43277" lon="5.54155">
        <ele>679.3</ele>
        <time>2020-12-20T13:00:28.985Z</time>
      </trkpt>
      <trkpt lat="45.43293" lon="5.54148">
        <ele>681.5</ele>
        <time>2020-12-20T13:00:44.369Z</time>
      </trkpt>
      <trkpt lat="45.43301" lon="5.54146">
        <ele>682.1</ele>
        <time>2020-12-20T13:00:48.496Z</time>
      </trkpt>
      <trkpt lat="45.43328" lon="5.54137">
        <ele>684.2</ele>
        <time>2020-12-20T13:01:02.793Z</time>
      </trkpt>
      <trkpt lat="45.43342" lon="5.5413">
        <ele>687.4</ele>
        <time>2020-12-20T13:01:16.823Z</time>
      </trkpt>
      <trkpt lat="45.43355" lon="5.54127">
        <ele>690.5</ele>
        <time>2020-12-20T13:01:29.276Z</time>
      </trkpt>
      <trkpt lat="45.43389" lon="5.54133">
        <ele>695.5</ele>
        <time>2020-12-20T13:02:01.671Z</time>
      </trkpt>
      <trkpt lat="45.43405" lon="5.54141">
        <ele>697.1</ele>
        <time>2020-12-20T13:02:11.918Z</time>
      </trkpt>
      <trkpt lat="45.43421" lon="5.54146">
        <ele>699.1</ele>
        <time>2020-12-20T13:02:25.227Z</time>
      </trkpt>
      <trkpt lat="45.43438" lon="5.54155">
        <ele>699.7</ele>
        <time>2020-12-20T13:02:31.606Z</time>
      </trkpt>
      <trkpt lat="45.43453" lon="5.54147">
        <ele>703.5</ele>
        <time>2020-12-20T13:02:46.751Z</time>
      </trkpt>
      <trkpt lat="45.43473" lon="5.54163">
        <ele>702.1</ele>
        <time>2020-12-20T13:02:49.063Z</time>
      </trkpt>
      <trkpt lat="45.43483" lon="5.54165">
        <ele>702.6</ele>
        <time>2020-12-20T13:02:53.378Z</time>
      </trkpt>
      <trkpt lat="45.43506" lon="5.54167">
        <ele>705.3</ele>
        <time>2020-12-20T13:03:11.021Z</time>
      </trkpt>
      <trkpt lat="45.43516" lon="5.54171">
        <ele>707.7</ele>
        <time>2020-12-20T13:03:20.842Z</time>
      </trkpt>
      <trkpt lat="45.43519" lon="5.54172">
        <ele>708.3</ele>
        <time>2020-12-20T13:03:23.755Z</time>
      </trkpt>
      <trkpt lat="45.43532" lon="5.54178">
        <ele>711.1</ele>
        <time>2020-12-20T13:03:36.677Z</time>
      </trkpt>
      <trkpt lat="45.43589" lon="5.54211">
        <ele>716.4</ele>
        <time>2020-12-20T13:04:11.234Z</time>
      </trkpt>
      <trkpt lat="45.43609" lon="5.54221">
        <ele>715.7</ele>
        <time>2020-12-20T13:04:13.980Z</time>
      </trkpt>
      <trkpt lat="45.43621" lon="5.54227">
        <ele>715</ele>
        <time>2020-12-20T13:04:15.326Z</time>
      </trkpt>
      <trkpt lat="45.4363" lon="5.54233">
        <ele>714</ele>
        <time>2020-12-20T13:04:16.373Z</time>
      </trkpt>
      <trkpt lat="45.43638" lon="5.54236">
        <ele>713.4</ele>
        <time>2020-12-20T13:04:17.244Z</time>
      </trkpt>
      <trkpt lat="45.43654" lon="5.54236">
        <ele>713.4</ele>
        <time>2020-12-20T13:04:21.167Z</time>
      </trkpt>
      <trkpt lat="45.43673" lon="5.54237">
        <ele>712.8</ele>
        <time>2020-12-20T13:04:23.667Z</time>
      </trkpt>
      <trkpt lat="45.43695" lon="5.54237">
        <ele>711.7</ele>
        <time>2020-12-20T13:04:26.097Z</time>
      </trkpt>
      <trkpt lat="45.43708" lon="5.54237">
        <ele>711</ele>
        <time>2020-12-20T13:04:27.487Z</time>
      </trkpt>
      <trkpt lat="45.43723" lon="5.54236">
        <ele>710.4</ele>
        <time>2020-12-20T13:04:29.304Z</time>
      </trkpt>
      <trkpt lat="45.43733" lon="5.54236">
        <ele>709.9</ele>
        <time>2020-12-20T13:04:30.409Z</time>
      </trkpt>
      <trkpt lat="45.43746" lon="5.54236">
        <ele>709.2</ele>
        <time>2020-12-20T13:04:31.799Z</time>
      </trkpt>
      <trkpt lat="45.43756" lon="5.54236">
        <ele>709.5</ele>
        <time>2020-12-20T13:04:35.179Z</time>
      </trkpt>
      <trkpt lat="45.43767" lon="5.54234">
        <ele>710.7</ele>
        <time>2020-12-20T13:04:42.864Z</time>
      </trkpt>
      <trkpt lat="45.43779" lon="5.54231">
        <ele>712.1</ele>
        <time>2020-12-20T13:04:51.951Z</time>
      </trkpt>
      <trkpt lat="45.4379" lon="5.54225">
        <ele>713.5</ele>
        <time>2020-12-20T13:05:01.151Z</time>
      </trkpt>
      <trkpt lat="45.43801" lon="5.54218">
        <ele>714.8</ele>
        <time>2020-12-20T13:05:09.473Z</time>
      </trkpt>
      <trkpt lat="45.4381" lon="5.54211">
        <ele>715.7</ele>
        <time>2020-12-20T13:05:15.314Z</time>
      </trkpt>
      <trkpt lat="45.43818" lon="5.54201">
        <ele>716.6</ele>
        <time>2020-12-20T13:05:21.212Z</time>
      </trkpt>
      <trkpt lat="45.43826" lon="5.54192">
        <ele>717.2</ele>
        <time>2020-12-20T13:05:25.850Z</time>
      </trkpt>
      <trkpt lat="45.43832" lon="5.54182">
        <ele>717.6</ele>
        <time>2020-12-20T13:05:29.603Z</time>
      </trkpt>
      <trkpt lat="45.43837" lon="5.54176">
        <ele>718</ele>
        <time>2020-12-20T13:05:32.627Z</time>
      </trkpt>
      <trkpt lat="45.43845" lon="5.54167">
        <ele>718.7</ele>
        <time>2020-12-20T13:05:37.605Z</time>
      </trkpt>
      <trkpt lat="45.43868" lon="5.5415">
        <ele>719.9</ele>
        <time>2020-12-20T13:05:48.450Z</time>
      </trkpt>
      <trkpt lat="45.43879" lon="5.5414">
        <ele>719.9</ele>
        <time>2020-12-20T13:05:51.648Z</time>
      </trkpt>
      <trkpt lat="45.43905" lon="5.54123">
        <ele>718.2</ele>
        <time>2020-12-20T13:05:54.569Z</time>
      </trkpt>
      <trkpt lat="45.43912" lon="5.54131">
        <ele>718.8</ele>
        <time>2020-12-20T13:05:58.894Z</time>
      </trkpt>
      <trkpt lat="45.43912" lon="5.54127">
        <ele>718.4</ele>
        <time>2020-12-20T13:05:59.189Z</time>
      </trkpt>
      <trkpt lat="45.43922" lon="5.54158">
        <ele>721</ele>
        <time>2020-12-20T13:06:15.848Z</time>
      </trkpt>
      <trkpt lat="45.43922" lon="5.54184">
        <ele>722.7</ele>
        <time>2020-12-20T13:06:26.755Z</time>
      </trkpt>
      <trkpt lat="45.43921" lon="5.54201">
        <ele>723.4</ele>
        <time>2020-12-20T13:06:32.188Z</time>
      </trkpt>
      <trkpt lat="45.43919" lon="5.54225">
        <ele>724.7</ele>
        <time>2020-12-20T13:06:40.995Z</time>
      </trkpt>
      <trkpt lat="45.43918" lon="5.54245">
        <ele>725.6</ele>
        <time>2020-12-20T13:06:47.634Z</time>
      </trkpt>
      <trkpt lat="45.43919" lon="5.54271">
        <ele>725.8</ele>
        <time>2020-12-20T13:06:52.612Z</time>
      </trkpt>
      <trkpt lat="45.4392" lon="5.54287">
        <ele>725.8</ele>
        <time>2020-12-20T13:06:55.375Z</time>
      </trkpt>
      <trkpt lat="45.43921" lon="5.54312">
        <ele>726</ele>
        <time>2020-12-20T13:07:00.184Z</time>
      </trkpt>
      <trkpt lat="45.43923" lon="5.54332">
        <ele>725.9</ele>
        <time>2020-12-20T13:07:03.320Z</time>
      </trkpt>
      <trkpt lat="45.43926" lon="5.54345">
        <ele>725.4</ele>
        <time>2020-12-20T13:07:04.362Z</time>
      </trkpt>
      <trkpt lat="45.43932" lon="5.54375">
        <ele>724.2</ele>
        <time>2020-12-20T13:07:06.683Z</time>
      </trkpt>
      <trkpt lat="45.43933" lon="5.54392">
        <ele>724</ele>
        <time>2020-12-20T13:07:08.543Z</time>
      </trkpt>
      <trkpt lat="45.43935" lon="5.54418">
        <ele>723.4</ele>
        <time>2020-12-20T13:07:10.928Z</time>
      </trkpt>
      <trkpt lat="45.43934" lon="5.54442">
        <ele>722.3</ele>
        <time>2020-12-20T13:07:12.575Z</time>
      </trkpt>
      <trkpt lat="45.43934" lon="5.54459">
        <ele>721.4</ele>
        <time>2020-12-20T13:07:13.831Z</time>
      </trkpt>
      <trkpt lat="45.43935" lon="5.54499">
        <ele>719</ele>
        <time>2020-12-20T13:07:16.790Z</time>
      </trkpt>
      <trkpt lat="45.43935" lon="5.5453">
        <ele>718.2</ele>
        <time>2020-12-20T13:07:19.504Z</time>
      </trkpt>
      <trkpt lat="45.43932" lon="5.54557">
        <ele>718.5</ele>
        <time>2020-12-20T13:07:24.993Z</time>
      </trkpt>
      <trkpt lat="45.4393" lon="5.54579">
        <ele>718.6</ele>
        <time>2020-12-20T13:07:29.048Z</time>
      </trkpt>
      <trkpt lat="45.43931" lon="5.54602">
        <ele>717.4</ele>
        <time>2020-12-20T13:07:30.751Z</time>
      </trkpt>
      <trkpt lat="45.43933" lon="5.54615">
        <ele>716.2</ele>
        <time>2020-12-20T13:07:31.735Z</time>
      </trkpt>
      <trkpt lat="45.43936" lon="5.54634">
        <ele>714.5</ele>
        <time>2020-12-20T13:07:33.175Z</time>
      </trkpt>
      <trkpt lat="45.4394" lon="5.54652">
        <ele>712.6</ele>
        <time>2020-12-20T13:07:34.570Z</time>
      </trkpt>
      <trkpt lat="45.43942" lon="5.54678">
        <ele>710.4</ele>
        <time>2020-12-20T13:07:36.504Z</time>
      </trkpt>
      <trkpt lat="45.43944" lon="5.54701">
        <ele>707.8</ele>
        <time>2020-12-20T13:07:38.217Z</time>
      </trkpt>
      <trkpt lat="45.43945" lon="5.54726">
        <ele>705.3</ele>
        <time>2020-12-20T13:07:40.068Z</time>
      </trkpt>
      <trkpt lat="45.43945" lon="5.54752">
        <ele>703.1</ele>
        <time>2020-12-20T13:07:41.990Z</time>
      </trkpt>
      <trkpt lat="45.43945" lon="5.54777">
        <ele>701.7</ele>
        <time>2020-12-20T13:07:43.838Z</time>
      </trkpt>
      <trkpt lat="45.43939" lon="5.54799">
        <ele>701.9</ele>
        <time>2020-12-20T13:07:48.403Z</time>
      </trkpt>
      <trkpt lat="45.43946" lon="5.5482">
        <ele>699</ele>
        <time>2020-12-20T13:07:50.122Z</time>
      </trkpt>
      <trkpt lat="45.43947" lon="5.54833">
        <ele>698.1</ele>
        <time>2020-12-20T13:07:51.089Z</time>
      </trkpt>
      <trkpt lat="45.4395" lon="5.54848">
        <ele>696.9</ele>
        <time>2020-12-20T13:07:52.242Z</time>
      </trkpt>
      <trkpt lat="45.43954" lon="5.54865">
        <ele>695.4</ele>
        <time>2020-12-20T13:07:53.567Z</time>
      </trkpt>
      <trkpt lat="45.43958" lon="5.54874">
        <ele>694.3</ele>
        <time>2020-12-20T13:07:54.355Z</time>
      </trkpt>
      <trkpt lat="45.43959" lon="5.54878">
        <ele>694</ele>
        <time>2020-12-20T13:07:54.669Z</time>
      </trkpt>
      <trkpt lat="45.43964" lon="5.54885">
        <ele>692.9</ele>
        <time>2020-12-20T13:07:55.407Z</time>
      </trkpt>
      <trkpt lat="45.43974" lon="5.54898">
        <ele>690.7</ele>
        <time>2020-12-20T13:07:56.833Z</time>
      </trkpt>
      <trkpt lat="45.43983" lon="5.54914">
        <ele>688.9</ele>
        <time>2020-12-20T13:07:58.349Z</time>
      </trkpt>
      <trkpt lat="45.43991" lon="5.54927">
        <ele>687.1</ele>
        <time>2020-12-20T13:07:59.627Z</time>
      </trkpt>
      <trkpt lat="45.44006" lon="5.54953">
        <ele>683.5</ele>
        <time>2020-12-20T13:08:02.116Z</time>
      </trkpt>
      <trkpt lat="45.44064" lon="5.54985">
        <ele>671</ele>
        <time>2020-12-20T13:08:08.668Z</time>
      </trkpt>
      <trkpt lat="45.44078" lon="5.54993">
        <ele>668.1</ele>
        <time>2020-12-20T13:08:10.257Z</time>
      </trkpt>
      <trkpt lat="45.44096" lon="5.55008">
        <ele>664.5</ele>
        <time>2020-12-20T13:08:12.454Z</time>
      </trkpt>
      <trkpt lat="45.44113" lon="5.55021">
        <ele>661.2</ele>
        <time>2020-12-20T13:08:14.487Z</time>
      </trkpt>
      <trkpt lat="45.44128" lon="5.55034">
        <ele>658.3</ele>
        <time>2020-12-20T13:08:16.336Z</time>
      </trkpt>
      <trkpt lat="45.44143" lon="5.55048">
        <ele>655.5</ele>
        <time>2020-12-20T13:08:18.225Z</time>
      </trkpt>
      <trkpt lat="45.44161" lon="5.55073">
        <ele>652.1</ele>
        <time>2020-12-20T13:08:20.873Z</time>
      </trkpt>
      <trkpt lat="45.44176" lon="5.55094">
        <ele>649.6</ele>
        <time>2020-12-20T13:08:23.088Z</time>
      </trkpt>
      <trkpt lat="45.44189" lon="5.55116">
        <ele>647.3</ele>
        <time>2020-12-20T13:08:25.214Z</time>
      </trkpt>
      <trkpt lat="45.44199" lon="5.5513">
        <ele>645.6</ele>
        <time>2020-12-20T13:08:26.691Z</time>
      </trkpt>
      <trkpt lat="45.44207" lon="5.55137">
        <ele>644.2</ele>
        <time>2020-12-20T13:08:27.680Z</time>
      </trkpt>
      <trkpt lat="45.44219" lon="5.5512">
        <ele>643.3</ele>
        <time>2020-12-20T13:08:29.499Z</time>
      </trkpt>
      <trkpt lat="45.44243" lon="5.55099">
        <ele>641.1</ele>
        <time>2020-12-20T13:08:32.466Z</time>
      </trkpt>
      <trkpt lat="45.44267" lon="5.5508">
        <ele>640.4</ele>
        <time>2020-12-20T13:08:36.318Z</time>
      </trkpt>
      <trkpt lat="45.4428" lon="5.55072">
        <ele>640.3</ele>
        <time>2020-12-20T13:08:39.450Z</time>
      </trkpt>
      <trkpt lat="45.44295" lon="5.55068">
        <ele>639.9</ele>
        <time>2020-12-20T13:08:41.574Z</time>
      </trkpt>
      <trkpt lat="45.44311" lon="5.55066">
        <ele>639.3</ele>
        <time>2020-12-20T13:08:43.567Z</time>
      </trkpt>
      <trkpt lat="45.44323" lon="5.55057">
        <ele>639.4</ele>
        <time>2020-12-20T13:08:47.132Z</time>
      </trkpt>
      <trkpt lat="45.44328" lon="5.5505">
        <ele>639.6</ele>
        <time>2020-12-20T13:08:49.458Z</time>
      </trkpt>
      <trkpt lat="45.44341" lon="5.55028">
        <ele>640.7</ele>
        <time>2020-12-20T13:08:58.372Z</time>
      </trkpt>
      <trkpt lat="45.44347" lon="5.55016">
        <ele>641.3</ele>
        <time>2020-12-20T13:09:03.050Z</time>
      </trkpt>
      <trkpt lat="45.44358" lon="5.55007">
        <ele>641.4</ele>
        <time>2020-12-20T13:09:06.402Z</time>
      </trkpt>
      <trkpt lat="45.44371" lon="5.55003">
        <ele>641</ele>
        <time>2020-12-20T13:09:08.178Z</time>
      </trkpt>
      <trkpt lat="45.44383" lon="5.55008">
        <ele>640.2</ele>
        <time>2020-12-20T13:09:09.410Z</time>
      </trkpt>
      <trkpt lat="45.44395" lon="5.5501">
        <ele>639.5</ele>
        <time>2020-12-20T13:09:10.658Z</time>
      </trkpt>
      <trkpt lat="45.44405" lon="5.55021">
        <ele>638.5</ele>
        <time>2020-12-20T13:09:11.989Z</time>
      </trkpt>
      <trkpt lat="45.44406" lon="5.55027">
        <ele>638.1</ele>
        <time>2020-12-20T13:09:12.445Z</time>
      </trkpt>
      <trkpt lat="45.44417" lon="5.55046">
        <ele>636.8</ele>
        <time>2020-12-20T13:09:14.266Z</time>
      </trkpt>
      <trkpt lat="45.44427" lon="5.5506">
        <ele>635.8</ele>
        <time>2020-12-20T13:09:15.743Z</time>
      </trkpt>
      <trkpt lat="45.4444" lon="5.55077">
        <ele>634.7</ele>
        <time>2020-12-20T13:09:17.503Z</time>
      </trkpt>
      <trkpt lat="45.44453" lon="5.55098">
        <ele>633.4</ele>
        <time>2020-12-20T13:09:19.407Z</time>
      </trkpt>
      <trkpt lat="45.44463" lon="5.55124">
        <ele>632</ele>
        <time>2020-12-20T13:09:21.599Z</time>
      </trkpt>
      <trkpt lat="45.44473" lon="5.5515">
        <ele>630.7</ele>
        <time>2020-12-20T13:09:23.672Z</time>
      </trkpt>
      <trkpt lat="45.44484" lon="5.55174">
        <ele>629.5</ele>
        <time>2020-12-20T13:09:25.722Z</time>
      </trkpt>
      <trkpt lat="45.44497" lon="5.55194">
        <ele>628</ele>
        <time>2020-12-20T13:09:27.737Z</time>
      </trkpt>
      <trkpt lat="45.44507" lon="5.55204">
        <ele>626.8</ele>
        <time>2020-12-20T13:09:29.024Z</time>
      </trkpt>
      <trkpt lat="45.44521" lon="5.55213">
        <ele>625.3</ele>
        <time>2020-12-20T13:09:30.642Z</time>
      </trkpt>
      <trkpt lat="45.44533" lon="5.55215">
        <ele>624.4</ele>
        <time>2020-12-20T13:09:31.915Z</time>
      </trkpt>
      <trkpt lat="45.44545" lon="5.55213">
        <ele>623.8</ele>
        <time>2020-12-20T13:09:33.254Z</time>
      </trkpt>
      <trkpt lat="45.4457" lon="5.552">
        <ele>622.7</ele>
        <time>2020-12-20T13:09:36.432Z</time>
      </trkpt>
      <trkpt lat="45.44585" lon="5.55185">
        <ele>622.1</ele>
        <time>2020-12-20T13:09:38.813Z</time>
      </trkpt>
      <trkpt lat="45.44615" lon="5.55146">
        <ele>619.5</ele>
        <time>2020-12-20T13:09:42.812Z</time>
      </trkpt>
      <trkpt lat="45.44603" lon="5.55163">
        <ele>620.5</ele>
        <time>2020-12-20T13:09:50.524Z</time>
      </trkpt>
      <trkpt lat="45.446" lon="5.55167">
        <ele>620.8</ele>
        <time>2020-12-20T13:09:52.598Z</time>
      </trkpt>
      <trkpt lat="45.44622" lon="5.55141">
        <ele>618.8</ele>
        <time>2020-12-20T13:09:55.609Z</time>
      </trkpt>
      <trkpt lat="45.4463" lon="5.55138">
        <ele>617.9</ele>
        <time>2020-12-20T13:09:56.481Z</time>
      </trkpt>
      <trkpt lat="45.44637" lon="5.55138">
        <ele>617</ele>
        <time>2020-12-20T13:09:57.218Z</time>
      </trkpt>
      <trkpt lat="45.44648" lon="5.55139">
        <ele>615.6</ele>
        <time>2020-12-20T13:09:58.379Z</time>
      </trkpt>
      <trkpt lat="45.44656" lon="5.5514">
        <ele>614.6</ele>
        <time>2020-12-20T13:09:59.226Z</time>
      </trkpt>
      <trkpt lat="45.44666" lon="5.55139">
        <ele>613.4</ele>
        <time>2020-12-20T13:10:00.282Z</time>
      </trkpt>
      <trkpt lat="45.44673" lon="5.55136">
        <ele>612.7</ele>
        <time>2020-12-20T13:10:01.052Z</time>
      </trkpt>
      <trkpt lat="45.44685" lon="5.55124">
        <ele>611.8</ele>
        <time>2020-12-20T13:10:02.525Z</time>
      </trkpt>
      <trkpt lat="45.44697" lon="5.55112">
        <ele>610.9</ele>
        <time>2020-12-20T13:10:03.999Z</time>
      </trkpt>
      <trkpt lat="45.4471" lon="5.55104">
        <ele>609.5</ele>
        <time>2020-12-20T13:10:05.491Z</time>
      </trkpt>
      <trkpt lat="45.44731" lon="5.55094">
        <ele>607.2</ele>
        <time>2020-12-20T13:10:07.824Z</time>
      </trkpt>
      <trkpt lat="45.44738" lon="5.55089">
        <ele>606.4</ele>
        <time>2020-12-20T13:10:08.648Z</time>
      </trkpt>
      <trkpt lat="45.44748" lon="5.55074">
        <ele>605.1</ele>
        <time>2020-12-20T13:10:10.178Z</time>
      </trkpt>
      <trkpt lat="45.4476" lon="5.55054">
        <ele>603.5</ele>
        <time>2020-12-20T13:10:12.123Z</time>
      </trkpt>
      <trkpt lat="45.44778" lon="5.55033">
        <ele>601.6</ele>
        <time>2020-12-20T13:10:14.574Z</time>
      </trkpt>
      <trkpt lat="45.44791" lon="5.55021">
        <ele>600.4</ele>
        <time>2020-12-20T13:10:16.205Z</time>
      </trkpt>
      <trkpt lat="45.44799" lon="5.55013">
        <ele>599.7</ele>
        <time>2020-12-20T13:10:17.235Z</time>
      </trkpt>
      <trkpt lat="45.44812" lon="5.55004">
        <ele>598.6</ele>
        <time>2020-12-20T13:10:18.758Z</time>
      </trkpt>
      <trkpt lat="45.4482" lon="5.55002">
        <ele>598</ele>
        <time>2020-12-20T13:10:19.613Z</time>
      </trkpt>
      <trkpt lat="45.44834" lon="5.55">
        <ele>597</ele>
        <time>2020-12-20T13:10:21.096Z</time>
      </trkpt>
      <trkpt lat="45.44852" lon="5.55004">
        <ele>596.8</ele>
        <time>2020-12-20T13:10:24.138Z</time>
      </trkpt>
      <trkpt lat="45.44853" lon="5.55005">
        <ele>596.8</ele>
        <time>2020-12-20T13:10:24.438Z</time>
      </trkpt>
      <trkpt lat="45.44885" lon="5.55015">
        <ele>596.7</ele>
        <time>2020-12-20T13:10:32.110Z</time>
      </trkpt>
      <trkpt lat="45.44906" lon="5.5502">
        <ele>596.6</ele>
        <time>2020-12-20T13:10:36.979Z</time>
      </trkpt>
      <trkpt lat="45.44913" lon="5.5502">
        <ele>596.5</ele>
        <time>2020-12-20T13:10:38.100Z</time>
      </trkpt>
      <trkpt lat="45.44916" lon="5.55027">
        <ele>596.7</ele>
        <time>2020-12-20T13:10:40.169Z</time>
      </trkpt>
      <trkpt lat="45.44915" lon="5.55041">
        <ele>597</ele>
        <time>2020-12-20T13:10:43.523Z</time>
      </trkpt>
      <trkpt lat="45.44914" lon="5.55048">
        <ele>597.2</ele>
        <time>2020-12-20T13:10:45.459Z</time>
      </trkpt>
      <trkpt lat="45.4491" lon="5.55076">
        <ele>597.8</ele>
        <time>2020-12-20T13:10:52.230Z</time>
      </trkpt>
      <trkpt lat="45.44903" lon="5.55118">
        <ele>599.4</ele>
        <time>2020-12-20T13:11:05.457Z</time>
      </trkpt>
      <trkpt lat="45.44895" lon="5.55149">
        <ele>600.3</ele>
        <time>2020-12-20T13:11:14.275Z</time>
      </trkpt>
      <trkpt lat="45.44886" lon="5.55176">
        <ele>600.6</ele>
        <time>2020-12-20T13:11:20.192Z</time>
      </trkpt>
      <trkpt lat="45.44881" lon="5.55196">
        <ele>600.4</ele>
        <time>2020-12-20T13:11:22.602Z</time>
      </trkpt>
      <trkpt lat="45.44882" lon="5.5521">
        <ele>600.5</ele>
        <time>2020-12-20T13:11:25.270Z</time>
      </trkpt>
      <trkpt lat="45.44885" lon="5.55218">
        <ele>600.8</ele>
        <time>2020-12-20T13:11:27.948Z</time>
      </trkpt>
      <trkpt lat="45.44897" lon="5.55237">
        <ele>601.9</ele>
        <time>2020-12-20T13:11:36.252Z</time>
      </trkpt>
      <trkpt lat="45.44911" lon="5.5526">
        <ele>604</ele>
        <time>2020-12-20T13:11:49.650Z</time>
      </trkpt>
      <trkpt lat="45.44918" lon="5.5528">
        <ele>606.1</ele>
        <time>2020-12-20T13:12:04.477Z</time>
      </trkpt>
      <trkpt lat="45.4492" lon="5.55298">
        <ele>607.5</ele>
        <time>2020-12-20T13:12:13.459Z</time>
      </trkpt>
      <trkpt lat="45.44921" lon="5.55315">
        <ele>608.7</ele>
        <time>2020-12-20T13:12:21.109Z</time>
      </trkpt>
      <trkpt lat="45.4492" lon="5.55338">
        <ele>609.4</ele>
        <time>2020-12-20T13:12:27.677Z</time>
      </trkpt>
      <trkpt lat="45.4492" lon="5.55345">
        <ele>609.1</ele>
        <time>2020-12-20T13:12:28.172Z</time>
      </trkpt>
      <trkpt lat="45.44927" lon="5.55366">
        <ele>609.5</ele>
        <time>2020-12-20T13:12:33.329Z</time>
      </trkpt>
      <trkpt lat="45.44927" lon="5.55385">
        <ele>608.7</ele>
        <time>2020-12-20T13:12:34.684Z</time>
      </trkpt>
      <trkpt lat="45.44921" lon="5.5541">
        <ele>606.9</ele>
        <time>2020-12-20T13:12:36.637Z</time>
      </trkpt>
      <trkpt lat="45.44912" lon="5.55438">
        <ele>603.8</ele>
        <time>2020-12-20T13:12:38.913Z</time>
      </trkpt>
      <trkpt lat="45.44911" lon="5.55458">
        <ele>602.1</ele>
        <time>2020-12-20T13:12:40.395Z</time>
      </trkpt>
      <trkpt lat="45.44914" lon="5.55475">
        <ele>600.9</ele>
        <time>2020-12-20T13:12:41.691Z</time>
      </trkpt>
      <trkpt lat="45.44921" lon="5.55493">
        <ele>600.4</ele>
        <time>2020-12-20T13:12:43.531Z</time>
      </trkpt>
      <trkpt lat="45.44938" lon="5.55523">
        <ele>600.7</ele>
        <time>2020-12-20T13:12:50.914Z</time>
      </trkpt>
      <trkpt lat="45.44941" lon="5.55536">
        <ele>600.1</ele>
        <time>2020-12-20T13:12:51.871Z</time>
      </trkpt>
      <trkpt lat="45.44941" lon="5.5555">
        <ele>598.9</ele>
        <time>2020-12-20T13:12:52.905Z</time>
      </trkpt>
      <trkpt lat="45.44936" lon="5.55577">
        <ele>595.2</ele>
        <time>2020-12-20T13:12:54.969Z</time>
      </trkpt>
      <trkpt lat="45.44932" lon="5.55601">
        <ele>591.9</ele>
        <time>2020-12-20T13:12:56.793Z</time>
      </trkpt>
      <trkpt lat="45.44928" lon="5.55632">
        <ele>587.9</ele>
        <time>2020-12-20T13:12:59.122Z</time>
      </trkpt>
      <trkpt lat="45.44928" lon="5.5564">
        <ele>587.1</ele>
        <time>2020-12-20T13:12:59.713Z</time>
      </trkpt>
      <trkpt lat="45.44937" lon="5.5566">
        <ele>587.1</ele>
        <time>2020-12-20T13:13:03.800Z</time>
      </trkpt>
      <trkpt lat="45.44946" lon="5.5568">
        <ele>587.4</ele>
        <time>2020-12-20T13:13:08.693Z</time>
      </trkpt>
      <trkpt lat="45.44956" lon="5.55701">
        <ele>587.9</ele>
        <time>2020-12-20T13:13:14.570Z</time>
      </trkpt>
      <trkpt lat="45.4497" lon="5.55723">
        <ele>588.7</ele>
        <time>2020-12-20T13:13:22.449Z</time>
      </trkpt>
      <trkpt lat="45.44992" lon="5.55759">
        <ele>588.7</ele>
        <time>2020-12-20T13:13:30.660Z</time>
      </trkpt>
      <trkpt lat="45.45005" lon="5.55782">
        <ele>588.3</ele>
        <time>2020-12-20T13:13:33.780Z</time>
      </trkpt>
      <trkpt lat="45.45014" lon="5.55799">
        <ele>588.2</ele>
        <time>2020-12-20T13:13:37.102Z</time>
      </trkpt>
      <trkpt lat="45.45021" lon="5.55807">
        <ele>588.6</ele>
        <time>2020-12-20T13:13:40.816Z</time>
      </trkpt>
      <trkpt lat="45.45037" lon="5.55816">
        <ele>590.6</ele>
        <time>2020-12-20T13:13:53.849Z</time>
      </trkpt>
      <trkpt lat="45.45051" lon="5.55823">
        <ele>592.4</ele>
        <time>2020-12-20T13:14:05.788Z</time>
      </trkpt>
      <trkpt lat="45.45066" lon="5.55834">
        <ele>593.6</ele>
        <time>2020-12-20T13:14:14.182Z</time>
      </trkpt>
      <trkpt lat="45.45086" lon="5.55858">
        <ele>596.4</ele>
        <time>2020-12-20T13:14:32.088Z</time>
      </trkpt>
      <trkpt lat="45.4511" lon="5.55891">
        <ele>599.6</ele>
        <time>2020-12-20T13:14:52.542Z</time>
      </trkpt>
      <trkpt lat="45.45123" lon="5.55918">
        <ele>600.2</ele>
        <time>2020-12-20T13:14:59.945Z</time>
      </trkpt>
      <trkpt lat="45.45138" lon="5.55935">
        <ele>604.1</ele>
        <time>2020-12-20T13:15:18.065Z</time>
      </trkpt>
      <trkpt lat="45.45146" lon="5.55942">
        <ele>605.9</ele>
        <time>2020-12-20T13:15:26.942Z</time>
      </trkpt>
      <trkpt lat="45.45155" lon="5.55946">
        <ele>607.6</ele>
        <time>2020-12-20T13:15:35.856Z</time>
      </trkpt>
      <trkpt lat="45.45163" lon="5.55947">
        <ele>608.9</ele>
        <time>2020-12-20T13:15:43.450Z</time>
      </trkpt>
      <trkpt lat="45.45175" lon="5.55947">
        <ele>610.9</ele>
        <time>2020-12-20T13:15:54.797Z</time>
      </trkpt>
      <trkpt lat="45.45198" lon="5.55942">
        <ele>614.8</ele>
        <time>2020-12-20T13:16:16.797Z</time>
      </trkpt>
      <trkpt lat="45.4523" lon="5.55939">
        <ele>620.4</ele>
        <time>2020-12-20T13:16:47.121Z</time>
      </trkpt>
      <trkpt lat="45.4524" lon="5.55947">
        <ele>622.3</ele>
        <time>2020-12-20T13:16:57.964Z</time>
      </trkpt>
      <trkpt lat="45.45253" lon="5.5596">
        <ele>624.6</ele>
        <time>2020-12-20T13:17:12.980Z</time>
      </trkpt>
      <trkpt lat="45.45258" lon="5.55971">
        <ele>625.5</ele>
        <time>2020-12-20T13:17:18.723Z</time>
      </trkpt>
      <trkpt lat="45.45263" lon="5.55987">
        <ele>626.4</ele>
        <time>2020-12-20T13:17:24.937Z</time>
      </trkpt>
      <trkpt lat="45.45265" lon="5.56004">
        <ele>627</ele>
        <time>2020-12-20T13:17:30.108Z</time>
      </trkpt>
      <trkpt lat="45.45263" lon="5.56047">
        <ele>629.6</ele>
        <time>2020-12-20T13:17:47.067Z</time>
      </trkpt>
      <trkpt lat="45.45261" lon="5.5607">
        <ele>631</ele>
        <time>2020-12-20T13:17:56.197Z</time>
      </trkpt>
      <trkpt lat="45.4526" lon="5.56105">
        <ele>631.9</ele>
        <time>2020-12-20T13:18:05.262Z</time>
      </trkpt>
      <trkpt lat="45.45264" lon="5.56133">
        <ele>632.4</ele>
        <time>2020-12-20T13:18:11.631Z</time>
      </trkpt>
      <trkpt lat="45.45268" lon="5.5614">
        <ele>632.8</ele>
        <time>2020-12-20T13:18:14.603Z</time>
      </trkpt>
      <trkpt lat="45.45275" lon="5.56145">
        <ele>633.5</ele>
        <time>2020-12-20T13:18:19.127Z</time>
      </trkpt>
      <trkpt lat="45.45283" lon="5.56151">
        <ele>634.4</ele>
        <time>2020-12-20T13:18:24.865Z</time>
      </trkpt>
      <trkpt lat="45.45292" lon="5.5616">
        <ele>635.5</ele>
        <time>2020-12-20T13:18:31.878Z</time>
      </trkpt>
      <trkpt lat="45.45298" lon="5.5617">
        <ele>635.9</ele>
        <time>2020-12-20T13:18:35.630Z</time>
      </trkpt>
      <trkpt lat="45.45311" lon="5.56195">
        <ele>635.4</ele>
        <time>2020-12-20T13:18:38.783Z</time>
      </trkpt>
      <trkpt lat="45.4532" lon="5.56203">
        <ele>636</ele>
        <time>2020-12-20T13:18:43.534Z</time>
      </trkpt>
      <trkpt lat="45.45328" lon="5.56207">
        <ele>636.8</ele>
        <time>2020-12-20T13:18:48.658Z</time>
      </trkpt>
      <trkpt lat="45.45343" lon="5.5621">
        <ele>639.2</ele>
        <time>2020-12-20T13:19:02.980Z</time>
      </trkpt>
      <trkpt lat="45.45356" lon="5.56212">
        <ele>641.5</ele>
        <time>2020-12-20T13:19:15.344Z</time>
      </trkpt>
      <trkpt lat="45.4538" lon="5.56211">
        <ele>646</ele>
        <time>2020-12-20T13:19:38.048Z</time>
      </trkpt>
      <trkpt lat="45.45395" lon="5.56209">
        <ele>648.9</ele>
        <time>2020-12-20T13:19:52.294Z</time>
      </trkpt>
      <trkpt lat="45.45413" lon="5.56208">
        <ele>652.3</ele>
        <time>2020-12-20T13:20:09.328Z</time>
      </trkpt>
      <trkpt lat="45.4542" lon="5.56215">
        <ele>653.1</ele>
        <time>2020-12-20T13:20:14.457Z</time>
      </trkpt>
      <trkpt lat="45.45425" lon="5.56226">
        <ele>653</ele>
        <time>2020-12-20T13:20:15.995Z</time>
      </trkpt>
      <trkpt lat="45.4543" lon="5.56237">
        <ele>653</ele>
        <time>2020-12-20T13:20:18.249Z</time>
      </trkpt>
      <trkpt lat="45.4544" lon="5.56255">
        <ele>653.1</ele>
        <time>2020-12-20T13:20:22.436Z</time>
      </trkpt>
      <trkpt lat="45.45451" lon="5.56262">
        <ele>654.3</ele>
        <time>2020-12-20T13:20:30.087Z</time>
      </trkpt>
      <trkpt lat="45.45461" lon="5.56269">
        <ele>655.4</ele>
        <time>2020-12-20T13:20:37.103Z</time>
      </trkpt>
      <trkpt lat="45.45472" lon="5.56272">
        <ele>657.3</ele>
        <time>2020-12-20T13:20:47.693Z</time>
      </trkpt>
      <trkpt lat="45.45484" lon="5.56275">
        <ele>659.4</ele>
        <time>2020-12-20T13:20:59.213Z</time>
      </trkpt>
      <trkpt lat="45.45493" lon="5.56275">
        <ele>661.2</ele>
        <time>2020-12-20T13:21:07.723Z</time>
      </trkpt>
      <trkpt lat="45.45503" lon="5.56279">
        <ele>662.5</ele>
        <time>2020-12-20T13:21:16.496Z</time>
      </trkpt>
      <trkpt lat="45.45511" lon="5.56293">
        <ele>661.8</ele>
        <time>2020-12-20T13:21:17.834Z</time>
      </trkpt>
      <trkpt lat="45.45515" lon="5.56305">
        <ele>661</ele>
        <time>2020-12-20T13:21:18.816Z</time>
      </trkpt>
      <trkpt lat="45.45525" lon="5.56318">
        <ele>661.1</ele>
        <time>2020-12-20T13:21:22.375Z</time>
      </trkpt>
      <trkpt lat="45.45535" lon="5.56324">
        <ele>662.2</ele>
        <time>2020-12-20T13:21:29.387Z</time>
      </trkpt>
      <trkpt lat="45.45554" lon="5.56336">
        <ele>664.2</ele>
        <time>2020-12-20T13:21:42.167Z</time>
      </trkpt>
      <trkpt lat="45.45564" lon="5.56344">
        <ele>664.4</ele>
        <time>2020-12-20T13:21:45.512Z</time>
      </trkpt>
      <trkpt lat="45.45574" lon="5.56351">
        <ele>664.9</ele>
        <time>2020-12-20T13:21:50.133Z</time>
      </trkpt>
      <trkpt lat="45.45587" lon="5.56359">
        <ele>665</ele>
        <time>2020-12-20T13:21:53.844Z</time>
      </trkpt>
      <trkpt lat="45.456" lon="5.56367">
        <ele>663.1</ele>
        <time>2020-12-20T13:21:55.336Z</time>
      </trkpt>
      <trkpt lat="45.45613" lon="5.56375">
        <ele>661.3</ele>
        <time>2020-12-20T13:21:56.828Z</time>
      </trkpt>
      <trkpt lat="45.45629" lon="5.56374">
        <ele>661.1</ele>
        <time>2020-12-20T13:21:59.451Z</time>
      </trkpt>
      <trkpt lat="45.45634" lon="5.56381">
        <ele>659.8</ele>
        <time>2020-12-20T13:22:00.189Z</time>
      </trkpt>
      <trkpt lat="45.45655" lon="5.56389">
        <ele>658.2</ele>
        <time>2020-12-20T13:22:02.479Z</time>
      </trkpt>
      <trkpt lat="45.45673" lon="5.56395">
        <ele>657</ele>
        <time>2020-12-20T13:22:04.287Z</time>
      </trkpt>
      <trkpt lat="45.45684" lon="5.56398">
        <ele>656.4</ele>
        <time>2020-12-20T13:22:05.487Z</time>
      </trkpt>
      <trkpt lat="45.45699" lon="5.56403">
        <ele>655.5</ele>
        <time>2020-12-20T13:22:07.073Z</time>
      </trkpt>
      <trkpt lat="45.4573" lon="5.56418">
        <ele>653.8</ele>
        <time>2020-12-20T13:22:10.630Z</time>
      </trkpt>
      <trkpt lat="45.45735" lon="5.5642">
        <ele>653.4</ele>
        <time>2020-12-20T13:22:11.177Z</time>
      </trkpt>
      <trkpt lat="45.45744" lon="5.56418">
        <ele>653.8</ele>
        <time>2020-12-20T13:22:14.913Z</time>
      </trkpt>
      <trkpt lat="45.45764" lon="5.56409">
        <ele>654.9</ele>
        <time>2020-12-20T13:22:24.050Z</time>
      </trkpt>
      <trkpt lat="45.45773" lon="5.56403">
        <ele>655.5</ele>
        <time>2020-12-20T13:22:28.620Z</time>
      </trkpt>
      <trkpt lat="45.45777" lon="5.56399">
        <ele>655.8</ele>
        <time>2020-12-20T13:22:30.883Z</time>
      </trkpt>
      <trkpt lat="45.4578" lon="5.56392">
        <ele>656.2</ele>
        <time>2020-12-20T13:22:33.711Z</time>
      </trkpt>
      <trkpt lat="45.45789" lon="5.56371">
        <ele>657.4</ele>
        <time>2020-12-20T13:22:42.196Z</time>
      </trkpt>
      <trkpt lat="45.45798" lon="5.56366">
        <ele>657.7</ele>
        <time>2020-12-20T13:22:45.506Z</time>
      </trkpt>
      <trkpt lat="45.45811" lon="5.56365">
        <ele>657.9</ele>
        <time>2020-12-20T13:22:49.220Z</time>
      </trkpt>
      <trkpt lat="45.45851" lon="5.5636">
        <ele>659</ele>
        <time>2020-12-20T13:23:02.361Z</time>
      </trkpt>
      <trkpt lat="45.45883" lon="5.56359">
        <ele>660.1</ele>
        <time>2020-12-20T13:23:13.813Z</time>
      </trkpt>
      <trkpt lat="45.45894" lon="5.56355">
        <ele>660.5</ele>
        <time>2020-12-20T13:23:17.922Z</time>
      </trkpt>
      <trkpt lat="45.45924" lon="5.56335">
        <ele>660.5</ele>
        <time>2020-12-20T13:23:26.041Z</time>
      </trkpt>
      <trkpt lat="45.45934" lon="5.5637">
        <ele>660.6</ele>
        <time>2020-12-20T13:23:32.772Z</time>
      </trkpt>
      <trkpt lat="45.45955" lon="5.56426">
        <ele>661.7</ele>
        <time>2020-12-20T13:23:46.884Z</time>
      </trkpt>
      <trkpt lat="45.45972" lon="5.56467">
        <ele>663.1</ele>
        <time>2020-12-20T13:24:00.176Z</time>
      </trkpt>
      <trkpt lat="45.45981" lon="5.56497">
        <ele>664.7</ele>
        <time>2020-12-20T13:24:11.458Z</time>
      </trkpt>
      <trkpt lat="45.45983" lon="5.56515">
        <ele>665.4</ele>
        <time>2020-12-20T13:24:17.114Z</time>
      </trkpt>
      <trkpt lat="45.46009" lon="5.56518">
        <ele>665.9</ele>
        <time>2020-12-20T13:24:24.871Z</time>
      </trkpt>
      <trkpt lat="45.46022" lon="5.56522">
        <ele>665</ele>
        <time>2020-12-20T13:24:26.272Z</time>
      </trkpt>
      <trkpt lat="45.46043" lon="5.5653">
        <ele>663.7</ele>
        <time>2020-12-20T13:24:28.485Z</time>
      </trkpt>
      <trkpt lat="45.46066" lon="5.56543">
        <ele>662.8</ele>
        <time>2020-12-20T13:24:31.585Z</time>
      </trkpt>
      <trkpt lat="45.46097" lon="5.56565">
        <ele>661.3</ele>
        <time>2020-12-20T13:24:35.646Z</time>
      </trkpt>
      <trkpt lat="45.46124" lon="5.56591">
        <ele>659.3</ele>
        <time>2020-12-20T13:24:38.921Z</time>
      </trkpt>
      <trkpt lat="45.4615" lon="5.56611">
        <ele>656.9</ele>
        <time>2020-12-20T13:24:42.034Z</time>
      </trkpt>
      <trkpt lat="45.46183" lon="5.56629">
        <ele>652.5</ele>
        <time>2020-12-20T13:24:45.756Z</time>
      </trkpt>
      <trkpt lat="45.46197" lon="5.56635">
        <ele>650.2</ele>
        <time>2020-12-20T13:24:47.296Z</time>
      </trkpt>
      <trkpt lat="45.46212" lon="5.56644">
        <ele>648.1</ele>
        <time>2020-12-20T13:24:49.011Z</time>
      </trkpt>
      <trkpt lat="45.46237" lon="5.56661">
        <ele>644.9</ele>
        <time>2020-12-20T13:24:51.929Z</time>
      </trkpt>
      <trkpt lat="45.46263" lon="5.56675">
        <ele>642.7</ele>
        <time>2020-12-20T13:24:54.857Z</time>
      </trkpt>
      <trkpt lat="45.46277" lon="5.56685">
        <ele>642.4</ele>
        <time>2020-12-20T13:24:57.219Z</time>
      </trkpt>
      <trkpt lat="45.46294" lon="5.56703">
        <ele>642.6</ele>
        <time>2020-12-20T13:25:02.902Z</time>
      </trkpt>
      <trkpt lat="45.46313" lon="5.56725">
        <ele>642.5</ele>
        <time>2020-12-20T13:25:08.549Z</time>
      </trkpt>
      <trkpt lat="45.4633" lon="5.56739">
        <ele>641.4</ele>
        <time>2020-12-20T13:25:10.610Z</time>
      </trkpt>
      <trkpt lat="45.46345" lon="5.56753">
        <ele>640.6</ele>
        <time>2020-12-20T13:25:12.687Z</time>
      </trkpt>
      <trkpt lat="45.46369" lon="5.56784">
        <ele>640.1</ele>
        <time>2020-12-20T13:25:17.796Z</time>
      </trkpt>
      <trkpt lat="45.46385" lon="5.56803">
        <ele>639.6</ele>
        <time>2020-12-20T13:25:20.766Z</time>
      </trkpt>
      <trkpt lat="45.46398" lon="5.56811">
        <ele>638.5</ele>
        <time>2020-12-20T13:25:22.258Z</time>
      </trkpt>
      <trkpt lat="45.46414" lon="5.56812">
        <ele>636.3</ele>
        <time>2020-12-20T13:25:23.945Z</time>
      </trkpt>
      <trkpt lat="45.46431" lon="5.56805">
        <ele>633.1</ele>
        <time>2020-12-20T13:25:25.810Z</time>
      </trkpt>
      <trkpt lat="45.46445" lon="5.56797">
        <ele>630.3</ele>
        <time>2020-12-20T13:25:27.399Z</time>
      </trkpt>
      <trkpt lat="45.46462" lon="5.56783">
        <ele>627</ele>
        <time>2020-12-20T13:25:29.467Z</time>
      </trkpt>
      <trkpt lat="45.4648" lon="5.56765">
        <ele>623.8</ele>
        <time>2020-12-20T13:25:31.783Z</time>
      </trkpt>
      <trkpt lat="45.46497" lon="5.56753">
        <ele>621.4</ele>
        <time>2020-12-20T13:25:33.782Z</time>
      </trkpt>
      <trkpt lat="45.46518" lon="5.56745">
        <ele>618.8</ele>
        <time>2020-12-20T13:25:36.072Z</time>
      </trkpt>
      <trkpt lat="45.4653" lon="5.56742">
        <ele>617.2</ele>
        <time>2020-12-20T13:25:37.355Z</time>
      </trkpt>
      <trkpt lat="45.46536" lon="5.56743">
        <ele>616.6</ele>
        <time>2020-12-20T13:25:37.992Z</time>
      </trkpt>
      <trkpt lat="45.46543" lon="5.56745">
        <ele>616</ele>
        <time>2020-12-20T13:25:38.744Z</time>
      </trkpt>
      <trkpt lat="45.46552" lon="5.56752">
        <ele>615.4</ele>
        <time>2020-12-20T13:25:39.798Z</time>
      </trkpt>
      <trkpt lat="45.46567" lon="5.5677">
        <ele>614.2</ele>
        <time>2020-12-20T13:25:41.772Z</time>
      </trkpt>
      <trkpt lat="45.46586" lon="5.56789">
        <ele>612.4</ele>
        <time>2020-12-20T13:25:44.217Z</time>
      </trkpt>
      <trkpt lat="45.46606" lon="5.56803">
        <ele>609</ele>
        <time>2020-12-20T13:25:46.565Z</time>
      </trkpt>
      <trkpt lat="45.46623" lon="5.56808">
        <ele>606.2</ele>
        <time>2020-12-20T13:25:48.393Z</time>
      </trkpt>
      <trkpt lat="45.46637" lon="5.56812">
        <ele>604</ele>
        <time>2020-12-20T13:25:49.898Z</time>
      </trkpt>
      <trkpt lat="45.4665" lon="5.56815">
        <ele>601.9</ele>
        <time>2020-12-20T13:25:51.285Z</time>
      </trkpt>
      <trkpt lat="45.46668" lon="5.56829">
        <ele>600.3</ele>
        <time>2020-12-20T13:25:53.445Z</time>
      </trkpt>
      <trkpt lat="45.46677" lon="5.56839">
        <ele>599.3</ele>
        <time>2020-12-20T13:25:54.647Z</time>
      </trkpt>
      <trkpt lat="45.46687" lon="5.56858">
        <ele>598.2</ele>
        <time>2020-12-20T13:25:56.263Z</time>
      </trkpt>
      <trkpt lat="45.46698" lon="5.56883">
        <ele>597.4</ele>
        <time>2020-12-20T13:25:58.799Z</time>
      </trkpt>
      <trkpt lat="45.46703" lon="5.56896">
        <ele>597.3</ele>
        <time>2020-12-20T13:26:00.568Z</time>
      </trkpt>
      <trkpt lat="45.46714" lon="5.56922">
        <ele>597.1</ele>
        <time>2020-12-20T13:26:04.200Z</time>
      </trkpt>
      <trkpt lat="45.46728" lon="5.56944">
        <ele>596.5</ele>
        <time>2020-12-20T13:26:07.020Z</time>
      </trkpt>
      <trkpt lat="45.46739" lon="5.56955">
        <ele>595.8</ele>
        <time>2020-12-20T13:26:08.478Z</time>
      </trkpt>
      <trkpt lat="45.46745" lon="5.56959">
        <ele>595.2</ele>
        <time>2020-12-20T13:26:09.175Z</time>
      </trkpt>
      <trkpt lat="45.46754" lon="5.56965">
        <ele>594.3</ele>
        <time>2020-12-20T13:26:10.222Z</time>
      </trkpt>
      <trkpt lat="45.46766" lon="5.56975">
        <ele>593.1</ele>
        <time>2020-12-20T13:26:11.686Z</time>
      </trkpt>
      <trkpt lat="45.46772" lon="5.56972">
        <ele>592</ele>
        <time>2020-12-20T13:26:12.356Z</time>
      </trkpt>
      <trkpt lat="45.4678" lon="5.56961">
        <ele>590.1</ele>
        <time>2020-12-20T13:26:13.527Z</time>
      </trkpt>
      <trkpt lat="45.46795" lon="5.56946">
        <ele>587.1</ele>
        <time>2020-12-20T13:26:15.457Z</time>
      </trkpt>
      <trkpt lat="45.46805" lon="5.5694">
        <ele>585.3</ele>
        <time>2020-12-20T13:26:16.600Z</time>
      </trkpt>
      <trkpt lat="45.46821" lon="5.56933">
        <ele>582.6</ele>
        <time>2020-12-20T13:26:18.364Z</time>
      </trkpt>
      <trkpt lat="45.46827" lon="5.5693">
        <ele>581.6</ele>
        <time>2020-12-20T13:26:19.033Z</time>
      </trkpt>
      <trkpt lat="45.46832" lon="5.56931">
        <ele>580.9</ele>
        <time>2020-12-20T13:26:19.565Z</time>
      </trkpt>
      <trkpt lat="45.46841" lon="5.56934">
        <ele>579.8</ele>
        <time>2020-12-20T13:26:20.539Z</time>
      </trkpt>
      <trkpt lat="45.46853" lon="5.56936">
        <ele>578.2</ele>
        <time>2020-12-20T13:26:21.812Z</time>
      </trkpt>
      <trkpt lat="45.46865" lon="5.56939">
        <ele>576.7</ele>
        <time>2020-12-20T13:26:23.096Z</time>
      </trkpt>
      <trkpt lat="45.46878" lon="5.5694">
        <ele>574.9</ele>
        <time>2020-12-20T13:26:24.467Z</time>
      </trkpt>
      <trkpt lat="45.46894" lon="5.56942">
        <ele>572.8</ele>
        <time>2020-12-20T13:26:26.159Z</time>
      </trkpt>
      <trkpt lat="45.46914" lon="5.56942">
        <ele>570</ele>
        <time>2020-12-20T13:26:28.266Z</time>
      </trkpt>
      <trkpt lat="45.46931" lon="5.56941">
        <ele>567.5</ele>
        <time>2020-12-20T13:26:30.059Z</time>
      </trkpt>
      <trkpt lat="45.46958" lon="5.56938">
        <ele>563.6</ele>
        <time>2020-12-20T13:26:32.912Z</time>
      </trkpt>
      <trkpt lat="45.46983" lon="5.56936">
        <ele>559.9</ele>
        <time>2020-12-20T13:26:35.550Z</time>
      </trkpt>
      <trkpt lat="45.46993" lon="5.56938">
        <ele>558.5</ele>
        <time>2020-12-20T13:26:36.614Z</time>
      </trkpt>
      <trkpt lat="45.4701" lon="5.56947">
        <ele>555.8</ele>
        <time>2020-12-20T13:26:38.524Z</time>
      </trkpt>
      <trkpt lat="45.47031" lon="5.56961">
        <ele>552.4</ele>
        <time>2020-12-20T13:26:40.967Z</time>
      </trkpt>
      <trkpt lat="45.47057" lon="5.56992">
        <ele>549.6</ele>
        <time>2020-12-20T13:26:44.537Z</time>
      </trkpt>
      <trkpt lat="45.47064" lon="5.56993">
        <ele>548.5</ele>
        <time>2020-12-20T13:26:45.279Z</time>
      </trkpt>
      <trkpt lat="45.4707" lon="5.56993">
        <ele>547.6</ele>
        <time>2020-12-20T13:26:45.911Z</time>
      </trkpt>
      <trkpt lat="45.4708" lon="5.56992">
        <ele>545.9</ele>
        <time>2020-12-20T13:26:46.967Z</time>
      </trkpt>
      <trkpt lat="45.47088" lon="5.56996">
        <ele>544.8</ele>
        <time>2020-12-20T13:26:47.860Z</time>
      </trkpt>
      <trkpt lat="45.47108" lon="5.57004">
        <ele>541.4</ele>
        <time>2020-12-20T13:26:50.048Z</time>
      </trkpt>
      <trkpt lat="45.47135" lon="5.57016">
        <ele>536.6</ele>
        <time>2020-12-20T13:26:53.028Z</time>
      </trkpt>
      <trkpt lat="45.47147" lon="5.5702">
        <ele>534.4</ele>
        <time>2020-12-20T13:26:54.326Z</time>
      </trkpt>
      <trkpt lat="45.47157" lon="5.57022">
        <ele>532.6</ele>
        <time>2020-12-20T13:26:55.390Z</time>
      </trkpt>
      <trkpt lat="45.47168" lon="5.57021">
        <ele>530.6</ele>
        <time>2020-12-20T13:26:56.551Z</time>
      </trkpt>
      <trkpt lat="45.47179" lon="5.57023">
        <ele>529.8</ele>
        <time>2020-12-20T13:26:57.720Z</time>
      </trkpt>
      <trkpt lat="45.47189" lon="5.57025">
        <ele>529.1</ele>
        <time>2020-12-20T13:26:58.784Z</time>
      </trkpt>
      <trkpt lat="45.47198" lon="5.57032">
        <ele>528.7</ele>
        <time>2020-12-20T13:27:00.035Z</time>
      </trkpt>
      <trkpt lat="45.47209" lon="5.57039">
        <ele>528.1</ele>
        <time>2020-12-20T13:27:01.368Z</time>
      </trkpt>
      <trkpt lat="45.47226" lon="5.57051">
        <ele>527.3</ele>
        <time>2020-12-20T13:27:03.616Z</time>
      </trkpt>
      <trkpt lat="45.47243" lon="5.57058">
        <ele>526.3</ele>
        <time>2020-12-20T13:27:05.466Z</time>
      </trkpt>
      <trkpt lat="45.47261" lon="5.5706">
        <ele>525.7</ele>
        <time>2020-12-20T13:27:07.800Z</time>
      </trkpt>
      <trkpt lat="45.47284" lon="5.57063">
        <ele>525.6</ele>
        <time>2020-12-20T13:27:13.110Z</time>
      </trkpt>
      <trkpt lat="45.47288" lon="5.5706">
        <ele>525.4</ele>
        <time>2020-12-20T13:27:13.636Z</time>
      </trkpt>
      <trkpt lat="45.47313" lon="5.57058">
        <ele>525</ele>
        <time>2020-12-20T13:27:17.560Z</time>
      </trkpt>
      <trkpt lat="45.47328" lon="5.57055">
        <ele>524.7</ele>
        <time>2020-12-20T13:27:19.828Z</time>
      </trkpt>
      <trkpt lat="45.47337" lon="5.57052">
        <ele>524.4</ele>
        <time>2020-12-20T13:27:21.032Z</time>
      </trkpt>
      <trkpt lat="45.47334" lon="5.5704">
        <ele>523.9</ele>
        <time>2020-12-20T13:27:21.970Z</time>
      </trkpt>
      <trkpt lat="45.47317" lon="5.56997">
        <ele>522</ele>
        <time>2020-12-20T13:27:25.639Z</time>
      </trkpt>
      <trkpt lat="45.47304" lon="5.56963">
        <ele>519.6</ele>
        <time>2020-12-20T13:27:28.500Z</time>
      </trkpt>
      <trkpt lat="45.47294" lon="5.56933">
        <ele>517.6</ele>
        <time>2020-12-20T13:27:30.954Z</time>
      </trkpt>
      <trkpt lat="45.4729" lon="5.56912">
        <ele>516.4</ele>
        <time>2020-12-20T13:27:32.561Z</time>
      </trkpt>
      <trkpt lat="45.47291" lon="5.56889">
        <ele>515.5</ele>
        <time>2020-12-20T13:27:34.262Z</time>
      </trkpt>
      <trkpt lat="45.47292" lon="5.56861">
        <ele>514.5</ele>
        <time>2020-12-20T13:27:36.418Z</time>
      </trkpt>
      <trkpt lat="45.47297" lon="5.56828">
        <ele>513.2</ele>
        <time>2020-12-20T13:27:38.927Z</time>
      </trkpt>
      <trkpt lat="45.47307" lon="5.56802">
        <ele>512.2</ele>
        <time>2020-12-20T13:27:41.263Z</time>
      </trkpt>
      <trkpt lat="45.47316" lon="5.56785">
        <ele>511.7</ele>
        <time>2020-12-20T13:27:43.189Z</time>
      </trkpt>
      <trkpt lat="45.4733" lon="5.56767">
        <ele>511.4</ele>
        <time>2020-12-20T13:27:46.146Z</time>
      </trkpt>
      <trkpt lat="45.4735" lon="5.56751">
        <ele>510.2</ele>
        <time>2020-12-20T13:27:48.629Z</time>
      </trkpt>
      <trkpt lat="45.47368" lon="5.56734">
        <ele>508.6</ele>
        <time>2020-12-20T13:27:50.903Z</time>
      </trkpt>
      <trkpt lat="45.474" lon="5.567">
        <ele>506.2</ele>
        <time>2020-12-20T13:27:54.955Z</time>
      </trkpt>
      <trkpt lat="45.47411" lon="5.56675">
        <ele>505.3</ele>
        <time>2020-12-20T13:27:57.379Z</time>
      </trkpt>
      <trkpt lat="45.47413" lon="5.56655">
        <ele>504.6</ele>
        <time>2020-12-20T13:27:58.952Z</time>
      </trkpt>
      <trkpt lat="45.47413" lon="5.56639">
        <ele>504</ele>
        <time>2020-12-20T13:28:00.155Z</time>
      </trkpt>
      <trkpt lat="45.47406" lon="5.5664">
        <ele>504.1</ele>
        <time>2020-12-20T13:28:02.138Z</time>
      </trkpt>
      <trkpt lat="45.4739" lon="5.56641">
        <ele>504.3</ele>
        <time>2020-12-20T13:28:06.571Z</time>
      </trkpt>
      <trkpt lat="45.4737" lon="5.56638">
        <ele>504.3</ele>
        <time>2020-12-20T13:28:11.501Z</time>
      </trkpt>
      <trkpt lat="45.47341" lon="5.56624">
        <ele>503.9</ele>
        <time>2020-12-20T13:28:16.478Z</time>
      </trkpt>
      <trkpt lat="45.47312" lon="5.56611">
        <ele>503.2</ele>
        <time>2020-12-20T13:28:20.862Z</time>
      </trkpt>
      <trkpt lat="45.47285" lon="5.56596">
        <ele>502.5</ele>
        <time>2020-12-20T13:28:24.988Z</time>
      </trkpt>
      <trkpt lat="45.47247" lon="5.56576">
        <ele>502</ele>
        <time>2020-12-20T13:28:31.634Z</time>
      </trkpt>
      <trkpt lat="45.47219" lon="5.5656">
        <ele>502.3</ele>
        <time>2020-12-20T13:28:39.770Z</time>
      </trkpt>
      <trkpt lat="45.47207" lon="5.56554">
        <ele>502.3</ele>
        <time>2020-12-20T13:28:42.888Z</time>
      </trkpt>
      <trkpt lat="45.47198" lon="5.56549">
        <ele>502.3</ele>
        <time>2020-12-20T13:28:45.256Z</time>
      </trkpt>
      <trkpt lat="45.4717" lon="5.56533">
        <ele>502.2</ele>
        <time>2020-12-20T13:28:52.293Z</time>
      </trkpt>
      <trkpt lat="45.47139" lon="5.56517">
        <ele>502</ele>
        <time>2020-12-20T13:28:59.688Z</time>
      </trkpt>
      <trkpt lat="45.47111" lon="5.56502">
        <ele>501.8</ele>
        <time>2020-12-20T13:29:06.339Z</time>
      </trkpt>
      <trkpt lat="45.47091" lon="5.5648">
        <ele>501.2</ele>
        <time>2020-12-20T13:29:09.952Z</time>
      </trkpt>
      <trkpt lat="45.47081" lon="5.56484">
        <ele>501.5</ele>
        <time>2020-12-20T13:29:13.414Z</time>
      </trkpt>
      <trkpt lat="45.47091" lon="5.5648">
        <ele>501.2</ele>
        <time>2020-12-20T13:29:14.819Z</time>
      </trkpt>
      <trkpt lat="45.471" lon="5.56476">
        <ele>500.9</ele>
        <time>2020-12-20T13:29:16.055Z</time>
      </trkpt>
      <trkpt lat="45.47111" lon="5.56472">
        <ele>500.7</ele>
        <time>2020-12-20T13:29:17.799Z</time>
      </trkpt>
      <trkpt lat="45.47148" lon="5.56458">
        <ele>499.7</ele>
        <time>2020-12-20T13:29:23.133Z</time>
      </trkpt>
      <trkpt lat="45.47187" lon="5.56439">
        <ele>498.8</ele>
        <time>2020-12-20T13:29:29.158Z</time>
      </trkpt>
      <trkpt lat="45.47197" lon="5.56432">
        <ele>498.6</ele>
        <time>2020-12-20T13:29:30.863Z</time>
      </trkpt>
      <trkpt lat="45.47218" lon="5.5641">
        <ele>497.8</ele>
        <time>2020-12-20T13:29:34.320Z</time>
      </trkpt>
      <trkpt lat="45.47236" lon="5.56396">
        <ele>497.3</ele>
        <time>2020-12-20T13:29:37.232Z</time>
      </trkpt>
      <trkpt lat="45.47258" lon="5.56377">
        <ele>496.7</ele>
        <time>2020-12-20T13:29:40.929Z</time>
      </trkpt>
      <trkpt lat="45.47286" lon="5.56352">
        <ele>496.4</ele>
        <time>2020-12-20T13:29:46.587Z</time>
      </trkpt>
      <trkpt lat="45.47308" lon="5.56333">
        <ele>496.4</ele>
        <time>2020-12-20T13:29:52.892Z</time>
      </trkpt>
      <trkpt lat="45.47331" lon="5.56313">
        <ele>497.2</ele>
        <time>2020-12-20T13:30:01.964Z</time>
      </trkpt>
      <trkpt lat="45.47359" lon="5.56287">
        <ele>497.9</ele>
        <time>2020-12-20T13:30:12.101Z</time>
      </trkpt>
      <trkpt lat="45.47367" lon="5.56278">
        <ele>498.1</ele>
        <time>2020-12-20T13:30:15.146Z</time>
      </trkpt>
      <trkpt lat="45.47382" lon="5.56253">
        <ele>498.5</ele>
        <time>2020-12-20T13:30:21.870Z</time>
      </trkpt>
      <trkpt lat="45.47392" lon="5.5624">
        <ele>498.7</ele>
        <time>2020-12-20T13:30:25.707Z</time>
      </trkpt>
      <trkpt lat="45.47423" lon="5.56216">
        <ele>499</ele>
        <time>2020-12-20T13:30:35.085Z</time>
      </trkpt>
      <trkpt lat="45.47435" lon="5.56205">
        <ele>498.9</ele>
        <time>2020-12-20T13:30:38.243Z</time>
      </trkpt>
      <trkpt lat="45.47439" lon="5.562">
        <ele>498.8</ele>
        <time>2020-12-20T13:30:39.049Z</time>
      </trkpt>
      <trkpt lat="45.47438" lon="5.5618">
        <ele>498.8</ele>
        <time>2020-12-20T13:30:42.496Z</time>
      </trkpt>
      <trkpt lat="45.4743" lon="5.56137">
        <ele>498.2</ele>
        <time>2020-12-20T13:30:47.197Z</time>
      </trkpt>
      <trkpt lat="45.47424" lon="5.56109">
        <ele>497.6</ele>
        <time>2020-12-20T13:30:49.963Z</time>
      </trkpt>
      <trkpt lat="45.47422" lon="5.56088">
        <ele>497.2</ele>
        <time>2020-12-20T13:30:52.016Z</time>
      </trkpt>
      <trkpt lat="45.47417" lon="5.56065">
        <ele>497.4</ele>
        <time>2020-12-20T13:30:56.660Z</time>
      </trkpt>
      <trkpt lat="45.47417" lon="5.56043">
        <ele>498</ele>
        <time>2020-12-20T13:31:02.534Z</time>
      </trkpt>
      <trkpt lat="45.47423" lon="5.56001">
        <ele>499.1</ele>
        <time>2020-12-20T13:31:13.619Z</time>
      </trkpt>
      <trkpt lat="45.47425" lon="5.55959">
        <ele>498.1</ele>
        <time>2020-12-20T13:31:17.410Z</time>
      </trkpt>
      <trkpt lat="45.47427" lon="5.55928">
        <ele>497.3</ele>
        <time>2020-12-20T13:31:20.138Z</time>
      </trkpt>
      <trkpt lat="45.47426" lon="5.55906">
        <ele>496.7</ele>
        <time>2020-12-20T13:31:22.029Z</time>
      </trkpt>
      <trkpt lat="45.47421" lon="5.55881">
        <ele>496.1</ele>
        <time>2020-12-20T13:31:24.393Z</time>
      </trkpt>
      <trkpt lat="45.4741" lon="5.55848">
        <ele>495.4</ele>
        <time>2020-12-20T13:31:27.917Z</time>
      </trkpt>
      <trkpt lat="45.47396" lon="5.55806">
        <ele>495.3</ele>
        <time>2020-12-20T13:31:35.553Z</time>
      </trkpt>
      <trkpt lat="45.47378" lon="5.55748">
        <ele>495.9</ele>
        <time>2020-12-20T13:31:47.994Z</time>
      </trkpt>
      <trkpt lat="45.47379" lon="5.5575">
        <ele>495.9</ele>
        <time>2020-12-20T13:31:48.416Z</time>
      </trkpt>
      <trkpt lat="45.47371" lon="5.55718">
        <ele>495.7</ele>
        <time>2020-12-20T13:31:52.534Z</time>
      </trkpt>
      <trkpt lat="45.4737" lon="5.5571">
        <ele>495.6</ele>
        <time>2020-12-20T13:31:53.410Z</time>
      </trkpt>
      <trkpt lat="45.47388" lon="5.55673">
        <ele>495.1</ele>
        <time>2020-12-20T13:31:58.368Z</time>
      </trkpt>
      <trkpt lat="45.47397" lon="5.55659">
        <ele>495.2</ele>
        <time>2020-12-20T13:32:01.875Z</time>
      </trkpt>
      <trkpt lat="45.47409" lon="5.55644">
        <ele>495.5</ele>
        <time>2020-12-20T13:32:06.600Z</time>
      </trkpt>
      <trkpt lat="45.47423" lon="5.55626">
        <ele>496.2</ele>
        <time>2020-12-20T13:32:13.604Z</time>
      </trkpt>
      <trkpt lat="45.47434" lon="5.55616">
        <ele>496.8</ele>
        <time>2020-12-20T13:32:19.053Z</time>
      </trkpt>
      <trkpt lat="45.47439" lon="5.55609">
        <ele>497.1</ele>
        <time>2020-12-20T13:32:21.879Z</time>
      </trkpt>
      <trkpt lat="45.47447" lon="5.55598">
        <ele>497.7</ele>
        <time>2020-12-20T13:32:26.770Z</time>
      </trkpt>
      <trkpt lat="45.47458" lon="5.55577">
        <ele>498.6</ele>
        <time>2020-12-20T13:32:34.596Z</time>
      </trkpt>
      <trkpt lat="45.47464" lon="5.55568">
        <ele>499</ele>
        <time>2020-12-20T13:32:38.232Z</time>
      </trkpt>
      <trkpt lat="45.47471" lon="5.55559">
        <ele>499.4</ele>
        <time>2020-12-20T13:32:42.012Z</time>
      </trkpt>
      <trkpt lat="45.47479" lon="5.55544">
        <ele>500.1</ele>
        <time>2020-12-20T13:32:47.790Z</time>
      </trkpt>
      <trkpt lat="45.47485" lon="5.55535">
        <ele>500.5</ele>
        <time>2020-12-20T13:32:51.426Z</time>
      </trkpt>
      <trkpt lat="45.47493" lon="5.55524">
        <ele>501.1</ele>
        <time>2020-12-20T13:32:56.317Z</time>
      </trkpt>
      <trkpt lat="45.47507" lon="5.55511">
        <ele>501.8</ele>
        <time>2020-12-20T13:33:02.964Z</time>
      </trkpt>
      <trkpt lat="45.4751" lon="5.55508">
        <ele>501.9</ele>
        <time>2020-12-20T13:33:04.161Z</time>
      </trkpt>
      <trkpt lat="45.4752" lon="5.55495">
        <ele>502.3</ele>
        <time>2020-12-20T13:33:08.710Z</time>
      </trkpt>
      <trkpt lat="45.47529" lon="5.5548">
        <ele>502.8</ele>
        <time>2020-12-20T13:33:13.782Z</time>
      </trkpt>
      <trkpt lat="45.47535" lon="5.55466">
        <ele>503.3</ele>
        <time>2020-12-20T13:33:18.468Z</time>
      </trkpt>
      <trkpt lat="45.47543" lon="5.55446">
        <ele>504.2</ele>
        <time>2020-12-20T13:33:25.660Z</time>
      </trkpt>
      <trkpt lat="45.47552" lon="5.55429">
        <ele>505.1</ele>
        <time>2020-12-20T13:33:32.524Z</time>
      </trkpt>
      <trkpt lat="45.47559" lon="5.55417">
        <ele>505.8</ele>
        <time>2020-12-20T13:33:37.688Z</time>
      </trkpt>
      <trkpt lat="45.47564" lon="5.55411">
        <ele>506.2</ele>
        <time>2020-12-20T13:33:40.711Z</time>
      </trkpt>
      <trkpt lat="45.47589" lon="5.55388">
        <ele>508.2</ele>
        <time>2020-12-20T13:33:55.086Z</time>
      </trkpt>
      <trkpt lat="45.47557" lon="5.55359">
        <ele>507.1</ele>
        <time>2020-12-20T13:34:00.207Z</time>
      </trkpt>
      <trkpt lat="45.47537" lon="5.55336">
        <ele>506.7</ele>
        <time>2020-12-20T13:34:04.255Z</time>
      </trkpt>
      <trkpt lat="45.47521" lon="5.55319">
        <ele>506.2</ele>
        <time>2020-12-20T13:34:07.067Z</time>
      </trkpt>
      <trkpt lat="45.47505" lon="5.55301">
        <ele>505.7</ele>
        <time>2020-12-20T13:34:09.957Z</time>
      </trkpt>
      <trkpt lat="45.47487" lon="5.55281">
        <ele>504.9</ele>
        <time>2020-12-20T13:34:12.853Z</time>
      </trkpt>
      <trkpt lat="45.4747" lon="5.55263">
        <ele>504.3</ele>
        <time>2020-12-20T13:34:15.734Z</time>
      </trkpt>
      <trkpt lat="45.47456" lon="5.55248">
        <ele>503.9</ele>
        <time>2020-12-20T13:34:18.264Z</time>
      </trkpt>
      <trkpt lat="45.47449" lon="5.55238">
        <ele>503.7</ele>
        <time>2020-12-20T13:34:19.741Z</time>
      </trkpt>
      <trkpt lat="45.47437" lon="5.55212">
        <ele>503.3</ele>
        <time>2020-12-20T13:34:23.066Z</time>
      </trkpt>
      <trkpt lat="45.47427" lon="5.55183">
        <ele>502.8</ele>
        <time>2020-12-20T13:34:26.370Z</time>
      </trkpt>
      <trkpt lat="45.47418" lon="5.55162">
        <ele>502.2</ele>
        <time>2020-12-20T13:34:28.567Z</time>
      </trkpt>
      <trkpt lat="45.4741" lon="5.55147">
        <ele>501.9</ele>
        <time>2020-12-20T13:34:30.480Z</time>
      </trkpt>
      <trkpt lat="45.47398" lon="5.55127">
        <ele>501.7</ele>
        <time>2020-12-20T13:34:33.568Z</time>
      </trkpt>
      <trkpt lat="45.47381" lon="5.55102">
        <ele>501.4</ele>
        <time>2020-12-20T13:34:37.578Z</time>
      </trkpt>
      <trkpt lat="45.47378" lon="5.55097">
        <ele>501.4</ele>
        <time>2020-12-20T13:34:38.709Z</time>
      </trkpt>
      <trkpt lat="45.47349" lon="5.55053">
        <ele>501.8</ele>
        <time>2020-12-20T13:34:50.073Z</time>
      </trkpt>
      <trkpt lat="45.47335" lon="5.55032">
        <ele>501.9</ele>
        <time>2020-12-20T13:34:55.289Z</time>
      </trkpt>
      <trkpt lat="45.47326" lon="5.5502">
        <ele>501.7</ele>
        <time>2020-12-20T13:34:57.214Z</time>
      </trkpt>
      <trkpt lat="45.47307" lon="5.54995">
        <ele>501.1</ele>
        <time>2020-12-20T13:35:00.935Z</time>
      </trkpt>
      <trkpt lat="45.47289" lon="5.54972">
        <ele>501.1</ele>
        <time>2020-12-20T13:35:06.860Z</time>
      </trkpt>
      <trkpt lat="45.47276" lon="5.54953">
        <ele>501.2</ele>
        <time>2020-12-20T13:35:11.660Z</time>
      </trkpt>
      <trkpt lat="45.47267" lon="5.54942">
        <ele>501</ele>
        <time>2020-12-20T13:35:13.498Z</time>
      </trkpt>
      <trkpt lat="45.47253" lon="5.54923">
        <ele>500.9</ele>
        <time>2020-12-20T13:35:17.888Z</time>
      </trkpt>
      <trkpt lat="45.47245" lon="5.54911">
        <ele>501</ele>
        <time>2020-12-20T13:35:20.978Z</time>
      </trkpt>
      <trkpt lat="45.47258" lon="5.54885">
        <ele>502.6</ele>
        <time>2020-12-20T13:35:32.146Z</time>
      </trkpt>
      <trkpt lat="45.47266" lon="5.5487">
        <ele>503.9</ele>
        <time>2020-12-20T13:35:40.440Z</time>
      </trkpt>
      <trkpt lat="45.47283" lon="5.54841">
        <ele>506.7</ele>
        <time>2020-12-20T13:35:58.320Z</time>
      </trkpt>
      <trkpt lat="45.47291" lon="5.54828">
        <ele>508.4</ele>
        <time>2020-12-20T13:36:09.789Z</time>
      </trkpt>
      <trkpt lat="45.473" lon="5.54817">
        <ele>510.4</ele>
        <time>2020-12-20T13:36:20.997Z</time>
      </trkpt>
      <trkpt lat="45.47308" lon="5.54806">
        <ele>512.3</ele>
        <time>2020-12-20T13:36:31.506Z</time>
      </trkpt>
      <trkpt lat="45.47325" lon="5.54774">
        <ele>517</ele>
        <time>2020-12-20T13:36:58.126Z</time>
      </trkpt>
      <trkpt lat="45.4733" lon="5.54762">
        <ele>518.6</ele>
        <time>2020-12-20T13:37:07.382Z</time>
      </trkpt>
      <trkpt lat="45.47337" lon="5.54748">
        <ele>520.9</ele>
        <time>2020-12-20T13:37:18.783Z</time>
      </trkpt>
      <trkpt lat="45.47343" lon="5.54738">
        <ele>523.3</ele>
        <time>2020-12-20T13:37:27.510Z</time>
      </trkpt>
      <trkpt lat="45.47352" lon="5.54726">
        <ele>526</ele>
        <time>2020-12-20T13:37:39.161Z</time>
      </trkpt>
      <trkpt lat="45.47355" lon="5.54712">
        <ele>528.3</ele>
        <time>2020-12-20T13:37:48.868Z</time>
      </trkpt>
      <trkpt lat="45.47378" lon="5.54698">
        <ele>530.5</ele>
        <time>2020-12-20T13:38:03.138Z</time>
      </trkpt>
      <trkpt lat="45.47388" lon="5.54686">
        <ele>531.4</ele>
        <time>2020-12-20T13:38:09.531Z</time>
      </trkpt>
      <trkpt lat="45.47399" lon="5.54673">
        <ele>531.8</ele>
        <time>2020-12-20T13:38:14.241Z</time>
      </trkpt>
      <trkpt lat="45.4741" lon="5.54661">
        <ele>532.2</ele>
        <time>2020-12-20T13:38:18.858Z</time>
      </trkpt>
      <trkpt lat="45.4742" lon="5.54648">
        <ele>534.1</ele>
        <time>2020-12-20T13:38:31.653Z</time>
      </trkpt>
      <trkpt lat="45.47431" lon="5.54636">
        <ele>536.8</ele>
        <time>2020-12-20T13:38:44.749Z</time>
      </trkpt>
      <trkpt lat="45.47439" lon="5.54626">
        <ele>538.8</ele>
        <time>2020-12-20T13:38:54.808Z</time>
      </trkpt>
      <trkpt lat="45.47447" lon="5.54614">
        <ele>540.7</ele>
        <time>2020-12-20T13:39:05.787Z</time>
      </trkpt>
      <trkpt lat="45.47453" lon="5.54602">
        <ele>542.2</ele>
        <time>2020-12-20T13:39:15.560Z</time>
      </trkpt>
      <trkpt lat="45.4746" lon="5.54586">
        <ele>543.8</ele>
        <time>2020-12-20T13:39:26.158Z</time>
      </trkpt>
      <trkpt lat="45.47465" lon="5.54578">
        <ele>544.5</ele>
        <time>2020-12-20T13:39:30.649Z</time>
      </trkpt>
      <trkpt lat="45.47471" lon="5.54566">
        <ele>545.4</ele>
        <time>2020-12-20T13:39:36.502Z</time>
      </trkpt>
      <trkpt lat="45.47463" lon="5.54562">
        <ele>545.6</ele>
        <time>2020-12-20T13:39:39.153Z</time>
      </trkpt>
      <trkpt lat="45.47454" lon="5.54562">
        <ele>545.5</ele>
        <time>2020-12-20T13:39:40.653Z</time>
      </trkpt>
      <trkpt lat="45.47446" lon="5.54564">
        <ele>545.3</ele>
        <time>2020-12-20T13:39:41.804Z</time>
      </trkpt>
      <trkpt lat="45.47436" lon="5.54567">
        <ele>545</ele>
        <time>2020-12-20T13:39:43.179Z</time>
      </trkpt>
      <trkpt lat="45.47425" lon="5.54568">
        <ele>544.7</ele>
        <time>2020-12-20T13:39:44.696Z</time>
      </trkpt>
      <trkpt lat="45.47407" lon="5.54562">
        <ele>545.4</ele>
        <time>2020-12-20T13:39:51.635Z</time>
      </trkpt>
      <trkpt lat="45.47399" lon="5.54552">
        <ele>546.4</ele>
        <time>2020-12-20T13:39:58.042Z</time>
      </trkpt>
      <trkpt lat="45.47399" lon="5.54547">
        <ele>546.9</ele>
        <time>2020-12-20T13:40:01.358Z</time>
      </trkpt>
      <trkpt lat="45.474" lon="5.54535">
        <ele>548</ele>
        <time>2020-12-20T13:40:08.972Z</time>
      </trkpt>
      <trkpt lat="45.47406" lon="5.54523">
        <ele>549.3</ele>
        <time>2020-12-20T13:40:17.772Z</time>
      </trkpt>
      <trkpt lat="45.47418" lon="5.54508">
        <ele>551.1</ele>
        <time>2020-12-20T13:40:29.395Z</time>
      </trkpt>
      <trkpt lat="45.47429" lon="5.54491">
        <ele>552.6</ele>
        <time>2020-12-20T13:40:39.029Z</time>
      </trkpt>
      <trkpt lat="45.47441" lon="5.54474">
        <ele>554.1</ele>
        <time>2020-12-20T13:40:48.741Z</time>
      </trkpt>
      <trkpt lat="45.47449" lon="5.54459">
        <ele>555.5</ele>
        <time>2020-12-20T13:40:57.684Z</time>
      </trkpt>
      <trkpt lat="45.47454" lon="5.54448">
        <ele>556.5</ele>
        <time>2020-12-20T13:41:04.093Z</time>
      </trkpt>
      <trkpt lat="45.47457" lon="5.54439">
        <ele>557.4</ele>
        <time>2020-12-20T13:41:10.285Z</time>
      </trkpt>
      <trkpt lat="45.47468" lon="5.54418">
        <ele>559.1</ele>
        <time>2020-12-20T13:41:21.204Z</time>
      </trkpt>
      <trkpt lat="45.47475" lon="5.54406">
        <ele>560.4</ele>
        <time>2020-12-20T13:41:29.744Z</time>
      </trkpt>
      <trkpt lat="45.47482" lon="5.54392">
        <ele>562.2</ele>
        <time>2020-12-20T13:41:41.145Z</time>
      </trkpt>
      <trkpt lat="45.47495" lon="5.54367">
        <ele>566</ele>
        <time>2020-12-20T13:42:01.783Z</time>
      </trkpt>
      <trkpt lat="45.4751" lon="5.54344">
        <ele>569.4</ele>
        <time>2020-12-20T13:42:22.610Z</time>
      </trkpt>
      <trkpt lat="45.47522" lon="5.54322">
        <ele>572</ele>
        <time>2020-12-20T13:42:40.984Z</time>
      </trkpt>
      <trkpt lat="45.47533" lon="5.54305">
        <ele>574.1</ele>
        <time>2020-12-20T13:42:55.490Z</time>
      </trkpt>
      <trkpt lat="45.47545" lon="5.54284">
        <ele>577.2</ele>
        <time>2020-12-20T13:43:13.452Z</time>
      </trkpt>
      <trkpt lat="45.47564" lon="5.54257">
        <ele>581.8</ele>
        <time>2020-12-20T13:43:38.815Z</time>
      </trkpt>
      <trkpt lat="45.47575" lon="5.5424">
        <ele>584.4</ele>
        <time>2020-12-20T13:43:54.153Z</time>
      </trkpt>
      <trkpt lat="45.47583" lon="5.54215">
        <ele>587.6</ele>
        <time>2020-12-20T13:44:12.374Z</time>
      </trkpt>
      <trkpt lat="45.47582" lon="5.54196">
        <ele>590.1</ele>
        <time>2020-12-20T13:44:25.008Z</time>
      </trkpt>
      <trkpt lat="45.47579" lon="5.54182">
        <ele>591.8</ele>
        <time>2020-12-20T13:44:34.714Z</time>
      </trkpt>
      <trkpt lat="45.47575" lon="5.54168">
        <ele>593.4</ele>
        <time>2020-12-20T13:44:44.738Z</time>
      </trkpt>
      <trkpt lat="45.47572" lon="5.54151">
        <ele>594.5</ele>
        <time>2020-12-20T13:44:51.846Z</time>
      </trkpt>
      <trkpt lat="45.47574" lon="5.54121">
        <ele>596.5</ele>
        <time>2020-12-20T13:45:04.650Z</time>
      </trkpt>
      <trkpt lat="45.47583" lon="5.54098">
        <ele>598.1</ele>
        <time>2020-12-20T13:45:15.067Z</time>
      </trkpt>
      <trkpt lat="45.47596" lon="5.54089">
        <ele>598.4</ele>
        <time>2020-12-20T13:45:19.442Z</time>
      </trkpt>
      <trkpt lat="45.4761" lon="5.54083">
        <ele>598.4</ele>
        <time>2020-12-20T13:45:23.026Z</time>
      </trkpt>
      <trkpt lat="45.47634" lon="5.54064">
        <ele>599.8</ele>
        <time>2020-12-20T13:45:34.870Z</time>
      </trkpt>
      <trkpt lat="45.47638" lon="5.54059">
        <ele>600.1</ele>
        <time>2020-12-20T13:45:37.250Z</time>
      </trkpt>
      <trkpt lat="45.47647" lon="5.5404">
        <ele>601.6</ele>
        <time>2020-12-20T13:45:46.872Z</time>
      </trkpt>
      <trkpt lat="45.4766" lon="5.53963">
        <ele>607.1</ele>
        <time>2020-12-20T13:46:21.947Z</time>
      </trkpt>
      <trkpt lat="45.47663" lon="5.53946">
        <ele>608.1</ele>
        <time>2020-12-20T13:46:28.579Z</time>
      </trkpt>
      <trkpt lat="45.47667" lon="5.53926">
        <ele>609.3</ele>
        <time>2020-12-20T13:46:36.507Z</time>
      </trkpt>
      <trkpt lat="45.47667" lon="5.53924">
        <ele>609.5</ele>
        <time>2020-12-20T13:46:37.833Z</time>
      </trkpt>
      <trkpt lat="45.47676" lon="5.53873">
        <ele>612.5</ele>
        <time>2020-12-20T13:46:57.728Z</time>
      </trkpt>
      <trkpt lat="45.47675" lon="5.53864">
        <ele>613.1</ele>
        <time>2020-12-20T13:47:01.573Z</time>
      </trkpt>
      <trkpt lat="45.47674" lon="5.53851">
        <ele>614</ele>
        <time>2020-12-20T13:47:07.315Z</time>
      </trkpt>
      <trkpt lat="45.47672" lon="5.53844">
        <ele>614.4</ele>
        <time>2020-12-20T13:47:10.042Z</time>
      </trkpt>
      <trkpt lat="45.47667" lon="5.53833">
        <ele>615</ele>
        <time>2020-12-20T13:47:14.421Z</time>
      </trkpt>
      <trkpt lat="45.47664" lon="5.53713">
        <ele>623.5</ele>
        <time>2020-12-20T13:48:08.602Z</time>
      </trkpt>
      <trkpt lat="45.47665" lon="5.53683">
        <ele>625.1</ele>
        <time>2020-12-20T13:48:19.481Z</time>
      </trkpt>
      <trkpt lat="45.47667" lon="5.53663">
        <ele>626.3</ele>
        <time>2020-12-20T13:48:27.341Z</time>
      </trkpt>
      <trkpt lat="45.47674" lon="5.5364">
        <ele>628.7</ele>
        <time>2020-12-20T13:48:43.965Z</time>
      </trkpt>
      <trkpt lat="45.47678" lon="5.53629">
        <ele>629.8</ele>
        <time>2020-12-20T13:48:51.443Z</time>
      </trkpt>
      <trkpt lat="45.47681" lon="5.53618">
        <ele>630.8</ele>
        <time>2020-12-20T13:48:58.063Z</time>
      </trkpt>
      <trkpt lat="45.47684" lon="5.53606">
        <ele>631.8</ele>
        <time>2020-12-20T13:49:04.508Z</time>
      </trkpt>
      <trkpt lat="45.47687" lon="5.53592">
        <ele>632.9</ele>
        <time>2020-12-20T13:49:11.543Z</time>
      </trkpt>
      <trkpt lat="45.47691" lon="5.53571">
        <ele>634.3</ele>
        <time>2020-12-20T13:49:20.547Z</time>
      </trkpt>
      <trkpt lat="45.47689" lon="5.53546">
        <ele>635.8</ele>
        <time>2020-12-20T13:49:30.362Z</time>
      </trkpt>
      <trkpt lat="45.4768" lon="5.5353">
        <ele>636.5</ele>
        <time>2020-12-20T13:49:36.474Z</time>
      </trkpt>
      <trkpt lat="45.47671" lon="5.53511">
        <ele>637.4</ele>
        <time>2020-12-20T13:49:43.647Z</time>
      </trkpt>
      <trkpt lat="45.47664" lon="5.53495">
        <ele>638.2</ele>
        <time>2020-12-20T13:49:49.734Z</time>
      </trkpt>
      <trkpt lat="45.47655" lon="5.53481">
        <ele>638.6</ele>
        <time>2020-12-20T13:49:54.238Z</time>
      </trkpt>
      <trkpt lat="45.47649" lon="5.53473">
        <ele>638.9</ele>
        <time>2020-12-20T13:49:57.264Z</time>
      </trkpt>
      <trkpt lat="45.47638" lon="5.53465">
        <ele>639</ele>
        <time>2020-12-20T13:50:00.534Z</time>
      </trkpt>
      <trkpt lat="45.47628" lon="5.53459">
        <ele>639.1</ele>
        <time>2020-12-20T13:50:03.439Z</time>
      </trkpt>
      <trkpt lat="45.47633" lon="5.53452">
        <ele>639.7</ele>
        <time>2020-12-20T13:50:07.357Z</time>
      </trkpt>
      <trkpt lat="45.47646" lon="5.53435">
        <ele>641.3</ele>
        <time>2020-12-20T13:50:17.669Z</time>
      </trkpt>
      <trkpt lat="45.47659" lon="5.53417">
        <ele>642.8</ele>
        <time>2020-12-20T13:50:27.561Z</time>
      </trkpt>
      <trkpt lat="45.47677" lon="5.53392">
        <ele>644.4</ele>
        <time>2020-12-20T13:50:39.392Z</time>
      </trkpt>
      <trkpt lat="45.47689" lon="5.53373">
        <ele>645.5</ele>
        <time>2020-12-20T13:50:47.695Z</time>
      </trkpt>
      <trkpt lat="45.47701" lon="5.53349">
        <ele>646.7</ele>
        <time>2020-12-20T13:50:57.049Z</time>
      </trkpt>
      <trkpt lat="45.47708" lon="5.53333">
        <ele>647.5</ele>
        <time>2020-12-20T13:51:03.136Z</time>
      </trkpt>
      <trkpt lat="45.47719" lon="5.53327">
        <ele>648</ele>
        <time>2020-12-20T13:51:07.861Z</time>
      </trkpt>
      <trkpt lat="45.47736" lon="5.53334">
        <ele>647.1</ele>
        <time>2020-12-20T13:51:09.801Z</time>
      </trkpt>
      <trkpt lat="45.47747" lon="5.53344">
        <ele>646.5</ele>
        <time>2020-12-20T13:51:11.294Z</time>
      </trkpt>
      <trkpt lat="45.47764" lon="5.53358">
        <ele>647.2</ele>
        <time>2020-12-20T13:51:18.441Z</time>
      </trkpt>
      <trkpt lat="45.47776" lon="5.53371">
        <ele>647.6</ele>
        <time>2020-12-20T13:51:23.322Z</time>
      </trkpt>
      <trkpt lat="45.47787" lon="5.53383">
        <ele>647.7</ele>
        <time>2020-12-20T13:51:26.957Z</time>
      </trkpt>
      <trkpt lat="45.47799" lon="5.53395">
        <ele>647.7</ele>
        <time>2020-12-20T13:51:30.550Z</time>
      </trkpt>
      <trkpt lat="45.47811" lon="5.53405">
        <ele>647.7</ele>
        <time>2020-12-20T13:51:33.958Z</time>
      </trkpt>
      <trkpt lat="45.47824" lon="5.53416">
        <ele>647.5</ele>
        <time>2020-12-20T13:51:36.410Z</time>
      </trkpt>
      <trkpt lat="45.47845" lon="5.5343">
        <ele>647.3</ele>
        <time>2020-12-20T13:51:40.404Z</time>
      </trkpt>
      <trkpt lat="45.47859" lon="5.5344">
        <ele>646.9</ele>
        <time>2020-12-20T13:51:42.600Z</time>
      </trkpt>
      <trkpt lat="45.47871" lon="5.53446">
        <ele>646.8</ele>
        <time>2020-12-20T13:51:44.814Z</time>
      </trkpt>
      <trkpt lat="45.47884" lon="5.53449">
        <ele>646.9</ele>
        <time>2020-12-20T13:51:48.284Z</time>
      </trkpt>
      <trkpt lat="45.47887" lon="5.53449">
        <ele>647</ele>
        <time>2020-12-20T13:51:49.342Z</time>
      </trkpt>
      <trkpt lat="45.47897" lon="5.5345">
        <ele>647.1</ele>
        <time>2020-12-20T13:51:52.047Z</time>
      </trkpt>
      <trkpt lat="45.47908" lon="5.53451">
        <ele>647.3</ele>
        <time>2020-12-20T13:51:55.288Z</time>
      </trkpt>
      <trkpt lat="45.47927" lon="5.53434">
        <ele>649.3</ele>
        <time>2020-12-20T13:52:08.222Z</time>
      </trkpt>
      <trkpt lat="45.47951" lon="5.5344">
        <ele>650.1</ele>
        <time>2020-12-20T13:52:16.764Z</time>
      </trkpt>
      <trkpt lat="45.47962" lon="5.5344">
        <ele>650.7</ele>
        <time>2020-12-20T13:52:21.624Z</time>
      </trkpt>
      <trkpt lat="45.47978" lon="5.5344">
        <ele>651.6</ele>
        <time>2020-12-20T13:52:28.776Z</time>
      </trkpt>
      <trkpt lat="45.47978" lon="5.53433">
        <ele>652.2</ele>
        <time>2020-12-20T13:52:32.771Z</time>
      </trkpt>
      <trkpt lat="45.47976" lon="5.53424">
        <ele>652.9</ele>
        <time>2020-12-20T13:52:37.241Z</time>
      </trkpt>
      <trkpt lat="45.47965" lon="5.53384">
        <ele>656.5</ele>
        <time>2020-12-20T13:53:00.952Z</time>
      </trkpt>
      <trkpt lat="45.47959" lon="5.53369">
        <ele>658</ele>
        <time>2020-12-20T13:53:11.013Z</time>
      </trkpt>
      <trkpt lat="45.47953" lon="5.53357">
        <ele>659.2</ele>
        <time>2020-12-20T13:53:18.829Z</time>
      </trkpt>
      <trkpt lat="45.47946" lon="5.53345">
        <ele>660.6</ele>
        <time>2020-12-20T13:53:28.413Z</time>
      </trkpt>
      <trkpt lat="45.47936" lon="5.5333">
        <ele>662.4</ele>
        <time>2020-12-20T13:53:40.494Z</time>
      </trkpt>
      <trkpt lat="45.47926" lon="5.53314">
        <ele>664.1</ele>
        <time>2020-12-20T13:53:51.480Z</time>
      </trkpt>
      <trkpt lat="45.4792" lon="5.53303">
        <ele>665.3</ele>
        <time>2020-12-20T13:53:59.489Z</time>
      </trkpt>
      <trkpt lat="45.47917" lon="5.5329">
        <ele>666.7</ele>
        <time>2020-12-20T13:54:08.563Z</time>
      </trkpt>
      <trkpt lat="45.47914" lon="5.53277">
        <ele>667.9</ele>
        <time>2020-12-20T13:54:16.656Z</time>
      </trkpt>
      <trkpt lat="45.47913" lon="5.53257">
        <ele>670</ele>
        <time>2020-12-20T13:54:29.950Z</time>
      </trkpt>
      <trkpt lat="45.47907" lon="5.53228">
        <ele>671.5</ele>
        <time>2020-12-20T13:54:40.469Z</time>
      </trkpt>
      <trkpt lat="45.47903" lon="5.53201">
        <ele>672.7</ele>
        <time>2020-12-20T13:54:49.472Z</time>
      </trkpt>
      <trkpt lat="45.47898" lon="5.53169">
        <ele>674.2</ele>
        <time>2020-12-20T13:55:00.420Z</time>
      </trkpt>
      <trkpt lat="45.47894" lon="5.53133">
        <ele>675.7</ele>
        <time>2020-12-20T13:55:12.037Z</time>
      </trkpt>
      <trkpt lat="45.47891" lon="5.53099">
        <ele>677.3</ele>
        <time>2020-12-20T13:55:23.593Z</time>
      </trkpt>
      <trkpt lat="45.47887" lon="5.53064">
        <ele>678.7</ele>
        <time>2020-12-20T13:55:34.711Z</time>
      </trkpt>
      <trkpt lat="45.47883" lon="5.53033">
        <ele>679.9</ele>
        <time>2020-12-20T13:55:44.459Z</time>
      </trkpt>
      <trkpt lat="45.47877" lon="5.53015">
        <ele>680.8</ele>
        <time>2020-12-20T13:55:51.074Z</time>
      </trkpt>
      <trkpt lat="45.47876" lon="5.53003">
        <ele>681.3</ele>
        <time>2020-12-20T13:55:54.934Z</time>
      </trkpt>
      <trkpt lat="45.47869" lon="5.52971">
        <ele>681.7</ele>
        <time>2020-12-20T13:56:01.760Z</time>
      </trkpt>
      <trkpt lat="45.47864" lon="5.52956">
        <ele>682</ele>
        <time>2020-12-20T13:56:05.497Z</time>
      </trkpt>
      <trkpt lat="45.47852" lon="5.52916">
        <ele>683.2</ele>
        <time>2020-12-20T13:56:17.188Z</time>
      </trkpt>
      <trkpt lat="45.47842" lon="5.52893">
        <ele>682.7</ele>
        <time>2020-12-20T13:56:19.826Z</time>
      </trkpt>
      <trkpt lat="45.47828" lon="5.52869">
        <ele>682.9</ele>
        <time>2020-12-20T13:56:25.682Z</time>
      </trkpt>
      <trkpt lat="45.47813" lon="5.52838">
        <ele>683.4</ele>
        <time>2020-12-20T13:56:33.515Z</time>
      </trkpt>
      <trkpt lat="45.47775" lon="5.52837">
        <ele>689.2</ele>
        <time>2020-12-20T13:57:09.454Z</time>
      </trkpt>
      <trkpt lat="45.47768" lon="5.52837">
        <ele>690.3</ele>
        <time>2020-12-20T13:57:16.073Z</time>
      </trkpt>
      <trkpt lat="45.47748" lon="5.52832">
        <ele>692.9</ele>
        <time>2020-12-20T13:57:33.886Z</time>
      </trkpt>
      <trkpt lat="45.47727" lon="5.52828">
        <ele>693.1</ele>
        <time>2020-12-20T13:57:39.572Z</time>
      </trkpt>
      <trkpt lat="45.47716" lon="5.52822">
        <ele>693.1</ele>
        <time>2020-12-20T13:57:42.459Z</time>
      </trkpt>
      <trkpt lat="45.47707" lon="5.52814">
        <ele>692.9</ele>
        <time>2020-12-20T13:57:44.064Z</time>
      </trkpt>
      <trkpt lat="45.47696" lon="5.52798">
        <ele>692.6</ele>
        <time>2020-12-20T13:57:46.436Z</time>
      </trkpt>
      <trkpt lat="45.47687" lon="5.52788">
        <ele>692.6</ele>
        <time>2020-12-20T13:57:49.233Z</time>
      </trkpt>
      <trkpt lat="45.47672" lon="5.52777">
        <ele>693.3</ele>
        <time>2020-12-20T13:57:55.904Z</time>
      </trkpt>
      <trkpt lat="45.47656" lon="5.52766">
        <ele>693.7</ele>
        <time>2020-12-20T13:58:01.390Z</time>
      </trkpt>
      <trkpt lat="45.47633" lon="5.52752">
        <ele>694.2</ele>
        <time>2020-12-20T13:58:08.895Z</time>
      </trkpt>
      <trkpt lat="45.47625" lon="5.52751">
        <ele>694.5</ele>
        <time>2020-12-20T13:58:11.888Z</time>
      </trkpt>
      <trkpt lat="45.47611" lon="5.52747">
        <ele>694.7</ele>
        <time>2020-12-20T13:58:15.903Z</time>
      </trkpt>
      <trkpt lat="45.47596" lon="5.52743">
        <ele>695</ele>
        <time>2020-12-20T13:58:20.466Z</time>
      </trkpt>
      <trkpt lat="45.47577" lon="5.52735">
        <ele>695.3</ele>
        <time>2020-12-20T13:58:26.105Z</time>
      </trkpt>
      <trkpt lat="45.47566" lon="5.52728">
        <ele>695.2</ele>
        <time>2020-12-20T13:58:28.190Z</time>
      </trkpt>
      <trkpt lat="45.47557" lon="5.5272">
        <ele>694.9</ele>
        <time>2020-12-20T13:58:29.633Z</time>
      </trkpt>
      <trkpt lat="45.47549" lon="5.52712">
        <ele>694.7</ele>
        <time>2020-12-20T13:58:31.084Z</time>
      </trkpt>
      <trkpt lat="45.47542" lon="5.52706">
        <ele>694.6</ele>
        <time>2020-12-20T13:58:32.426Z</time>
      </trkpt>
      <trkpt lat="45.47525" lon="5.52694">
        <ele>694.5</ele>
        <time>2020-12-20T13:58:36.729Z</time>
      </trkpt>
      <trkpt lat="45.47515" lon="5.5269">
        <ele>694.6</ele>
        <time>2020-12-20T13:58:39.521Z</time>
      </trkpt>
      <trkpt lat="45.47508" lon="5.52691">
        <ele>694.9</ele>
        <time>2020-12-20T13:58:42.351Z</time>
      </trkpt>
      <trkpt lat="45.47496" lon="5.52691">
        <ele>695.4</ele>
        <time>2020-12-20T13:58:47.109Z</time>
      </trkpt>
      <trkpt lat="45.4748" lon="5.52695">
        <ele>696.3</ele>
        <time>2020-12-20T13:58:54.328Z</time>
      </trkpt>
      <trkpt lat="45.4747" lon="5.52695">
        <ele>696.8</ele>
        <time>2020-12-20T13:58:58.614Z</time>
      </trkpt>
      <trkpt lat="45.47464" lon="5.52693">
        <ele>697</ele>
        <time>2020-12-20T13:59:00.764Z</time>
      </trkpt>
      <trkpt lat="45.4745" lon="5.52685">
        <ele>697.5</ele>
        <time>2020-12-20T13:59:06.074Z</time>
      </trkpt>
      <trkpt lat="45.47437" lon="5.52677">
        <ele>698</ele>
        <time>2020-12-20T13:59:11.205Z</time>
      </trkpt>
      <trkpt lat="45.47391" lon="5.52662">
        <ele>698.3</ele>
        <time>2020-12-20T13:59:23.488Z</time>
      </trkpt>
      <trkpt lat="45.47383" lon="5.52658">
        <ele>697.9</ele>
        <time>2020-12-20T13:59:24.448Z</time>
      </trkpt>
      <trkpt lat="45.47357" lon="5.52653">
        <ele>697.7</ele>
        <time>2020-12-20T13:59:29.031Z</time>
      </trkpt>
      <trkpt lat="45.47348" lon="5.52652">
        <ele>697.7</ele>
        <time>2020-12-20T13:59:31.244Z</time>
      </trkpt>
      <trkpt lat="45.47333" lon="5.52646">
        <ele>697.8</ele>
        <time>2020-12-20T13:59:35.302Z</time>
      </trkpt>
      <trkpt lat="45.4732" lon="5.52637">
        <ele>698.3</ele>
        <time>2020-12-20T13:59:40.489Z</time>
      </trkpt>
      <trkpt lat="45.47309" lon="5.52628">
        <ele>698.8</ele>
        <time>2020-12-20T13:59:45.355Z</time>
      </trkpt>
      <trkpt lat="45.47301" lon="5.52621">
        <ele>699.2</ele>
        <time>2020-12-20T13:59:49.129Z</time>
      </trkpt>
      <trkpt lat="45.47289" lon="5.52612">
        <ele>699.8</ele>
        <time>2020-12-20T13:59:54.719Z</time>
      </trkpt>
      <trkpt lat="45.47268" lon="5.52602">
        <ele>701</ele>
        <time>2020-12-20T14:00:04.478Z</time>
      </trkpt>
      <trkpt lat="45.4726" lon="5.52598">
        <ele>701.4</ele>
        <time>2020-12-20T14:00:08.046Z</time>
      </trkpt>
      <trkpt lat="45.47241" lon="5.5259">
        <ele>702.1</ele>
        <time>2020-12-20T14:00:15.227Z</time>
      </trkpt>
      <trkpt lat="45.47229" lon="5.52584">
        <ele>702.2</ele>
        <time>2020-12-20T14:00:18.587Z</time>
      </trkpt>
      <trkpt lat="45.47215" lon="5.52566">
        <ele>701.2</ele>
        <time>2020-12-20T14:00:20.615Z</time>
      </trkpt>
      <trkpt lat="45.472" lon="5.52547">
        <ele>700.9</ele>
        <time>2020-12-20T14:00:23.800Z</time>
      </trkpt>
      <trkpt lat="45.47181" lon="5.52522">
        <ele>701.6</ele>
        <time>2020-12-20T14:00:32.228Z</time>
      </trkpt>
      <trkpt lat="45.47172" lon="5.52511">
        <ele>702.4</ele>
        <time>2020-12-20T14:00:37.967Z</time>
      </trkpt>
      <trkpt lat="45.4716" lon="5.525">
        <ele>703.5</ele>
        <time>2020-12-20T14:00:45.403Z</time>
      </trkpt>
      <trkpt lat="45.47151" lon="5.52494">
        <ele>703</ele>
        <time>2020-12-20T14:00:46.497Z</time>
      </trkpt>
      <trkpt lat="45.47135" lon="5.52487">
        <ele>702.9</ele>
        <time>2020-12-20T14:00:50.256Z</time>
      </trkpt>
      <trkpt lat="45.47117" lon="5.52479">
        <ele>702.9</ele>
        <time>2020-12-20T14:00:54.878Z</time>
      </trkpt>
      <trkpt lat="45.47109" lon="5.52465">
        <ele>701.2</ele>
        <time>2020-12-20T14:00:56.212Z</time>
      </trkpt>
      <trkpt lat="45.47107" lon="5.52458">
        <ele>700.2</ele>
        <time>2020-12-20T14:00:56.771Z</time>
      </trkpt>
      <trkpt lat="45.47102" lon="5.52449">
        <ele>699.2</ele>
        <time>2020-12-20T14:00:57.619Z</time>
      </trkpt>
      <trkpt lat="45.47091" lon="5.52443">
        <ele>699.3</ele>
        <time>2020-12-20T14:01:00.750Z</time>
      </trkpt>
      <trkpt lat="45.47084" lon="5.52442">
        <ele>699.9</ele>
        <time>2020-12-20T14:01:04.673Z</time>
      </trkpt>
      <trkpt lat="45.47077" lon="5.52442">
        <ele>700.4</ele>
        <time>2020-12-20T14:01:08.163Z</time>
      </trkpt>
      <trkpt lat="45.47069" lon="5.52442">
        <ele>700.9</ele>
        <time>2020-12-20T14:01:11.899Z</time>
      </trkpt>
      <trkpt lat="45.47058" lon="5.52444">
        <ele>701.9</ele>
        <time>2020-12-20T14:01:18.351Z</time>
      </trkpt>
      <trkpt lat="45.47042" lon="5.52456">
        <ele>704.2</ele>
        <time>2020-12-20T14:01:34.038Z</time>
      </trkpt>
      <trkpt lat="45.47017" lon="5.52476">
        <ele>707.1</ele>
        <time>2020-12-20T14:01:52.523Z</time>
      </trkpt>
      <trkpt lat="45.47013" lon="5.52479">
        <ele>707.4</ele>
        <time>2020-12-20T14:01:54.693Z</time>
      </trkpt>
      <trkpt lat="45.47008" lon="5.52486">
        <ele>708</ele>
        <time>2020-12-20T14:01:58.611Z</time>
      </trkpt>
      <trkpt lat="45.47003" lon="5.52506">
        <ele>708.6</ele>
        <time>2020-12-20T14:02:04.397Z</time>
      </trkpt>
      <trkpt lat="45.47001" lon="5.52521">
        <ele>707.7</ele>
        <time>2020-12-20T14:02:05.525Z</time>
      </trkpt>
      <trkpt lat="45.47" lon="5.52531">
        <ele>707.1</ele>
        <time>2020-12-20T14:02:06.272Z</time>
      </trkpt>
      <trkpt lat="45.47001" lon="5.52545">
        <ele>706.3</ele>
        <time>2020-12-20T14:02:07.311Z</time>
      </trkpt>
      <trkpt lat="45.47001" lon="5.52571">
        <ele>704.7</ele>
        <time>2020-12-20T14:02:09.232Z</time>
      </trkpt>
      <trkpt lat="45.47003" lon="5.52607">
        <ele>702.6</ele>
        <time>2020-12-20T14:02:11.900Z</time>
      </trkpt>
      <trkpt lat="45.47002" lon="5.52627">
        <ele>701.4</ele>
        <time>2020-12-20T14:02:13.382Z</time>
      </trkpt>
      <trkpt lat="45.47" lon="5.52643">
        <ele>700.4</ele>
        <time>2020-12-20T14:02:14.583Z</time>
      </trkpt>
      <trkpt lat="45.47001" lon="5.52658">
        <ele>699.5</ele>
        <time>2020-12-20T14:02:15.696Z</time>
      </trkpt>
      <trkpt lat="45.47002" lon="5.5267">
        <ele>698.8</ele>
        <time>2020-12-20T14:02:16.589Z</time>
      </trkpt>
      <trkpt lat="45.47005" lon="5.52689">
        <ele>697.5</ele>
        <time>2020-12-20T14:02:18.028Z</time>
      </trkpt>
      <trkpt lat="45.47008" lon="5.5271">
        <ele>696</ele>
        <time>2020-12-20T14:02:19.611Z</time>
      </trkpt>
      <trkpt lat="45.47009" lon="5.52728">
        <ele>694.6</ele>
        <time>2020-12-20T14:02:20.945Z</time>
      </trkpt>
      <trkpt lat="45.46995" lon="5.52728">
        <ele>694.7</ele>
        <time>2020-12-20T14:02:24.618Z</time>
      </trkpt>
      <trkpt lat="45.46971" lon="5.52728">
        <ele>695.4</ele>
        <time>2020-12-20T14:02:32.646Z</time>
      </trkpt>
      <trkpt lat="45.46937" lon="5.52733">
        <ele>696.2</ele>
        <time>2020-12-20T14:02:43.312Z</time>
      </trkpt>
      <trkpt lat="45.46921" lon="5.52734">
        <ele>696.6</ele>
        <time>2020-12-20T14:02:48.403Z</time>
      </trkpt>
      <trkpt lat="45.46904" lon="5.52738">
        <ele>696.7</ele>
        <time>2020-12-20T14:02:52.864Z</time>
      </trkpt>
      <trkpt lat="45.46893" lon="5.52743">
        <ele>696.5</ele>
        <time>2020-12-20T14:02:54.644Z</time>
      </trkpt>
      <trkpt lat="45.46864" lon="5.52762">
        <ele>694.8</ele>
        <time>2020-12-20T14:02:58.073Z</time>
      </trkpt>
      <trkpt lat="45.46849" lon="5.52766">
        <ele>694.3</ele>
        <time>2020-12-20T14:03:00.055Z</time>
      </trkpt>
      <trkpt lat="45.46829" lon="5.5276">
        <ele>694.6</ele>
        <time>2020-12-20T14:03:05.844Z</time>
      </trkpt>
      <trkpt lat="45.46821" lon="5.5276">
        <ele>694</ele>
        <time>2020-12-20T14:03:06.686Z</time>
      </trkpt>
      <trkpt lat="45.46805" lon="5.52756">
        <ele>693.3</ele>
        <time>2020-12-20T14:03:08.595Z</time>
      </trkpt>
      <trkpt lat="45.46794" lon="5.52753">
        <ele>692.9</ele>
        <time>2020-12-20T14:03:10.008Z</time>
      </trkpt>
      <trkpt lat="45.46785" lon="5.5275">
        <ele>692.5</ele>
        <time>2020-12-20T14:03:11.092Z</time>
      </trkpt>
      <trkpt lat="45.4677" lon="5.5274">
        <ele>692.7</ele>
        <time>2020-12-20T14:03:15.656Z</time>
      </trkpt>
      <trkpt lat="45.46761" lon="5.52735">
        <ele>692.7</ele>
        <time>2020-12-20T14:03:18.024Z</time>
      </trkpt>
      <trkpt lat="45.46753" lon="5.5273">
        <ele>692.8</ele>
        <time>2020-12-20T14:03:20.416Z</time>
      </trkpt>
      <trkpt lat="45.46739" lon="5.52723">
        <ele>692.7</ele>
        <time>2020-12-20T14:03:23.713Z</time>
      </trkpt>
      <trkpt lat="45.46731" lon="5.52707">
        <ele>694.2</ele>
        <time>2020-12-20T14:03:33.327Z</time>
      </trkpt>
      <trkpt lat="45.46717" lon="5.52676">
        <ele>697</ele>
        <time>2020-12-20T14:03:51.260Z</time>
      </trkpt>
      <trkpt lat="45.46703" lon="5.5266">
        <ele>697.8</ele>
        <time>2020-12-20T14:03:58.688Z</time>
      </trkpt>
      <trkpt lat="45.46661" lon="5.52657">
        <ele>694.9</ele>
        <time>2020-12-20T14:04:03.118Z</time>
      </trkpt>
      <trkpt lat="45.46615" lon="5.52657">
        <ele>691.4</ele>
        <time>2020-12-20T14:04:07.964Z</time>
      </trkpt>
      <trkpt lat="45.4661" lon="5.52657">
        <ele>691</ele>
        <time>2020-12-20T14:04:08.491Z</time>
      </trkpt>
      <trkpt lat="45.46603" lon="5.52656">
        <ele>690.6</ele>
        <time>2020-12-20T14:04:09.225Z</time>
      </trkpt>
      <trkpt lat="45.46593" lon="5.52656">
        <ele>689.9</ele>
        <time>2020-12-20T14:04:10.278Z</time>
      </trkpt>
      <trkpt lat="45.46569" lon="5.52656">
        <ele>687.7</ele>
        <time>2020-12-20T14:04:12.807Z</time>
      </trkpt>
      <trkpt lat="45.46536" lon="5.52653">
        <ele>684.4</ele>
        <time>2020-12-20T14:04:16.290Z</time>
      </trkpt>
      <trkpt lat="45.46517" lon="5.52643">
        <ele>682.3</ele>
        <time>2020-12-20T14:04:18.424Z</time>
      </trkpt>
      <trkpt lat="45.46525" lon="5.52671">
        <ele>682.6</ele>
        <time>2020-12-20T14:04:24.397Z</time>
      </trkpt>
      <trkpt lat="45.46538" lon="5.52714">
        <ele>678.6</ele>
        <time>2020-12-20T14:04:27.856Z</time>
      </trkpt>
      <trkpt lat="45.46552" lon="5.52739">
        <ele>676.5</ele>
        <time>2020-12-20T14:04:30.220Z</time>
      </trkpt>
      <trkpt lat="45.46561" lon="5.5276">
        <ele>674.3</ele>
        <time>2020-12-20T14:04:32.039Z</time>
      </trkpt>
      <trkpt lat="45.46575" lon="5.52791">
        <ele>671.1</ele>
        <time>2020-12-20T14:04:34.763Z</time>
      </trkpt>
      <trkpt lat="45.46588" lon="5.52805">
        <ele>670.4</ele>
        <time>2020-12-20T14:04:36.680Z</time>
      </trkpt>
      <trkpt lat="45.46602" lon="5.52825">
        <ele>670.1</ele>
        <time>2020-12-20T14:04:39.818Z</time>
      </trkpt>
      <trkpt lat="45.46617" lon="5.52847">
        <ele>670.1</ele>
        <time>2020-12-20T14:04:45.094Z</time>
      </trkpt>
      <trkpt lat="45.46624" lon="5.52856">
        <ele>670.1</ele>
        <time>2020-12-20T14:04:47.404Z</time>
      </trkpt>
      <trkpt lat="45.46635" lon="5.52864">
        <ele>670.8</ele>
        <time>2020-12-20T14:04:52.940Z</time>
      </trkpt>
      <trkpt lat="45.4666" lon="5.52882">
        <ele>672.1</ele>
        <time>2020-12-20T14:05:04.670Z</time>
      </trkpt>
      <trkpt lat="45.46674" lon="5.5289">
        <ele>672.4</ele>
        <time>2020-12-20T14:05:09.192Z</time>
      </trkpt>
      <trkpt lat="45.46686" lon="5.52902">
        <ele>671.7</ele>
        <time>2020-12-20T14:05:10.843Z</time>
      </trkpt>
      <trkpt lat="45.46702" lon="5.52923">
        <ele>670.2</ele>
        <time>2020-12-20T14:05:13.134Z</time>
      </trkpt>
      <trkpt lat="45.46712" lon="5.52941">
        <ele>667.8</ele>
        <time>2020-12-20T14:05:14.831Z</time>
      </trkpt>
      <trkpt lat="45.46721" lon="5.52958">
        <ele>665.6</ele>
        <time>2020-12-20T14:05:16.404Z</time>
      </trkpt>
      <trkpt lat="45.4673" lon="5.52969">
        <ele>664.5</ele>
        <time>2020-12-20T14:05:17.653Z</time>
      </trkpt>
      <trkpt lat="45.46741" lon="5.52979">
        <ele>663.8</ele>
        <time>2020-12-20T14:05:19.050Z</time>
      </trkpt>
      <trkpt lat="45.46753" lon="5.52993">
        <ele>662.4</ele>
        <time>2020-12-20T14:05:20.684Z</time>
      </trkpt>
      <trkpt lat="45.46764" lon="5.53005">
        <ele>661</ele>
        <time>2020-12-20T14:05:22.143Z</time>
      </trkpt>
      <trkpt lat="45.46775" lon="5.53015">
        <ele>660</ele>
        <time>2020-12-20T14:05:23.517Z</time>
      </trkpt>
      <trkpt lat="45.46786" lon="5.53024">
        <ele>659.1</ele>
        <time>2020-12-20T14:05:24.853Z</time>
      </trkpt>
      <trkpt lat="45.46798" lon="5.53034">
        <ele>658.2</ele>
        <time>2020-12-20T14:05:26.215Z</time>
      </trkpt>
      <trkpt lat="45.46812" lon="5.53043">
        <ele>657.5</ele>
        <time>2020-12-20T14:05:27.979Z</time>
      </trkpt>
      <trkpt lat="45.46829" lon="5.53054">
        <ele>656.7</ele>
        <time>2020-12-20T14:05:30.177Z</time>
      </trkpt>
      <trkpt lat="45.46843" lon="5.53062">
        <ele>656.3</ele>
        <time>2020-12-20T14:05:32.270Z</time>
      </trkpt>
      <trkpt lat="45.46852" lon="5.53065">
        <ele>656.5</ele>
        <time>2020-12-20T14:05:35.096Z</time>
      </trkpt>
      <trkpt lat="45.46877" lon="5.53078">
        <ele>656.4</ele>
        <time>2020-12-20T14:05:41.264Z</time>
      </trkpt>
      <trkpt lat="45.46895" lon="5.53091">
        <ele>656.3</ele>
        <time>2020-12-20T14:05:45.862Z</time>
      </trkpt>
      <trkpt lat="45.46913" lon="5.53102">
        <ele>656.7</ele>
        <time>2020-12-20T14:05:51.767Z</time>
      </trkpt>
      <trkpt lat="45.46927" lon="5.53117">
        <ele>655.5</ele>
        <time>2020-12-20T14:05:53.612Z</time>
      </trkpt>
      <trkpt lat="45.46926" lon="5.53136">
        <ele>653.3</ele>
        <time>2020-12-20T14:05:55.020Z</time>
      </trkpt>
      <trkpt lat="45.46914" lon="5.53152">
        <ele>651.3</ele>
        <time>2020-12-20T14:05:56.751Z</time>
      </trkpt>
      <trkpt lat="45.46902" lon="5.53158">
        <ele>649.5</ele>
        <time>2020-12-20T14:05:58.091Z</time>
      </trkpt>
      <trkpt lat="45.46885" lon="5.53163">
        <ele>647.4</ele>
        <time>2020-12-20T14:05:59.919Z</time>
      </trkpt>
      <trkpt lat="45.46871" lon="5.53167">
        <ele>645.6</ele>
        <time>2020-12-20T14:06:01.424Z</time>
      </trkpt>
      <trkpt lat="45.46854" lon="5.53172">
        <ele>643.5</ele>
        <time>2020-12-20T14:06:03.252Z</time>
      </trkpt>
      <trkpt lat="45.46835" lon="5.53179">
        <ele>641.1</ele>
        <time>2020-12-20T14:06:05.320Z</time>
      </trkpt>
      <trkpt lat="45.46816" lon="5.53187">
        <ele>639.2</ele>
        <time>2020-12-20T14:06:07.407Z</time>
      </trkpt>
      <trkpt lat="45.46805" lon="5.53189">
        <ele>638.3</ele>
        <time>2020-12-20T14:06:08.575Z</time>
      </trkpt>
      <trkpt lat="45.46791" lon="5.53192">
        <ele>637.2</ele>
        <time>2020-12-20T14:06:10.067Z</time>
      </trkpt>
      <trkpt lat="45.4678" lon="5.53196">
        <ele>636.1</ele>
        <time>2020-12-20T14:06:11.263Z</time>
      </trkpt>
      <trkpt lat="45.46766" lon="5.53201">
        <ele>634.7</ele>
        <time>2020-12-20T14:06:12.783Z</time>
      </trkpt>
      <trkpt lat="45.46749" lon="5.53198">
        <ele>633.9</ele>
        <time>2020-12-20T14:06:14.731Z</time>
      </trkpt>
      <trkpt lat="45.4675" lon="5.5321">
        <ele>632.8</ele>
        <time>2020-12-20T14:06:15.624Z</time>
      </trkpt>
      <trkpt lat="45.46743" lon="5.53178">
        <ele>635.3</ele>
        <time>2020-12-20T14:06:31.599Z</time>
      </trkpt>
      <trkpt lat="45.46732" lon="5.53156">
        <ele>636.8</ele>
        <time>2020-12-20T14:06:41.640Z</time>
      </trkpt>
      <trkpt lat="45.46727" lon="5.53149">
        <ele>637.2</ele>
        <time>2020-12-20T14:06:44.790Z</time>
      </trkpt>
      <trkpt lat="45.46719" lon="5.53142">
        <ele>637.4</ele>
        <time>2020-12-20T14:06:47.649Z</time>
      </trkpt>
      <trkpt lat="45.46703" lon="5.53136">
        <ele>636.7</ele>
        <time>2020-12-20T14:06:49.608Z</time>
      </trkpt>
      <trkpt lat="45.46689" lon="5.53129">
        <ele>636.4</ele>
        <time>2020-12-20T14:06:51.817Z</time>
      </trkpt>
      <trkpt lat="45.46667" lon="5.53118">
        <ele>635.9</ele>
        <time>2020-12-20T14:06:55.241Z</time>
      </trkpt>
      <trkpt lat="45.46642" lon="5.53108">
        <ele>636.4</ele>
        <time>2020-12-20T14:07:02.970Z</time>
      </trkpt>
      <trkpt lat="45.46633" lon="5.53105">
        <ele>636.4</ele>
        <time>2020-12-20T14:07:05.235Z</time>
      </trkpt>
      <trkpt lat="45.46625" lon="5.53103">
        <ele>636.3</ele>
        <time>2020-12-20T14:07:06.569Z</time>
      </trkpt>
      <trkpt lat="45.46608" lon="5.531">
        <ele>636</ele>
        <time>2020-12-20T14:07:09.204Z</time>
      </trkpt>
      <trkpt lat="45.46577" lon="5.53101">
        <ele>635.1</ele>
        <time>2020-12-20T14:07:13.391Z</time>
      </trkpt>
      <trkpt lat="45.46567" lon="5.53102">
        <ele>635.1</ele>
        <time>2020-12-20T14:07:15.849Z</time>
      </trkpt>
      <trkpt lat="45.4655" lon="5.531">
        <ele>635.1</ele>
        <time>2020-12-20T14:07:20.030Z</time>
      </trkpt>
      <trkpt lat="45.46542" lon="5.53097">
        <ele>635.2</ele>
        <time>2020-12-20T14:07:22.311Z</time>
      </trkpt>
      <trkpt lat="45.46522" lon="5.53083">
        <ele>635.3</ele>
        <time>2020-12-20T14:07:28.007Z</time>
      </trkpt>
      <trkpt lat="45.46507" lon="5.53073">
        <ele>635.8</ele>
        <time>2020-12-20T14:07:33.619Z</time>
      </trkpt>
      <trkpt lat="45.46491" lon="5.53062">
        <ele>636.1</ele>
        <time>2020-12-20T14:07:38.770Z</time>
      </trkpt>
      <trkpt lat="45.4647" lon="5.53051">
        <ele>635.9</ele>
        <time>2020-12-20T14:07:42.609Z</time>
      </trkpt>
      <trkpt lat="45.46452" lon="5.53042">
        <ele>635.7</ele>
        <time>2020-12-20T14:07:45.815Z</time>
      </trkpt>
      <trkpt lat="45.46439" lon="5.53037">
        <ele>635.4</ele>
        <time>2020-12-20T14:07:47.774Z</time>
      </trkpt>
      <trkpt lat="45.46421" lon="5.53035">
        <ele>634.7</ele>
        <time>2020-12-20T14:07:49.984Z</time>
      </trkpt>
      <trkpt lat="45.46409" lon="5.53036">
        <ele>634.1</ele>
        <time>2020-12-20T14:07:51.313Z</time>
      </trkpt>
      <trkpt lat="45.46388" lon="5.53038">
        <ele>633.1</ele>
        <time>2020-12-20T14:07:53.689Z</time>
      </trkpt>
      <trkpt lat="45.46375" lon="5.53041">
        <ele>632.1</ele>
        <time>2020-12-20T14:07:55.076Z</time>
      </trkpt>
      <trkpt lat="45.46362" lon="5.53057">
        <ele>628.8</ele>
        <time>2020-12-20T14:07:56.886Z</time>
      </trkpt>
      <trkpt lat="45.46348" lon="5.53054">
        <ele>628.4</ele>
        <time>2020-12-20T14:07:58.813Z</time>
      </trkpt>
      <trkpt lat="45.46341" lon="5.53058">
        <ele>627.1</ele>
        <time>2020-12-20T14:07:59.608Z</time>
      </trkpt>
      <trkpt lat="45.46328" lon="5.53061">
        <ele>626.5</ele>
        <time>2020-12-20T14:08:01.121Z</time>
      </trkpt>
      <trkpt lat="45.46316" lon="5.53058">
        <ele>628.9</ele>
        <time>2020-12-20T14:08:12.641Z</time>
      </trkpt>
      <trkpt lat="45.46308" lon="5.53057">
        <ele>630.2</ele>
        <time>2020-12-20T14:08:20.235Z</time>
      </trkpt>
      <trkpt lat="45.46301" lon="5.53057">
        <ele>631.2</ele>
        <time>2020-12-20T14:08:26.854Z</time>
      </trkpt>
      <trkpt lat="45.46288" lon="5.53061">
        <ele>632</ele>
        <time>2020-12-20T14:08:32.961Z</time>
      </trkpt>
      <trkpt lat="45.46283" lon="5.53066">
        <ele>631.4</ele>
        <time>2020-12-20T14:08:33.605Z</time>
      </trkpt>
      <trkpt lat="45.46272" lon="5.53078">
        <ele>629.7</ele>
        <time>2020-12-20T14:08:35.064Z</time>
      </trkpt>
      <trkpt lat="45.46265" lon="5.53083">
        <ele>629.3</ele>
        <time>2020-12-20T14:08:35.921Z</time>
      </trkpt>
      <trkpt lat="45.46258" lon="5.53085">
        <ele>629.5</ele>
        <time>2020-12-20T14:08:38.275Z</time>
      </trkpt>
      <trkpt lat="45.46246" lon="5.53094">
        <ele>627.5</ele>
        <time>2020-12-20T14:08:39.703Z</time>
      </trkpt>
      <trkpt lat="45.46236" lon="5.53107">
        <ele>623.7</ele>
        <time>2020-12-20T14:08:41.129Z</time>
      </trkpt>
      <trkpt lat="45.46227" lon="5.53113">
        <ele>622.2</ele>
        <time>2020-12-20T14:08:42.176Z</time>
      </trkpt>
      <trkpt lat="45.46213" lon="5.53116">
        <ele>622</ele>
        <time>2020-12-20T14:08:44.447Z</time>
      </trkpt>
      <trkpt lat="45.46186" lon="5.53127">
        <ele>620</ele>
        <time>2020-12-20T14:08:47.405Z</time>
      </trkpt>
      <trkpt lat="45.4618" lon="5.53129">
        <ele>619.8</ele>
        <time>2020-12-20T14:08:48.208Z</time>
      </trkpt>
      <trkpt lat="45.46171" lon="5.5313">
        <ele>620</ele>
        <time>2020-12-20T14:08:50.984Z</time>
      </trkpt>
      <trkpt lat="45.46161" lon="5.53129">
        <ele>619.2</ele>
        <time>2020-12-20T14:08:52.041Z</time>
      </trkpt>
      <trkpt lat="45.46142" lon="5.53117">
        <ele>618.5</ele>
        <time>2020-12-20T14:08:54.715Z</time>
      </trkpt>
      <trkpt lat="45.46136" lon="5.53109">
        <ele>619.8</ele>
        <time>2020-12-20T14:09:02.483Z</time>
      </trkpt>
      <trkpt lat="45.46128" lon="5.53098">
        <ele>621.6</ele>
        <time>2020-12-20T14:09:12.992Z</time>
      </trkpt>
      <trkpt lat="45.4612" lon="5.53088">
        <ele>623.2</ele>
        <time>2020-12-20T14:09:23.053Z</time>
      </trkpt>
      <trkpt lat="45.46111" lon="5.53072">
        <ele>624.8</ele>
        <time>2020-12-20T14:09:33.350Z</time>
      </trkpt>
      <trkpt lat="45.46101" lon="5.5306">
        <ele>624.6</ele>
        <time>2020-12-20T14:09:35.416Z</time>
      </trkpt>
      <trkpt lat="45.46091" lon="5.53045">
        <ele>624.8</ele>
        <time>2020-12-20T14:09:39.488Z</time>
      </trkpt>
      <trkpt lat="45.46083" lon="5.5303">
        <ele>625.5</ele>
        <time>2020-12-20T14:09:45.266Z</time>
      </trkpt>
      <trkpt lat="45.46075" lon="5.53017">
        <ele>625.9</ele>
        <time>2020-12-20T14:09:49.527Z</time>
      </trkpt>
      <trkpt lat="45.46064" lon="5.53003">
        <ele>625.8</ele>
        <time>2020-12-20T14:09:52.801Z</time>
      </trkpt>
      <trkpt lat="45.46055" lon="5.52982">
        <ele>627</ele>
        <time>2020-12-20T14:10:01.286Z</time>
      </trkpt>
      <trkpt lat="45.46043" lon="5.52959">
        <ele>627.9</ele>
        <time>2020-12-20T14:10:09.618Z</time>
      </trkpt>
      <trkpt lat="45.46033" lon="5.52935">
        <ele>629.7</ele>
        <time>2020-12-20T14:10:21.191Z</time>
      </trkpt>
      <trkpt lat="45.46027" lon="5.52912">
        <ele>632</ele>
        <time>2020-12-20T14:10:37.466Z</time>
      </trkpt>
      <trkpt lat="45.46018" lon="5.52904">
        <ele>631</ele>
        <time>2020-12-20T14:10:38.584Z</time>
      </trkpt>
      <trkpt lat="45.46004" lon="5.52873">
        <ele>631.9</ele>
        <time>2020-12-20T14:10:47.890Z</time>
      </trkpt>
      <trkpt lat="45.45993" lon="5.52858">
        <ele>631.8</ele>
        <time>2020-12-20T14:10:51.281Z</time>
      </trkpt>
      <trkpt lat="45.45979" lon="5.52842">
        <ele>631.4</ele>
        <time>2020-12-20T14:10:53.890Z</time>
      </trkpt>
      <trkpt lat="45.45965" lon="5.52823">
        <ele>630.5</ele>
        <time>2020-12-20T14:10:56.091Z</time>
      </trkpt>
      <trkpt lat="45.45955" lon="5.52802">
        <ele>629.6</ele>
        <time>2020-12-20T14:10:58.048Z</time>
      </trkpt>
      <trkpt lat="45.45948" lon="5.52784">
        <ele>629.3</ele>
        <time>2020-12-20T14:11:00.185Z</time>
      </trkpt>
      <trkpt lat="45.45942" lon="5.52742">
        <ele>629.7</ele>
        <time>2020-12-20T14:11:08.578Z</time>
      </trkpt>
      <trkpt lat="45.45944" lon="5.52722">
        <ele>629</ele>
        <time>2020-12-20T14:11:10.152Z</time>
      </trkpt>
      <trkpt lat="45.45947" lon="5.52699">
        <ele>628.4</ele>
        <time>2020-12-20T14:11:12.203Z</time>
      </trkpt>
      <trkpt lat="45.4595" lon="5.52678">
        <ele>627.9</ele>
        <time>2020-12-20T14:11:14.146Z</time>
      </trkpt>
      <trkpt lat="45.45949" lon="5.52653">
        <ele>626</ele>
        <time>2020-12-20T14:11:15.997Z</time>
      </trkpt>
      <trkpt lat="45.45944" lon="5.52634">
        <ele>623.5</ele>
        <time>2020-12-20T14:11:17.496Z</time>
      </trkpt>
      <trkpt lat="45.45929" lon="5.52609">
        <ele>618.7</ele>
        <time>2020-12-20T14:11:19.927Z</time>
      </trkpt>
      <trkpt lat="45.45921" lon="5.52598">
        <ele>616.3</ele>
        <time>2020-12-20T14:11:21.098Z</time>
      </trkpt>
      <trkpt lat="45.45917" lon="5.52589">
        <ele>614.7</ele>
        <time>2020-12-20T14:11:21.886Z</time>
      </trkpt>
      <trkpt lat="45.45918" lon="5.5257">
        <ele>612.6</ele>
        <time>2020-12-20T14:11:23.294Z</time>
      </trkpt>
      <trkpt lat="45.45912" lon="5.52543">
        <ele>608.7</ele>
        <time>2020-12-20T14:11:25.387Z</time>
      </trkpt>
      <trkpt lat="45.45911" lon="5.52514">
        <ele>605.2</ele>
        <time>2020-12-20T14:11:27.532Z</time>
      </trkpt>
      <trkpt lat="45.45911" lon="5.52464">
        <ele>601.3</ele>
        <time>2020-12-20T14:11:31.227Z</time>
      </trkpt>
      <trkpt lat="45.45913" lon="5.52452">
        <ele>600.8</ele>
        <time>2020-12-20T14:11:32.122Z</time>
      </trkpt>
      <trkpt lat="45.45917" lon="5.5244">
        <ele>600.4</ele>
        <time>2020-12-20T14:11:33.219Z</time>
      </trkpt>
      <trkpt lat="45.45924" lon="5.52425">
        <ele>599.9</ele>
        <time>2020-12-20T14:11:34.754Z</time>
      </trkpt>
      <trkpt lat="45.45931" lon="5.52416">
        <ele>599.5</ele>
        <time>2020-12-20T14:11:35.869Z</time>
      </trkpt>
      <trkpt lat="45.45942" lon="5.52407">
        <ele>599.9</ele>
        <time>2020-12-20T14:11:40.241Z</time>
      </trkpt>
      <trkpt lat="45.45941" lon="5.52387">
        <ele>600</ele>
        <time>2020-12-20T14:11:43.929Z</time>
      </trkpt>
      <trkpt lat="45.45935" lon="5.5237">
        <ele>599.8</ele>
        <time>2020-12-20T14:11:46.047Z</time>
      </trkpt>
      <trkpt lat="45.45927" lon="5.52353">
        <ele>599.5</ele>
        <time>2020-12-20T14:11:48.169Z</time>
      </trkpt>
      <trkpt lat="45.45919" lon="5.52342">
        <ele>599.1</ele>
        <time>2020-12-20T14:11:49.567Z</time>
      </trkpt>
      <trkpt lat="45.45914" lon="5.52336">
        <ele>598.8</ele>
        <time>2020-12-20T14:11:50.315Z</time>
      </trkpt>
      <trkpt lat="45.45904" lon="5.52327">
        <ele>598.4</ele>
        <time>2020-12-20T14:11:51.835Z</time>
      </trkpt>
      <trkpt lat="45.45883" lon="5.52312">
        <ele>597.8</ele>
        <time>2020-12-20T14:11:55.129Z</time>
      </trkpt>
      <trkpt lat="45.45871" lon="5.52304">
        <ele>597.5</ele>
        <time>2020-12-20T14:11:57.047Z</time>
      </trkpt>
      <trkpt lat="45.45858" lon="5.52295">
        <ele>597.4</ele>
        <time>2020-12-20T14:12:00.251Z</time>
      </trkpt>
      <trkpt lat="45.45847" lon="5.52286">
        <ele>597.4</ele>
        <time>2020-12-20T14:12:03.360Z</time>
      </trkpt>
      <trkpt lat="45.45837" lon="5.52279">
        <ele>597.4</ele>
        <time>2020-12-20T14:12:06.091Z</time>
      </trkpt>
      <trkpt lat="45.45824" lon="5.52272">
        <ele>596.8</ele>
        <time>2020-12-20T14:12:07.723Z</time>
      </trkpt>
      <trkpt lat="45.45809" lon="5.52269">
        <ele>595.5</ele>
        <time>2020-12-20T14:12:09.319Z</time>
      </trkpt>
      <trkpt lat="45.4579" lon="5.52267">
        <ele>593.8</ele>
        <time>2020-12-20T14:12:11.326Z</time>
      </trkpt>
      <trkpt lat="45.45762" lon="5.52262">
        <ele>591.4</ele>
        <time>2020-12-20T14:12:14.299Z</time>
      </trkpt>
      <trkpt lat="45.4575" lon="5.52259">
        <ele>590.5</ele>
        <time>2020-12-20T14:12:15.582Z</time>
      </trkpt>
      <trkpt lat="45.4574" lon="5.52255">
        <ele>589.4</ele>
        <time>2020-12-20T14:12:16.677Z</time>
      </trkpt>
      <trkpt lat="45.45729" lon="5.52248">
        <ele>588.4</ele>
        <time>2020-12-20T14:12:17.946Z</time>
      </trkpt>
      <trkpt lat="45.45708" lon="5.52232">
        <ele>586.7</ele>
        <time>2020-12-20T14:12:20.454Z</time>
      </trkpt>
      <trkpt lat="45.45701" lon="5.52222">
        <ele>586.4</ele>
        <time>2020-12-20T14:12:21.775Z</time>
      </trkpt>
      <trkpt lat="45.45692" lon="5.52212">
        <ele>585.7</ele>
        <time>2020-12-20T14:12:22.923Z</time>
      </trkpt>
      <trkpt lat="45.45681" lon="5.52205">
        <ele>584.4</ele>
        <time>2020-12-20T14:12:24.192Z</time>
      </trkpt>
      <trkpt lat="45.45671" lon="5.52199">
        <ele>583.1</ele>
        <time>2020-12-20T14:12:25.335Z</time>
      </trkpt>
      <trkpt lat="45.45647" lon="5.52182">
        <ele>581.1</ele>
        <time>2020-12-20T14:12:28.158Z</time>
      </trkpt>
      <trkpt lat="45.45627" lon="5.52158">
        <ele>580.1</ele>
        <time>2020-12-20T14:12:31.374Z</time>
      </trkpt>
      <trkpt lat="45.45613" lon="5.52138">
        <ele>579.4</ele>
        <time>2020-12-20T14:12:33.883Z</time>
      </trkpt>
      <trkpt lat="45.4561" lon="5.52131">
        <ele>579.3</ele>
        <time>2020-12-20T14:12:34.769Z</time>
      </trkpt>
      <trkpt lat="45.45602" lon="5.52065">
        <ele>580.3</ele>
        <time>2020-12-20T14:12:49.077Z</time>
      </trkpt>
      <trkpt lat="45.456" lon="5.5204">
        <ele>580.1</ele>
        <time>2020-12-20T14:12:52.011Z</time>
      </trkpt>
      <trkpt lat="45.45595" lon="5.51978">
        <ele>579.1</ele>
        <time>2020-12-20T14:12:58.337Z</time>
      </trkpt>
      <trkpt lat="45.45596" lon="5.51939">
        <ele>578.5</ele>
        <time>2020-12-20T14:13:02.336Z</time>
      </trkpt>
      <trkpt lat="45.45596" lon="5.51917">
        <ele>578.1</ele>
        <time>2020-12-20T14:13:04.491Z</time>
      </trkpt>
      <trkpt lat="45.456" lon="5.51895">
        <ele>578</ele>
        <time>2020-12-20T14:13:08.056Z</time>
      </trkpt>
      <trkpt lat="45.45605" lon="5.51867">
        <ele>577.9</ele>
        <time>2020-12-20T14:13:12.676Z</time>
      </trkpt>
      <trkpt lat="45.45607" lon="5.51847">
        <ele>577.6</ele>
        <time>2020-12-20T14:13:14.763Z</time>
      </trkpt>
      <trkpt lat="45.45608" lon="5.5183">
        <ele>577.2</ele>
        <time>2020-12-20T14:13:16.307Z</time>
      </trkpt>
      <trkpt lat="45.45607" lon="5.51812">
        <ele>576.1</ele>
        <time>2020-12-20T14:13:17.642Z</time>
      </trkpt>
      <trkpt lat="45.45603" lon="5.51795">
        <ele>574.4</ele>
        <time>2020-12-20T14:13:18.967Z</time>
      </trkpt>
      <trkpt lat="45.45602" lon="5.51779">
        <ele>573.5</ele>
        <time>2020-12-20T14:13:20.154Z</time>
      </trkpt>
      <trkpt lat="45.45603" lon="5.51758">
        <ele>572.7</ele>
        <time>2020-12-20T14:13:21.728Z</time>
      </trkpt>
      <trkpt lat="45.45608" lon="5.51734">
        <ele>571.3</ele>
        <time>2020-12-20T14:13:23.578Z</time>
      </trkpt>
      <trkpt lat="45.4561" lon="5.5172">
        <ele>570</ele>
        <time>2020-12-20T14:13:24.634Z</time>
      </trkpt>
      <trkpt lat="45.45614" lon="5.51703">
        <ele>568.6</ele>
        <time>2020-12-20T14:13:25.959Z</time>
      </trkpt>
      <trkpt lat="45.45619" lon="5.5169">
        <ele>567.7</ele>
        <time>2020-12-20T14:13:27.055Z</time>
      </trkpt>
      <trkpt lat="45.45628" lon="5.51677">
        <ele>567.1</ele>
        <time>2020-12-20T14:13:28.510Z</time>
      </trkpt>
      <trkpt lat="45.45643" lon="5.5166">
        <ele>566.3</ele>
        <time>2020-12-20T14:13:30.790Z</time>
      </trkpt>
      <trkpt lat="45.45683" lon="5.51612">
        <ele>562.3</ele>
        <time>2020-12-20T14:13:36.299Z</time>
      </trkpt>
      <trkpt lat="45.45682" lon="5.51591">
        <ele>558.1</ele>
        <time>2020-12-20T14:13:37.854Z</time>
      </trkpt>
      <trkpt lat="45.4578" lon="5.51555">
        <ele>561.3</ele>
        <time>2020-12-20T14:14:12.779Z</time>
      </trkpt>
      <trkpt lat="45.45793" lon="5.51548">
        <ele>561.4</ele>
        <time>2020-12-20T14:14:16.426Z</time>
      </trkpt>
      <trkpt lat="45.45807" lon="5.51536">
        <ele>560.6</ele>
        <time>2020-12-20T14:14:18.247Z</time>
      </trkpt>
      <trkpt lat="45.45833" lon="5.51518">
        <ele>560.2</ele>
        <time>2020-12-20T14:14:22.900Z</time>
      </trkpt>
      <trkpt lat="45.45847" lon="5.51503">
        <ele>558.3</ele>
        <time>2020-12-20T14:14:24.745Z</time>
      </trkpt>
      <trkpt lat="45.45852" lon="5.51495">
        <ele>557.2</ele>
        <time>2020-12-20T14:14:25.537Z</time>
      </trkpt>
      <trkpt lat="45.45842" lon="5.51459">
        <ele>549.6</ele>
        <time>2020-12-20T14:14:28.398Z</time>
      </trkpt>
      <trkpt lat="45.45832" lon="5.51429">
        <ele>543.2</ele>
        <time>2020-12-20T14:14:30.853Z</time>
      </trkpt>
      <trkpt lat="45.45825" lon="5.51407">
        <ele>539.4</ele>
        <time>2020-12-20T14:14:32.638Z</time>
      </trkpt>
      <trkpt lat="45.45821" lon="5.51397">
        <ele>538.2</ele>
        <time>2020-12-20T14:14:33.489Z</time>
      </trkpt>
      <trkpt lat="45.45818" lon="5.51394">
        <ele>537.7</ele>
        <time>2020-12-20T14:14:33.875Z</time>
      </trkpt>
      <trkpt lat="45.45812" lon="5.51391">
        <ele>537.1</ele>
        <time>2020-12-20T14:14:34.545Z</time>
      </trkpt>
      <trkpt lat="45.45803" lon="5.5138">
        <ele>535.6</ele>
        <time>2020-12-20T14:14:35.794Z</time>
      </trkpt>
      <trkpt lat="45.45795" lon="5.51365">
        <ele>534</ele>
        <time>2020-12-20T14:14:37.186Z</time>
      </trkpt>
      <trkpt lat="45.4579" lon="5.51359">
        <ele>533.3</ele>
        <time>2020-12-20T14:14:37.875Z</time>
      </trkpt>
      <trkpt lat="45.45784" lon="5.51346">
        <ele>532.1</ele>
        <time>2020-12-20T14:14:39.025Z</time>
      </trkpt>
      <trkpt lat="45.45784" lon="5.51324">
        <ele>530.5</ele>
        <time>2020-12-20T14:14:40.650Z</time>
      </trkpt>
      <trkpt lat="45.45773" lon="5.51296">
        <ele>528.1</ele>
        <time>2020-12-20T14:14:43.022Z</time>
      </trkpt>
      <trkpt lat="45.45754" lon="5.51275">
        <ele>526.5</ele>
        <time>2020-12-20T14:14:45.344Z</time>
      </trkpt>
      <trkpt lat="45.45727" lon="5.51249">
        <ele>524.4</ele>
        <time>2020-12-20T14:14:48.543Z</time>
      </trkpt>
      <trkpt lat="45.45699" lon="5.51223">
        <ele>522.2</ele>
        <time>2020-12-20T14:14:51.788Z</time>
      </trkpt>
      <trkpt lat="45.45692" lon="5.51214">
        <ele>521.6</ele>
        <time>2020-12-20T14:14:52.719Z</time>
      </trkpt>
      <trkpt lat="45.45689" lon="5.51203">
        <ele>521</ele>
        <time>2020-12-20T14:14:53.591Z</time>
      </trkpt>
      <trkpt lat="45.45689" lon="5.51196">
        <ele>520.6</ele>
        <time>2020-12-20T14:14:54.109Z</time>
      </trkpt>
      <trkpt lat="45.4569" lon="5.51188">
        <ele>520.2</ele>
        <time>2020-12-20T14:14:54.709Z</time>
      </trkpt>
      <trkpt lat="45.45694" lon="5.51174">
        <ele>519.4</ele>
        <time>2020-12-20T14:14:55.826Z</time>
      </trkpt>
      <trkpt lat="45.45717" lon="5.51129">
        <ele>517.6</ele>
        <time>2020-12-20T14:15:00.293Z</time>
      </trkpt>
      <trkpt lat="45.45749" lon="5.51074">
        <ele>515.8</ele>
        <time>2020-12-20T14:15:06.601Z</time>
      </trkpt>
      <trkpt lat="45.45761" lon="5.51052">
        <ele>515.6</ele>
        <time>2020-12-20T14:15:09.898Z</time>
      </trkpt>
      <trkpt lat="45.45772" lon="5.51032">
        <ele>515.5</ele>
        <time>2020-12-20T14:15:13.922Z</time>
      </trkpt>
      <trkpt lat="45.45794" lon="5.50991">
        <ele>515.7</ele>
        <time>2020-12-20T14:15:23.272Z</time>
      </trkpt>
      <trkpt lat="45.45803" lon="5.50971">
        <ele>516.3</ele>
        <time>2020-12-20T14:15:29.368Z</time>
      </trkpt>
      <trkpt lat="45.45808" lon="5.50949">
        <ele>516.6</ele>
        <time>2020-12-20T14:15:34.156Z</time>
      </trkpt>
      <trkpt lat="45.45808" lon="5.50937">
        <ele>516.8</ele>
        <time>2020-12-20T14:15:36.794Z</time>
      </trkpt>
      <trkpt lat="45.45808" lon="5.50926">
        <ele>516.9</ele>
        <time>2020-12-20T14:15:38.940Z</time>
      </trkpt>
      <trkpt lat="45.45789" lon="5.50925">
        <ele>516.8</ele>
        <time>2020-12-20T14:15:43.253Z</time>
      </trkpt>
      <trkpt lat="45.45774" lon="5.50914">
        <ele>517</ele>
        <time>2020-12-20T14:15:47.892Z</time>
      </trkpt>
      <trkpt lat="45.45766" lon="5.50907">
        <ele>517</ele>
        <time>2020-12-20T14:15:50.194Z</time>
      </trkpt>
      <trkpt lat="45.45752" lon="5.50886">
        <ele>517</ele>
        <time>2020-12-20T14:15:55.176Z</time>
      </trkpt>
      <trkpt lat="45.45727" lon="5.50847">
        <ele>517</ele>
        <time>2020-12-20T14:16:04.261Z</time>
      </trkpt>
      <trkpt lat="45.45702" lon="5.50808">
        <ele>518.1</ele>
        <time>2020-12-20T14:16:16.738Z</time>
      </trkpt>
      <trkpt lat="45.45697" lon="5.50796">
        <ele>518.8</ele>
        <time>2020-12-20T14:16:21.623Z</time>
      </trkpt>
      <trkpt lat="45.45695" lon="5.50765">
        <ele>520.3</ele>
        <time>2020-12-20T14:16:32.290Z</time>
      </trkpt>
      <trkpt lat="45.45692" lon="5.50725">
        <ele>522</ele>
        <time>2020-12-20T14:16:45.257Z</time>
      </trkpt>
      <trkpt lat="45.45688" lon="5.50698">
        <ele>523.1</ele>
        <time>2020-12-20T14:16:53.943Z</time>
      </trkpt>
      <trkpt lat="45.45683" lon="5.50661">
        <ele>524.5</ele>
        <time>2020-12-20T14:17:05.497Z</time>
      </trkpt>
      <trkpt lat="45.45677" lon="5.50617">
        <ele>525.4</ele>
        <time>2020-12-20T14:17:15.945Z</time>
      </trkpt>
      <trkpt lat="45.45673" lon="5.50593">
        <ele>525.8</ele>
        <time>2020-12-20T14:17:21.326Z</time>
      </trkpt>
      <trkpt lat="45.45667" lon="5.50559">
        <ele>526.3</ele>
        <time>2020-12-20T14:17:28.735Z</time>
      </trkpt>
      <trkpt lat="45.45658" lon="5.50524">
        <ele>526.5</ele>
        <time>2020-12-20T14:17:35.628Z</time>
      </trkpt>
      <trkpt lat="45.45652" lon="5.50528">
        <ele>526.4</ele>
        <time>2020-12-20T14:17:36.678Z</time>
      </trkpt>
      <trkpt lat="45.4564" lon="5.5054">
        <ele>526</ele>
        <time>2020-12-20T14:17:38.694Z</time>
      </trkpt>
      <trkpt lat="45.45626" lon="5.50557">
        <ele>525.7</ele>
        <time>2020-12-20T14:17:41.565Z</time>
      </trkpt>
      <trkpt lat="45.45593" lon="5.50582">
        <ele>525.1</ele>
        <time>2020-12-20T14:17:47.416Z</time>
      </trkpt>
      <trkpt lat="45.45578" lon="5.50591">
        <ele>524.8</ele>
        <time>2020-12-20T14:17:49.892Z</time>
      </trkpt>
      <trkpt lat="45.45569" lon="5.50598">
        <ele>524.5</ele>
        <time>2020-12-20T14:17:51.273Z</time>
      </trkpt>
      <trkpt lat="45.45549" lon="5.50612">
        <ele>524</ele>
        <time>2020-12-20T14:17:54.508Z</time>
      </trkpt>
      <trkpt lat="45.45529" lon="5.50629">
        <ele>523.5</ele>
        <time>2020-12-20T14:17:57.926Z</time>
      </trkpt>
      <trkpt lat="45.45503" lon="5.50651">
        <ele>523</ele>
        <time>2020-12-20T14:18:02.633Z</time>
      </trkpt>
      <trkpt lat="45.45474" lon="5.50672">
        <ele>523.3</ele>
        <time>2020-12-20T14:18:11.343Z</time>
      </trkpt>
      <trkpt lat="45.45453" lon="5.50692">
        <ele>523.8</ele>
        <time>2020-12-20T14:18:18.905Z</time>
      </trkpt>
      <trkpt lat="45.4543" lon="5.50714">
        <ele>525.1</ele>
        <time>2020-12-20T14:18:30.545Z</time>
      </trkpt>
      <trkpt lat="45.45418" lon="5.50728">
        <ele>526.1</ele>
        <time>2020-12-20T14:18:37.889Z</time>
      </trkpt>
      <trkpt lat="45.454" lon="5.50752">
        <ele>527.6</ele>
        <time>2020-12-20T14:18:49.263Z</time>
      </trkpt>
      <trkpt lat="45.45387" lon="5.50751">
        <ele>528.1</ele>
        <time>2020-12-20T14:18:54.187Z</time>
      </trkpt>
      <trkpt lat="45.45366" lon="5.50753">
        <ele>528.8</ele>
        <time>2020-12-20T14:19:01.607Z</time>
      </trkpt>
      <trkpt lat="45.45344" lon="5.50749">
        <ele>529.6</ele>
        <time>2020-12-20T14:19:09.727Z</time>
      </trkpt>
      <trkpt lat="45.45338" lon="5.5075">
        <ele>529.8</ele>
        <time>2020-12-20T14:19:11.853Z</time>
      </trkpt>
      <trkpt lat="45.45319" lon="5.50765">
        <ele>530</ele>
        <time>2020-12-20T14:19:17.668Z</time>
      </trkpt>
      <trkpt lat="45.45306" lon="5.50782">
        <ele>530.4</ele>
        <time>2020-12-20T14:19:23.126Z</time>
      </trkpt>
      <trkpt lat="45.45292" lon="5.50803">
        <ele>531.2</ele>
        <time>2020-12-20T14:19:30.918Z</time>
      </trkpt>
      <trkpt lat="45.45269" lon="5.50827">
        <ele>532.9</ele>
        <time>2020-12-20T14:19:43.960Z</time>
      </trkpt>
      <trkpt lat="45.45256" lon="5.50836">
        <ele>533.8</ele>
        <time>2020-12-20T14:19:50.697Z</time>
      </trkpt>
      <trkpt lat="45.45248" lon="5.5084">
        <ele>534.1</ele>
        <time>2020-12-20T14:19:53.772Z</time>
      </trkpt>
      <trkpt lat="45.45226" lon="5.5085">
        <ele>534.5</ele>
        <time>2020-12-20T14:20:00.501Z</time>
      </trkpt>
      <trkpt lat="45.45214" lon="5.50855">
        <ele>534.8</ele>
        <time>2020-12-20T14:20:04.429Z</time>
      </trkpt>
      <trkpt lat="45.45163" lon="5.5086">
        <ele>535.9</ele>
        <time>2020-12-20T14:20:20.038Z</time>
      </trkpt>
      <trkpt lat="45.45144" lon="5.50863">
        <ele>535.7</ele>
        <time>2020-12-20T14:20:23.252Z</time>
      </trkpt>
      <trkpt lat="45.4512" lon="5.50868">
        <ele>535.6</ele>
        <time>2020-12-20T14:20:28.845Z</time>
      </trkpt>
      <trkpt lat="45.45094" lon="5.50868">
        <ele>535</ele>
        <time>2020-12-20T14:20:32.593Z</time>
      </trkpt>
      <trkpt lat="45.4507" lon="5.50868">
        <ele>534.4</ele>
        <time>2020-12-20T14:20:35.979Z</time>
      </trkpt>
      <trkpt lat="45.45045" lon="5.50874">
        <ele>533.6</ele>
        <time>2020-12-20T14:20:39.313Z</time>
      </trkpt>
      <trkpt lat="45.45035" lon="5.50882">
        <ele>533.3</ele>
        <time>2020-12-20T14:20:40.910Z</time>
      </trkpt>
      <trkpt lat="45.45012" lon="5.50876">
        <ele>532.4</ele>
        <time>2020-12-20T14:20:43.779Z</time>
      </trkpt>
      <trkpt lat="45.45006" lon="5.509">
        <ele>532.3</ele>
        <time>2020-12-20T14:20:47.815Z</time>
      </trkpt>
      <trkpt lat="45.44976" lon="5.5091">
        <ele>531.2</ele>
        <time>2020-12-20T14:20:51.701Z</time>
      </trkpt>
      <trkpt lat="45.44962" lon="5.50916">
        <ele>530.6</ele>
        <time>2020-12-20T14:20:53.452Z</time>
      </trkpt>
      <trkpt lat="45.44944" lon="5.50925">
        <ele>530</ele>
        <time>2020-12-20T14:20:55.963Z</time>
      </trkpt>
      <trkpt lat="45.44927" lon="5.50936">
        <ele>529.7</ele>
        <time>2020-12-20T14:20:58.886Z</time>
      </trkpt>
      <trkpt lat="45.44893" lon="5.5096">
        <ele>529.5</ele>
        <time>2020-12-20T14:21:07.492Z</time>
      </trkpt>
      <trkpt lat="45.44883" lon="5.50965">
        <ele>529.3</ele>
        <time>2020-12-20T14:21:09.096Z</time>
      </trkpt>
      <trkpt lat="45.44872" lon="5.50967">
        <ele>529</ele>
        <time>2020-12-20T14:21:10.625Z</time>
      </trkpt>
      <trkpt lat="45.44862" lon="5.50967">
        <ele>528.8</ele>
        <time>2020-12-20T14:21:12.119Z</time>
      </trkpt>
      <trkpt lat="45.44852" lon="5.50963">
        <ele>528.5</ele>
        <time>2020-12-20T14:21:13.523Z</time>
      </trkpt>
      <trkpt lat="45.44827" lon="5.50939">
        <ele>527.5</ele>
        <time>2020-12-20T14:21:17.422Z</time>
      </trkpt>
      <trkpt lat="45.44803" lon="5.50906">
        <ele>526</ele>
        <time>2020-12-20T14:21:21.274Z</time>
      </trkpt>
      <trkpt lat="45.44792" lon="5.50896">
        <ele>525.5</ele>
        <time>2020-12-20T14:21:22.877Z</time>
      </trkpt>
      <trkpt lat="45.44785" lon="5.50892">
        <ele>525.2</ele>
        <time>2020-12-20T14:21:23.792Z</time>
      </trkpt>
      <trkpt lat="45.44778" lon="5.50887">
        <ele>524.8</ele>
        <time>2020-12-20T14:21:24.648Z</time>
      </trkpt>
      <trkpt lat="45.44758" lon="5.50879">
        <ele>523.8</ele>
        <time>2020-12-20T14:21:26.981Z</time>
      </trkpt>
      <trkpt lat="45.44747" lon="5.50876">
        <ele>523.3</ele>
        <time>2020-12-20T14:21:28.278Z</time>
      </trkpt>
      <trkpt lat="45.44724" lon="5.50879">
        <ele>522.3</ele>
        <time>2020-12-20T14:21:30.987Z</time>
      </trkpt>
      <trkpt lat="45.44707" lon="5.50886">
        <ele>521.5</ele>
        <time>2020-12-20T14:21:33.027Z</time>
      </trkpt>
      <trkpt lat="45.44687" lon="5.50906">
        <ele>520.6</ele>
        <time>2020-12-20T14:21:36.074Z</time>
      </trkpt>
      <trkpt lat="45.44674" lon="5.50922">
        <ele>520.1</ele>
        <time>2020-12-20T14:21:38.391Z</time>
      </trkpt>
      <trkpt lat="45.44671" lon="5.50925">
        <ele>520</ele>
        <time>2020-12-20T14:21:38.895Z</time>
      </trkpt>
      <trkpt lat="45.44655" lon="5.50944">
        <ele>520.2</ele>
        <time>2020-12-20T14:21:44.493Z</time>
      </trkpt>
      <trkpt lat="45.44637" lon="5.50964">
        <ele>521.2</ele>
        <time>2020-12-20T14:21:53.839Z</time>
      </trkpt>
      <trkpt lat="45.44619" lon="5.50984">
        <ele>522.6</ele>
        <time>2020-12-20T14:22:04.408Z</time>
      </trkpt>
      <trkpt lat="45.44604" lon="5.50996">
        <ele>524.1</ele>
        <time>2020-12-20T14:22:14.158Z</time>
      </trkpt>
      <trkpt lat="45.44593" lon="5.51001">
        <ele>525.2</ele>
        <time>2020-12-20T14:22:21.195Z</time>
      </trkpt>
      <trkpt lat="45.44586" lon="5.51001">
        <ele>525.8</ele>
        <time>2020-12-20T14:22:25.112Z</time>
      </trkpt>
      <trkpt lat="45.44571" lon="5.50995">
        <ele>526.8</ele>
        <time>2020-12-20T14:22:32.475Z</time>
      </trkpt>
      <trkpt lat="45.44553" lon="5.50991">
        <ele>528.1</ele>
        <time>2020-12-20T14:22:41.555Z</time>
      </trkpt>
      <trkpt lat="45.44536" lon="5.50987">
        <ele>529.4</ele>
        <time>2020-12-20T14:22:50.419Z</time>
      </trkpt>
      <trkpt lat="45.44518" lon="5.50985">
        <ele>530.8</ele>
        <time>2020-12-20T14:22:59.862Z</time>
      </trkpt>
      <trkpt lat="45.44505" lon="5.50983">
        <ele>531.8</ele>
        <time>2020-12-20T14:23:06.644Z</time>
      </trkpt>
      <trkpt lat="45.4449" lon="5.50981">
        <ele>532.7</ele>
        <time>2020-12-20T14:23:13.542Z</time>
      </trkpt>
      <trkpt lat="45.44474" lon="5.50978">
        <ele>533.6</ele>
        <time>2020-12-20T14:23:20.732Z</time>
      </trkpt>
      <trkpt lat="45.4445" lon="5.50975">
        <ele>535</ele>
        <time>2020-12-20T14:23:31.639Z</time>
      </trkpt>
      <trkpt lat="45.44434" lon="5.50973">
        <ele>535.9</ele>
        <time>2020-12-20T14:23:38.807Z</time>
      </trkpt>
      <trkpt lat="45.44412" lon="5.50971">
        <ele>536.9</ele>
        <time>2020-12-20T14:23:47.978Z</time>
      </trkpt>
      <trkpt lat="45.44387" lon="5.50968">
        <ele>536.8</ele>
        <time>2020-12-20T14:23:53.775Z</time>
      </trkpt>
      <trkpt lat="45.44359" lon="5.50967">
        <ele>536.8</ele>
        <time>2020-12-20T14:24:00.641Z</time>
      </trkpt>
      <trkpt lat="45.44327" lon="5.50963">
        <ele>537</ele>
        <time>2020-12-20T14:24:08.992Z</time>
      </trkpt>
      <trkpt lat="45.44304" lon="5.50961">
        <ele>537.6</ele>
        <time>2020-12-20T14:24:16.411Z</time>
      </trkpt>
      <trkpt lat="45.44288" lon="5.50961">
        <ele>538</ele>
        <time>2020-12-20T14:24:21.498Z</time>
      </trkpt>
      <trkpt lat="45.44261" lon="5.50962">
        <ele>538.6</ele>
        <time>2020-12-20T14:24:29.811Z</time>
      </trkpt>
      <trkpt lat="45.44247" lon="5.50965">
        <ele>538.9</ele>
        <time>2020-12-20T14:24:34.118Z</time>
      </trkpt>
      <trkpt lat="45.44232" lon="5.50968">
        <ele>539.2</ele>
        <time>2020-12-20T14:24:38.654Z</time>
      </trkpt>
      <trkpt lat="45.44202" lon="5.50976">
        <ele>539.4</ele>
        <time>2020-12-20T14:24:46.614Z</time>
      </trkpt>
      <trkpt lat="45.44173" lon="5.50983">
        <ele>539.4</ele>
        <time>2020-12-20T14:24:53.825Z</time>
      </trkpt>
      <trkpt lat="45.44097" lon="5.50998">
        <ele>540.8</ele>
        <time>2020-12-20T14:25:16.409Z</time>
      </trkpt>
      <trkpt lat="45.44081" lon="5.51003">
        <ele>540.7</ele>
        <time>2020-12-20T14:25:20.081Z</time>
      </trkpt>
      <trkpt lat="45.44071" lon="5.5101">
        <ele>540.3</ele>
        <time>2020-12-20T14:25:21.483Z</time>
      </trkpt>
      <trkpt lat="45.44054" lon="5.51017">
        <ele>540.2</ele>
        <time>2020-12-20T14:25:25.476Z</time>
      </trkpt>
      <trkpt lat="45.44032" lon="5.51023">
        <ele>540.4</ele>
        <time>2020-12-20T14:25:31.456Z</time>
      </trkpt>
      <trkpt lat="45.4401" lon="5.51025">
        <ele>541</ele>
        <time>2020-12-20T14:25:38.655Z</time>
      </trkpt>
      <trkpt lat="45.43995" lon="5.51026">
        <ele>541.5</ele>
        <time>2020-12-20T14:25:43.952Z</time>
      </trkpt>
      <trkpt lat="45.43983" lon="5.51023">
        <ele>542.5</ele>
        <time>2020-12-20T14:25:50.564Z</time>
      </trkpt>
      <trkpt lat="45.43961" lon="5.51017">
        <ele>544.1</ele>
        <time>2020-12-20T14:26:01.735Z</time>
      </trkpt>
      <trkpt lat="45.43952" lon="5.51014">
        <ele>544.7</ele>
        <time>2020-12-20T14:26:06.126Z</time>
      </trkpt>
      <trkpt lat="45.43924" lon="5.51007">
        <ele>546.2</ele>
        <time>2020-12-20T14:26:18.537Z</time>
      </trkpt>
      <trkpt lat="45.43905" lon="5.51009">
        <ele>546</ele>
        <time>2020-12-20T14:26:21.739Z</time>
      </trkpt>
      <trkpt lat="45.43889" lon="5.51011">
        <ele>545.7</ele>
        <time>2020-12-20T14:26:24.175Z</time>
      </trkpt>
      <trkpt lat="45.43862" lon="5.51018">
        <ele>545.2</ele>
        <time>2020-12-20T14:26:28.361Z</time>
      </trkpt>
      <trkpt lat="45.43848" lon="5.51022">
        <ele>545.2</ele>
        <time>2020-12-20T14:26:31.861Z</time>
      </trkpt>
      <trkpt lat="45.43838" lon="5.51025">
        <ele>545.3</ele>
        <time>2020-12-20T14:26:34.613Z</time>
      </trkpt>
      <trkpt lat="45.43807" lon="5.51044">
        <ele>546.3</ele>
        <time>2020-12-20T14:26:45.968Z</time>
      </trkpt>
      <trkpt lat="45.43785" lon="5.5106">
        <ele>546.8</ele>
        <time>2020-12-20T14:26:53.401Z</time>
      </trkpt>
      <trkpt lat="45.43765" lon="5.51072">
        <ele>547</ele>
        <time>2020-12-20T14:26:59.212Z</time>
      </trkpt>
      <trkpt lat="45.43752" lon="5.51082">
        <ele>547</ele>
        <time>2020-12-20T14:27:02.833Z</time>
      </trkpt>
      <trkpt lat="45.43736" lon="5.511">
        <ele>546.6</ele>
        <time>2020-12-20T14:27:05.891Z</time>
      </trkpt>
      <trkpt lat="45.43732" lon="5.51108">
        <ele>546.1</ele>
        <time>2020-12-20T14:27:06.617Z</time>
      </trkpt>
      <trkpt lat="45.43728" lon="5.51119">
        <ele>545.2</ele>
        <time>2020-12-20T14:27:07.533Z</time>
      </trkpt>
      <trkpt lat="45.43723" lon="5.51137">
        <ele>543.5</ele>
        <time>2020-12-20T14:27:08.964Z</time>
      </trkpt>
      <trkpt lat="45.43714" lon="5.51165">
        <ele>540.6</ele>
        <time>2020-12-20T14:27:11.241Z</time>
      </trkpt>
      <trkpt lat="45.43706" lon="5.51179">
        <ele>539.2</ele>
        <time>2020-12-20T14:27:12.576Z</time>
      </trkpt>
      <trkpt lat="45.43697" lon="5.5119">
        <ele>538</ele>
        <time>2020-12-20T14:27:13.825Z</time>
      </trkpt>
      <trkpt lat="45.43687" lon="5.512">
        <ele>536.7</ele>
        <time>2020-12-20T14:27:15.112Z</time>
      </trkpt>
      <trkpt lat="45.43672" lon="5.5121">
        <ele>535.3</ele>
        <time>2020-12-20T14:27:16.857Z</time>
      </trkpt>
      <trkpt lat="45.43616" lon="5.51236">
        <ele>530.3</ele>
        <time>2020-12-20T14:27:23.062Z</time>
      </trkpt>
      <trkpt lat="45.43599" lon="5.51244">
        <ele>528.1</ele>
        <time>2020-12-20T14:27:24.948Z</time>
      </trkpt>
      <trkpt lat="45.43588" lon="5.51249">
        <ele>526.5</ele>
        <time>2020-12-20T14:27:26.164Z</time>
      </trkpt>
      <trkpt lat="45.43563" lon="5.51251">
        <ele>524.6</ele>
        <time>2020-12-20T14:27:28.802Z</time>
      </trkpt>
      <trkpt lat="45.43547" lon="5.51251">
        <ele>523.6</ele>
        <time>2020-12-20T14:27:30.397Z</time>
      </trkpt>
      <trkpt lat="45.43521" lon="5.5125">
        <ele>522.3</ele>
        <time>2020-12-20T14:27:33.271Z</time>
      </trkpt>
      <trkpt lat="45.43496" lon="5.51252">
        <ele>520.2</ele>
        <time>2020-12-20T14:27:35.909Z</time>
      </trkpt>
      <trkpt lat="45.43482" lon="5.51252">
        <ele>518.7</ele>
        <time>2020-12-20T14:27:37.384Z</time>
      </trkpt>
      <trkpt lat="45.43461" lon="5.51247">
        <ele>517.2</ele>
        <time>2020-12-20T14:27:39.627Z</time>
      </trkpt>
      <trkpt lat="45.43439" lon="5.51241">
        <ele>515.5</ele>
        <time>2020-12-20T14:27:41.987Z</time>
      </trkpt>
      <trkpt lat="45.43425" lon="5.51235">
        <ele>514.5</ele>
        <time>2020-12-20T14:27:43.527Z</time>
      </trkpt>
      <trkpt lat="45.43407" lon="5.5122">
        <ele>514.7</ele>
        <time>2020-12-20T14:27:49.131Z</time>
      </trkpt>
      <trkpt lat="45.43394" lon="5.51206">
        <ele>516</ele>
        <time>2020-12-20T14:27:57.809Z</time>
      </trkpt>
      <trkpt lat="45.43382" lon="5.51205">
        <ele>516</ele>
        <time>2020-12-20T14:28:00.756Z</time>
      </trkpt>
      <trkpt lat="45.4335" lon="5.51212">
        <ele>514.6</ele>
        <time>2020-12-20T14:28:04.556Z</time>
      </trkpt>
      <trkpt lat="45.43342" lon="5.51217">
        <ele>513.7</ele>
        <time>2020-12-20T14:28:05.476Z</time>
      </trkpt>
      <trkpt lat="45.4335" lon="5.51212">
        <ele>514.6</ele>
        <time>2020-12-20T14:28:11.214Z</time>
      </trkpt>
      <trkpt lat="45.4333" lon="5.51265">
        <ele>506.9</ele>
        <time>2020-12-20T14:28:15.663Z</time>
      </trkpt>
      <trkpt lat="45.43329" lon="5.51287">
        <ele>505.3</ele>
        <time>2020-12-20T14:28:17.293Z</time>
      </trkpt>
      <trkpt lat="45.43331" lon="5.51336">
        <ele>501.9</ele>
        <time>2020-12-20T14:28:20.922Z</time>
      </trkpt>
      <trkpt lat="45.43328" lon="5.51357">
        <ele>501.3</ele>
        <time>2020-12-20T14:28:22.743Z</time>
      </trkpt>
      <trkpt lat="45.43326" lon="5.51385">
        <ele>500.6</ele>
        <time>2020-12-20T14:28:25.240Z</time>
      </trkpt>
      <trkpt lat="45.43323" lon="5.51426">
        <ele>499.6</ele>
        <time>2020-12-20T14:28:28.930Z</time>
      </trkpt>
      <trkpt lat="45.4332" lon="5.51455">
        <ele>499.2</ele>
        <time>2020-12-20T14:28:32.022Z</time>
      </trkpt>
      <trkpt lat="45.43318" lon="5.51487">
        <ele>498.8</ele>
        <time>2020-12-20T14:28:35.480Z</time>
      </trkpt>
      <trkpt lat="45.43315" lon="5.51527">
        <ele>498</ele>
        <time>2020-12-20T14:28:39.320Z</time>
      </trkpt>
      <trkpt lat="45.43313" lon="5.51572">
        <ele>497</ele>
        <time>2020-12-20T14:28:43.479Z</time>
      </trkpt>
      <trkpt lat="45.43314" lon="5.51612">
        <ele>496.8</ele>
        <time>2020-12-20T14:28:49.688Z</time>
      </trkpt>
      <trkpt lat="45.43314" lon="5.51637">
        <ele>496.8</ele>
        <time>2020-12-20T14:28:53.989Z</time>
      </trkpt>
      <trkpt lat="45.43314" lon="5.51681">
        <ele>496.6</ele>
        <time>2020-12-20T14:29:00.875Z</time>
      </trkpt>
      <trkpt lat="45.43312" lon="5.51709">
        <ele>496.2</ele>
        <time>2020-12-20T14:29:03.816Z</time>
      </trkpt>
    </trkseg>
  </trk>
</gpx>